AXGD100 Flymaster F1, V1.21, S/N 1200
HFDTE241212
HOPLTPILOT: Alain Marco Curion Cirerol
HOGTYGLIDERTYPE: Wintech Cargo Biplaza
HOGIDGLIDERID: None
HODTM100GPSDATUM: WGS-84
HOCIDCOMPETITIONID: 
HOCCLCOMPETITION CLASS: Sport
HOSITSite: None
B1300563653797N00255033WA0110701216
B1300573653794N00255034WA0110601216
B1300583653790N00255033WA0110401216
B1300593653787N00255032WA0110401216
B1301003653785N00255035WA0110501216
B1301013653783N00255037WA0110601216
B1301023653781N00255040WA0110701216
B1301033653781N00255044WA0110901215
B1301043653780N00255048WA0110901215
B1301053653780N00255054WA0110901215
B1301063653780N00255059WA0111101215
B1301073653781N00255064WA0111201215
B1301083653783N00255068WA0111301215
B1301093653785N00255073WA0111401215
B1301103653786N00255077WA0111401216
B1301113653787N00255082WA0111401216
B1301123653787N00255088WA0111301216
B1301133653786N00255094WA0111201216
B1301143653784N00255098WA0111101216
B1301153653781N00255102WA0111101216
B1301163653778N00255105WA0111101216
B1301173653775N00255104WA0111201216
B1301183653772N00255102WA0111101216
B1301193653770N00255099WA0111101216
B1301203653769N00255094WA0111101216
B1301213653769N00255088WA0111001216
B1301223653771N00255083WA0111001216
B1301233653774N00255079WA0110901216
B1301243653778N00255074WA0110701216
B1301253653782N00255069WA0110701217
B1301263653784N00255063WA0110701217
B1301273653786N00255058WA0110701217
B1301283653788N00255053WA0110701217
B1301293653789N00255048WA0110801217
B1301303653790N00255043WA0110801217
B1301313653790N00255039WA0110801217
B1301323653787N00255037WA0110801217
B1301333653785N00255036WA0110801217
B1301343653783N00255036WA0110901217
B1301353653781N00255037WA0110801217
B1301363653779N00255040WA0110901217
B1301373653778N00255043WA0110901217
B1301383653779N00255048WA0110801217
B1301393653780N00255053WA0110801217
B1301403653783N00255058WA0110701217
B1301413653786N00255063WA0110601217
B1301423653789N00255068WA0110501217
B1301433653794N00255072WA0110501217
B1301443653797N00255075WA0110401217
B1301453653799N00255081WA0110301217
B1301463653801N00255087WA0110201217
B1301473653802N00255093WA0110001217
B1301483653803N00255099WA0110001217
B1301493653804N00255103WA0110001217
B1301503653804N00255108WA0110001217
B1301513653803N00255112WA0110001217
B1301523653801N00255115WA0109901216
B1301533653799N00255118WA0109801216
B1301543653796N00255121WA0109701216
B1301553653792N00255122WA0109601216
B1301563653789N00255121WA0109501216
B1301573653785N00255118WA0109301216
B1301583653782N00255115WA0109201216
B1301593653780N00255110WA0109001216
B1302003653778N00255106WA0109001215
B1302013653776N00255101WA0108901215
B1302023653775N00255097WA0108901215
B1302033653774N00255093WA0108801215
B1302043653773N00255089WA0108701215
B1302053653770N00255087WA0108601214
B1302063653768N00255084WA0108501214
B1302073653766N00255080WA0108401214
B1302083653763N00255077WA0108401214
B1302093653762N00255075WA0108401214
B1302103653762N00255073WA0108301213
B1302113653761N00255070WA0108301213
B1302123653760N00255067WA0108201213
B1302133653757N00255065WA0108101212
B1302143653754N00255062WA0108001212
B1302153653752N00255060WA0108001212
B1302163653749N00255061WA0107901212
B1302173653747N00255062WA0108001211
B1302183653745N00255064WA0108001211
B1302193653743N00255067WA0107901211
B1302203653741N00255070WA0107801211
B1302213653738N00255074WA0107601210
B1302223653736N00255079WA0107501210
B1302233653735N00255085WA0107401209
B1302243653734N00255092WA0107301209
B1302253653734N00255098WA0107301208
B1302263653734N00255105WA0107301208
B1302273653734N00255112WA0107301207
B1302283653733N00255118WA0107301207
B1302293653733N00255124WA0107201207
B1302303653733N00255130WA0107201206
B1302313653732N00255135WA0107101206
B1302323653731N00255140WA0106901205
B1302333653730N00255147WA0106701205
B1302343653727N00255153WA0106401205
B1302353653724N00255160WA0106301204
B1302363653721N00255165WA0106301204
B1302373653719N00255169WA0106301203
B1302383653716N00255172WA0106501203
B1302393653714N00255173WA0106601203
B1302403653711N00255175WA0106701203
B1302413653708N00255175WA0106701202
B1302423653706N00255176WA0106801202
B1302433653704N00255176WA0106701202
B1302443653701N00255177WA0106701202
B1302453653698N00255176WA0106701201
B1302463653695N00255174WA0106701201
B1302473653692N00255171WA0106601201
B1302483653689N00255169WA0106601201
B1302493653686N00255166WA0106501200
B1302503653683N00255162WA0106401200
B1302513653681N00255156WA0106301200
B1302523653680N00255150WA0106301199
B1302533653680N00255144WA0106301199
B1302543653681N00255138WA0106401199
B1302553653681N00255133WA0106501198
B1302563653682N00255128WA0106601198
B1302573653681N00255125WA0106601198
B1302583653680N00255122WA0106601198
B1302593653679N00255118WA0106601198
B1303003653678N00255114WA0106501198
B1303013653678N00255109WA0106301197
B1303023653681N00255104WA0106301197
B1303033653686N00255101WA0106001197
B1303043653693N00255100WA0105801196
B1303053653699N00255102WA0105601195
B1303063653705N00255107WA0105601195
B1303073653709N00255113WA0105601195
B1303083653711N00255119WA0105701194
B1303093653712N00255124WA0105801194
B1303103653711N00255127WA0105901194
B1303113653710N00255130WA0105901194
B1303123653708N00255132WA0105901194
B1303133653705N00255135WA0105901194
B1303143653702N00255136WA0105801194
B1303153653698N00255136WA0105801193
B1303163653695N00255134WA0105701193
B1303173653693N00255131WA0105801193
B1303183653691N00255127WA0105901192
B1303193653690N00255124WA0106001192
B1303203653688N00255120WA0106001192
B1303213653688N00255118WA0106001192
B1303223653686N00255116WA0105901192
B1303233653684N00255115WA0105701191
B1303243653681N00255115WA0105501191
B1303253653677N00255119WA0105301191
B1303263653675N00255124WA0105101191
B1303273653673N00255130WA0105101190
B1303283653672N00255136WA0105101190
B1303293653671N00255141WA0105101190
B1303303653670N00255147WA0105301189
B1303313653668N00255152WA0105201189
B1303323653666N00255156WA0105301189
B1303333653664N00255160WA0105401188
B1303343653662N00255165WA0105601188
B1303353653661N00255168WA0105701188
B1303363653658N00255170WA0105701187
B1303373653655N00255172WA0105701187
B1303383653651N00255174WA0105501187
B1303393653647N00255174WA0105501187
B1303403653644N00255172WA0105301186
B1303413653642N00255167WA0105201186
B1303423653640N00255161WA0105101186
B1303433653641N00255154WA0105001186
B1303443653644N00255147WA0104901185
B1303453653650N00255142WA0105101185
B1303463653656N00255140WA0105101185
B1303473653662N00255142WA0105101184
B1303483653666N00255148WA0105101184
B1303493653668N00255155WA0104901183
B1303503653668N00255162WA0105001182
B1303513653664N00255167WA0105101182
B1303523653661N00255169WA0105101182
B1303533653658N00255170WA0105101182
B1303543653654N00255170WA0105101182
B1303553653652N00255166WA0105101181
B1303563653649N00255162WA0105101181
B1303573653648N00255156WA0105101181
B1303583653648N00255149WA0105101180
B1303593653651N00255141WA0105201180
B1304003653656N00255135WA0105301179
B1304013653663N00255130WA0105601179
B1304023653669N00255128WA0105801179
B1304033653676N00255130WA0106001180
B1304043653681N00255133WA0106001180
B1304053653684N00255139WA0106101179
B1304063653685N00255146WA0106001179
B1304073653683N00255152WA0106001179
B1304083653680N00255156WA0106101179
B1304093653677N00255158WA0106301178
B1304103653673N00255158WA0106301178
B1304113653670N00255157WA0106501178
B1304123653668N00255155WA0106601178
B1304133653667N00255153WA0106801178
B1304143653665N00255151WA0106901178
B1304153653663N00255148WA0107001177
B1304163653662N00255144WA0107101177
B1304173653662N00255139WA0107101177
B1304183653664N00255134WA0107001177
B1304193653668N00255128WA0107101177
B1304203653673N00255124WA0107201177
B1304213653681N00255123WA0107201177
B1304223653687N00255124WA0107401177
B1304233653692N00255128WA0107501178
B1304243653697N00255133WA0107801178
B1304253653699N00255138WA0108001179
B1304263653699N00255143WA0108201179
B1304273653698N00255148WA0108401179
B1304283653696N00255151WA0108401179
B1304293653692N00255153WA0108601179
B1304303653689N00255152WA0108701179
B1304313653687N00255150WA0108801179
B1304323653686N00255146WA0108901179
B1304333653686N00255142WA0109101180
B1304343653687N00255137WA0109301180
B1304353653688N00255132WA0109501180
B1304363653691N00255127WA0109701180
B1304373653695N00255122WA0109801181
B1304383653699N00255118WA0109901181
B1304393653704N00255114WA0110001182
B1304403653709N00255112WA0109901182
B1304413653714N00255112WA0109901183
B1304423653720N00255114WA0109901184
B1304433653725N00255119WA0109701185
B1304443653729N00255124WA0109701186
B1304453653731N00255131WA0109701186
B1304463653732N00255137WA0109801186
B1304473653732N00255142WA0109901186
B1304483653731N00255147WA0110001187
B1304493653729N00255150WA0110101187
B1304503653727N00255153WA0110101187
B1304513653724N00255155WA0110201188
B1304523653720N00255155WA0110301188
B1304533653716N00255153WA0110401188
B1304543653712N00255150WA0110601188
B1304553653710N00255148WA0110801189
B1304563653708N00255145WA0110901189
B1304573653706N00255143WA0111101190
B1304583653706N00255138WA0111201190
B1304593653706N00255133WA0111201191
B1305003653708N00255127WA0111201191
B1305013653711N00255122WA0111201191
B1305023653715N00255118WA0111301192
B1305033653721N00255115WA0111301193
B1305043653727N00255115WA0111301193
B1305053653732N00255117WA0111201194
B1305063653737N00255121WA0111201195
B1305073653741N00255127WA0111201196
B1305083653744N00255134WA0111101196
B1305093653744N00255141WA0111201196
B1305103653743N00255147WA0111401196
B1305113653741N00255151WA0111601197
B1305123653738N00255152WA0111801198
B1305133653736N00255151WA0111901198
B1305143653733N00255150WA0112101198
B1305153653731N00255148WA0112201198
B1305163653728N00255146WA0112201199
B1305173653726N00255144WA0112401199
B1305183653724N00255140WA0112501200
B1305193653722N00255136WA0112501200
B1305203653721N00255131WA0112501200
B1305213653722N00255127WA0112601201
B1305223653724N00255123WA0112701201
B1305233653726N00255118WA0112601202
B1305243653731N00255115WA0112601202
B1305253653736N00255111WA0112601203
B1305263653741N00255108WA0112801204
B1305273653746N00255105WA0112901204
B1305283653751N00255103WA0113001205
B1305293653756N00255102WA0113101206
B1305303653760N00255102WA0113201207
B1305313653765N00255105WA0113201208
B1305323653770N00255109WA0113101209
B1305333653774N00255114WA0113101210
B1305343653776N00255120WA0112901210
B1305353653778N00255126WA0112901211
B1305363653778N00255133WA0112901212
B1305373653778N00255138WA0113001212
B1305383653775N00255142WA0113101213
B1305393653772N00255146WA0113201213
B1305403653768N00255148WA0113301214
B1305413653765N00255148WA0113501214
B1305423653763N00255148WA0113701214
B1305433653760N00255147WA0113801214
B1305443653757N00255144WA0113801215
B1305453653755N00255140WA0113801215
B1305463653752N00255133WA0113801215
B1305473653751N00255127WA0113801216
B1305483653751N00255120WA0114101216
B1305493653751N00255115WA0114301217
B1305503653752N00255110WA0114501217
B1305513653752N00255105WA0114701217
B1305523653754N00255100WA0114701218
B1305533653756N00255095WA0114701219
B1305543653759N00255090WA0114601219
B1305553653763N00255085WA0114601220
B1305563653769N00255081WA0114701220
B1305573653774N00255078WA0114801222
B1305583653779N00255075WA0115001223
B1305593653784N00255072WA0115201224
B1306003653789N00255069WA0115301227
B1306013653793N00255067WA0115401229
B1306023653799N00255067WA0115401230
B1306033653806N00255069WA0115501229
B1306043653811N00255073WA0115601231
B1306053653814N00255079WA0115701232
B1306063653813N00255087WA0115701233
B1306073653810N00255092WA0115501234
B1306083653804N00255094WA0115401235
B1306093653798N00255093WA0115501237
B1306103653793N00255090WA0115801238
B1306113653791N00255086WA0116101240
B1306123653789N00255083WA0116301237
B1306133653788N00255079WA0116501237
B1306143653786N00255075WA0116501238
B1306153653785N00255071WA0116501238
B1306163653785N00255064WA0116501239
B1306173653786N00255058WA0116701241
B1306183653789N00255053WA0117001242
B1306193653793N00255049WA0117001242
B1306203653797N00255047WA0116901242
B1306213653803N00255047WA0116801243
B1306223653809N00255048WA0116701244
B1306233653814N00255053WA0116601246
B1306243653817N00255061WA0116601246
B1306253653818N00255071WA0116701247
B1306263653818N00255078WA0117101248
B1306273653818N00255083WA0117501249
B1306283653817N00255084WA0117801249
B1306293653814N00255084WA0117901250
B1306303653810N00255084WA0118001250
B1306313653807N00255083WA0118201250
B1306323653803N00255080WA0118401251
B1306333653800N00255076WA0118701251
B1306343653797N00255072WA0118901252
B1306353653795N00255069WA0119001252
B1306363653798N00255065WA0119001253
B1306373653801N00255059WA0118901253
B1306383653805N00255055WA0118901254
B1306393653810N00255051WA0118801254
B1306403653816N00255048WA0118901255
B1306413653822N00255045WA0119001257
B1306423653826N00255043WA0119201258
B1306433653832N00255043WA0119301260
B1306443653838N00255045WA0119301261
B1306453653844N00255049WA0119401262
B1306463653848N00255054WA0119501264
B1306473653852N00255060WA0119601266
B1306483653854N00255066WA0119701268
B1306493653854N00255071WA0119901267
B1306503653852N00255077WA0120001268
B1306513653848N00255080WA0120001269
B1306523653844N00255080WA0120201270
B1306533653840N00255079WA0120301270
B1306543653837N00255073WA0120501271
B1306553653836N00255066WA0120701272
B1306563653837N00255060WA0120801274
B1306573653838N00255054WA0121101274
B1306583653839N00255049WA0121301275
B1306593653841N00255044WA0121401276
B1307003653845N00255040WA0121401277
B1307013653851N00255037WA0121401278
B1307023653856N00255034WA0121401279
B1307033653861N00255032WA0121601279
B1307043653867N00255033WA0121901281
B1307053653872N00255035WA0122001282
B1307063653877N00255038WA0122101284
B1307073653881N00255043WA0122201284
B1307083653883N00255050WA0122201285
B1307093653885N00255058WA0122201286
B1307103653885N00255066WA0122201287
B1307113653884N00255072WA0122401287
B1307123653883N00255078WA0122601288
B1307133653882N00255082WA0122801289
B1307143653880N00255085WA0123001289
B1307153653878N00255086WA0123101290
B1307163653875N00255085WA0123101291
B1307173653870N00255083WA0123101291
B1307183653865N00255079WA0123301291
B1307193653862N00255073WA0123501292
B1307203653860N00255066WA0123801293
B1307213653858N00255060WA0124201294
B1307223653859N00255055WA0124501295
B1307233653860N00255050WA0124701296
B1307243653861N00255045WA0124701297
B1307253653861N00255040WA0124801299
B1307263653864N00255032WA0124901300
B1307273653869N00255026WA0124901301
B1307283653874N00255021WA0125101301
B1307293653880N00255017WA0125301302
B1307303653884N00255014WA0125501304
B1307313653888N00255012WA0125901307
B1307323653893N00255010WA0126101310
B1307333653897N00255008WA0126401310
B1307343653903N00255007WA0126501311
B1307353653910N00255008WA0126701312
B1307363653916N00255010WA0126801313
B1307373653921N00255014WA0126901314
B1307383653924N00255021WA0126901315
B1307393653924N00255028WA0126801316
B1307403653923N00255035WA0126801317
B1307413653921N00255041WA0126801318
B1307423653917N00255044WA0126701318
B1307433653912N00255045WA0126701319
B1307443653906N00255045WA0126801321
B1307453653901N00255045WA0126801321
B1307463653896N00255045WA0126901321
B1307473653891N00255044WA0127101322
B1307483653888N00255041WA0127401322
B1307493653885N00255039WA0127601323
B1307503653884N00255036WA0127701324
B1307513653882N00255032WA0127801324
B1307523653880N00255027WA0127801325
B1307533653878N00255021WA0127801326
B1307543653878N00255013WA0128001327
B1307553653879N00255006WA0128201328
B1307563653880N00254999WA0128401329
B1307573653882N00254992WA0128501330
B1307583653882N00254988WA0128801330
B1307593653882N00254984WA0129101331
B1308003653882N00254977WA0129201332
B1308013653884N00254969WA0129001334
B1308023653888N00254963WA0129001335
B1308033653892N00254958WA0129101335
B1308043653897N00254954WA0129201336
B1308053653901N00254951WA0129201337
B1308063653905N00254950WA0129201337
B1308073653910N00254950WA0129201339
B1308083653915N00254951WA0129101340
B1308093653920N00254956WA0129101341
B1308103653926N00254960WA0129201343
B1308113653931N00254964WA0129301344
B1308123653937N00254967WA0129601345
B1308133653941N00254972WA0130001346
B1308143653944N00254976WA0130201346
B1308153653946N00254979WA0130401347
B1308163653946N00254984WA0130401348
B1308173653944N00254992WA0130301349
B1308183653941N00254998WA0130301351
B1308193653938N00255004WA0130301352
B1308203653935N00255008WA0130501353
B1308213653932N00255012WA0130601354
B1308223653930N00255014WA0130801355
B1308233653928N00255016WA0130901355
B1308243653925N00255016WA0131101356
B1308253653922N00255016WA0131201357
B1308263653918N00255015WA0131201358
B1308273653914N00255013WA0131401359
B1308283653912N00255008WA0131701360
B1308293653910N00255002WA0132001362
B1308303653911N00254995WA0132201362
B1308313653912N00254989WA0132501363
B1308323653915N00254983WA0132801365
B1308333653917N00254976WA0133101365
B1308343653920N00254970WA0133301366
B1308353653923N00254964WA0133401366
B1308363653928N00254959WA0133501367
B1308373653933N00254952WA0133701368
B1308383653938N00254946WA0133801369
B1308393653942N00254943WA0134101371
B1308403653947N00254940WA0134401373
B1308413653951N00254938WA0134601375
B1308423653956N00254939WA0134701378
B1308433653961N00254941WA0134801380
B1308443653966N00254945WA0135001380
B1308453653969N00254950WA0135101381
B1308463653971N00254956WA0135201382
B1308473653973N00254962WA0135201383
B1308483653974N00254967WA0135301384
B1308493653974N00254973WA0135401385
B1308503653973N00254978WA0135501386
B1308513653971N00254982WA0135501388
B1308523653970N00254986WA0135601388
B1308533653968N00254989WA0135801389
B1308543653965N00254993WA0135901390
B1308553653963N00254995WA0136101392
B1308563653962N00254997WA0136201393
B1308573653960N00254997WA0136401394
B1308583653957N00254995WA0136501396
B1308593653953N00254994WA0136501398
B1309003653948N00254991WA0136601399
B1309013653944N00254986WA0136801401
B1309023653941N00254980WA0137101402
B1309033653940N00254973WA0137501404
B1309043653940N00254966WA0137801405
B1309053653942N00254959WA0138101406
B1309063653945N00254953WA0138201407
B1309073653949N00254948WA0138301408
B1309083653954N00254943WA0138501410
B1309093653958N00254939WA0138601410
B1309103653961N00254937WA0138801412
B1309113653965N00254937WA0138801414
B1309123653969N00254940WA0138801415
B1309133653973N00254945WA0138701416
B1309143653975N00254951WA0138901418
B1309153653976N00254956WA0139001419
B1309163653976N00254962WA0139201420
B1309173653976N00254968WA0139501420
B1309183653974N00254972WA0139601422
B1309193653973N00254974WA0139901422
B1309203653970N00254975WA0140001424
B1309213653966N00254976WA0140101425
B1309223653963N00254976WA0140201426
B1309233653959N00254974WA0140401427
B1309243653955N00254972WA0140601428
B1309253653951N00254968WA0140801429
B1309263653949N00254963WA0141101431
B1309273653946N00254957WA0141301431
B1309283653944N00254951WA0141501432
B1309293653943N00254944WA0141601433
B1309303653944N00254936WA0141701434
B1309313653947N00254928WA0141901435
B1309323653951N00254920WA0142201437
B1309333653957N00254914WA0142501437
B1309343653962N00254909WA0142901439
B1309353653968N00254906WA0143401440
B1309363653973N00254903WA0143801442
B1309373653977N00254902WA0143901444
B1309383653980N00254901WA0144001447
B1309393653984N00254903WA0144101449
B1309403653988N00254906WA0144001453
B1309413653992N00254909WA0144001456
B1309423653996N00254914WA0144101459
B1309433653999N00254919WA0144301462
B1309443654001N00254923WA0144701467
B1309453654003N00254927WA0144901470
B1309463654003N00254931WA0145101472
B1309473654000N00254937WA0145201475
B1309483653998N00254941WA0145301480
B1309493653995N00254943WA0145401485
B1309503653992N00254945WA0145501490
B1309513653988N00254947WA0145701495
B1309523653985N00254948WA0145701500
B1309533653981N00254949WA0145901504
B1309543653976N00254949WA0146001509
B1309553653969N00254943WA0146101514
B1309563653964N00254937WA0146101517
B1309573653960N00254931WA0146401522
B1309583653958N00254926WA0146701528
B1309593653957N00254920WA0147001534
B1310003653957N00254914WA0147301540
B1310013653957N00254908WA0147501547
B1310023653960N00254901WA0147701553
B1310033653963N00254894WA0147901559
B1310043653966N00254889WA0148201565
B1310053653970N00254885WA0148401570
B1310063653975N00254883WA0148601574
B1310073653980N00254883WA0148601578
B1310083653985N00254883WA0148801584
B1310093653990N00254884WA0148901590
B1310103653993N00254888WA0149001595
B1310113653996N00254891WA0149201600
B1310123653997N00254895WA0149401605
B1310133653997N00254899WA0149501609
B1310143653996N00254903WA0149701612
B1310153653994N00254908WA0149801615
B1310163653990N00254912WA0149901619
B1310173653986N00254915WA0149901623
B1310183653981N00254917WA0150001625
B1310193653976N00254919WA0150101628
B1310203653971N00254920WA0150301631
B1310213653966N00254921WA0150501633
B1310223653961N00254921WA0150801636
B1310233653957N00254920WA0151101639
B1310243653952N00254919WA0151201642
B1310253653948N00254917WA0151301645
B1310263653943N00254912WA0151501649
B1310273653940N00254906WA0151801652
B1310283653939N00254900WA0152001655
B1310293653937N00254894WA0152201658
B1310303653936N00254888WA0152501661
B1310313653936N00254882WA0152601664
B1310323653938N00254875WA0152701667
B1310333653941N00254869WA0152701669
B1310343653945N00254863WA0152901671
B1310353653950N00254859WA0153101673
B1310363653956N00254856WA0153401676
B1310373653961N00254854WA0153701678
B1310383653965N00254854WA0153901681
B1310393653970N00254853WA0154101684
B1310403653975N00254854WA0154101687
B1310413653979N00254855WA0154101690
B1310423653982N00254858WA0154201693
B1310433653988N00254858WA0154301695
B1310443653993N00254859WA0154501678
B1310453653994N00254864WA0154701664
B1310463653993N00254870WA0154901664
B1310473653990N00254875WA0155201665
B1310483653988N00254879WA0155401667
B1310493653984N00254882WA0155701668
B1310503653982N00254884WA0156101669
B1310513653979N00254884WA0156301669
B1310523653976N00254883WA0156501670
B1310533653973N00254882WA0156701670
B1310543653969N00254881WA0156801670
B1310553653964N00254879WA0157001670
B1310563653960N00254876WA0157101671
B1310573653955N00254871WA0157201672
B1310583653951N00254865WA0157401672
B1310593653948N00254859WA0157701673
B1311003653946N00254852WA0158001674
B1311013653944N00254845WA0158201675
B1311023653942N00254839WA0158401676
B1311033653942N00254832WA0158601678
B1311043653943N00254825WA0158701680
B1311053653945N00254817WA0158601682
B1311063653948N00254812WA0158501683
B1311073653953N00254808WA0158501684
B1311083653959N00254806WA0158501685
B1311093653965N00254805WA0158501688
B1311103653970N00254804WA0158701690
B1311113653976N00254804WA0159001692
B1311123653980N00254804WA0159201691
B1311133653984N00254806WA0159301692
B1311143653987N00254809WA0159401693
B1311153653991N00254812WA0159501694
B1311163653993N00254816WA0159601695
B1311173653995N00254820WA0159801697
B1311183653996N00254825WA0159901698
B1311193653995N00254829WA0159901699
B1311203653993N00254832WA0160001699
B1311213653989N00254835WA0160001700
B1311223653985N00254837WA0160201701
B1311233653980N00254838WA0160401701
B1311243653976N00254837WA0160601701
B1311253653973N00254835WA0160701702
B1311263653969N00254831WA0160901702
B1311273653965N00254828WA0161101703
B1311283653961N00254824WA0161201704
B1311293653958N00254819WA0161401705
B1311303653955N00254812WA0161601706
B1311313653954N00254805WA0161701706
B1311323653953N00254798WA0161901707
B1311333653953N00254790WA0162001707
B1311343653953N00254782WA0162101709
B1311353653954N00254773WA0162201711
B1311363653956N00254765WA0162401714
B1311373653958N00254758WA0162401716
B1311383653961N00254752WA0162501718
B1311393653964N00254748WA0162501720
B1311403653968N00254744WA0162301723
B1311413653974N00254742WA0162201726
B1311423653980N00254742WA0162201725
B1311433653985N00254744WA0162201726
B1311443653989N00254747WA0162301728
B1311453653992N00254750WA0162501728
B1311463653995N00254753WA0162701728
B1311473653995N00254755WA0162701729
B1311483653995N00254759WA0162701730
B1311493653993N00254762WA0162801731
B1311503653990N00254765WA0162801731
B1311513653987N00254768WA0162901732
B1311523653984N00254771WA0163001733
B1311533653980N00254773WA0163201733
B1311543653978N00254776WA0163401734
B1311553653975N00254777WA0163701734
B1311563653972N00254778WA0163801734
B1311573653969N00254777WA0164001735
B1311583653965N00254775WA0164001735
B1311593653960N00254772WA0164101736
B1312003653956N00254767WA0164201736
B1312013653953N00254762WA0164301737
B1312023653951N00254754WA0164401737
B1312033653950N00254745WA0164501738
B1312043653952N00254737WA0164501739
B1312053653955N00254728WA0164601740
B1312063653959N00254722WA0164601741
B1312073653965N00254719WA0164601742
B1312083653970N00254717WA0164601744
B1312093653975N00254716WA0164601746
B1312103653980N00254717WA0164701744
B1312113653984N00254718WA0164801746
B1312123653988N00254719WA0164901746
B1312133653990N00254722WA0164901747
B1312143653991N00254726WA0165001748
B1312153653991N00254731WA0165001748
B1312163653991N00254735WA0165201749
B1312173653990N00254739WA0165401750
B1312183653988N00254741WA0165601751
B1312193653985N00254742WA0165701751
B1312203653981N00254741WA0165701751
B1312213653977N00254739WA0165701752
B1312223653973N00254735WA0165701753
B1312233653969N00254730WA0165601754
B1312243653964N00254723WA0165401754
B1312253653961N00254716WA0165401755
B1312263653958N00254707WA0165501755
B1312273653956N00254699WA0165601756
B1312283653954N00254692WA0165601756
B1312293653953N00254685WA0165601757
B1312303653952N00254678WA0165501758
B1312313653951N00254669WA0165301759
B1312323653950N00254659WA0165101760
B1312333653951N00254649WA0165101761
B1312343653953N00254639WA0165001763
B1312353653957N00254632WA0165001764
B1312363653961N00254626WA0164901764
B1312373653965N00254620WA0164801765
B1312383653969N00254614WA0164701766
B1312393653973N00254607WA0164601768
B1312403653978N00254601WA0164601769
B1312413653983N00254596WA0164501769
B1312423653988N00254591WA0164301769
B1312433653994N00254588WA0164101768
B1312443654000N00254586WA0163901768
B1312453654006N00254584WA0163801767
B1312463654011N00254582WA0163801767
B1312473654016N00254581WA0163801767
B1312483654020N00254581WA0163701769
B1312493654023N00254582WA0163701769
B1312503654026N00254583WA0163601769
B1312513654029N00254585WA0163501769
B1312523654031N00254589WA0163301770
B1312533654030N00254594WA0163001769
B1312543654028N00254599WA0162901769
B1312553654025N00254603WA0162801768
B1312563654022N00254605WA0162901767
B1312573654018N00254606WA0162901767
B1312583654014N00254607WA0163001766
B1312593654010N00254606WA0163101766
B1313003654005N00254605WA0163001766
B1313013654000N00254602WA0163001765
B1313023653996N00254599WA0162901765
B1313033653991N00254595WA0162801765
B1313043653988N00254591WA0162701764
B1313053653984N00254588WA0162501763
B1313063653981N00254584WA0162301763
B1313073653976N00254579WA0162001762
B1313083653972N00254573WA0161801762
B1313093653967N00254567WA0161601761
B1313103653963N00254560WA0161401761
B1313113653960N00254554WA0161201760
B1313123653957N00254548WA0161001759
B1313133653956N00254541WA0160701759
B1313143653955N00254532WA0160401757
B1313153653953N00254523WA0160101755
B1313163653952N00254514WA0159901752
B1313173653951N00254506WA0159701751
B1313183653950N00254499WA0159501749
B1313193653950N00254491WA0159301747
B1313203653952N00254481WA0158901745
B1313213653954N00254471WA0158501740
B1313223653956N00254462WA0158301736
B1313233653959N00254453WA0158201734
B1313243653961N00254444WA0158101731
B1313253653964N00254437WA0158001728
B1313263653967N00254429WA0157701725
B1313273653970N00254421WA0157501722
B1313283653974N00254413WA0157201718
B1313293653979N00254404WA0157001713
B1313303653984N00254396WA0156701708
B1313313653989N00254389WA0156501704
B1313323653994N00254383WA0156401699
B1313333654000N00254378WA0156101695
B1313343654006N00254373WA0155901691
B1313353654012N00254368WA0155701687
B1313363654018N00254365WA0155701684
B1313373654024N00254361WA0155501681
B1313383654030N00254357WA0155401678
B1313393654036N00254354WA0155201675
B1313403654043N00254350WA0155001673
B1313413654049N00254347WA0154901671
B1313423654056N00254344WA0154701668
B1313433654063N00254341WA0154601665
B1313443654070N00254338WA0154501663
B1313453654077N00254334WA0154401661
B1313463654084N00254331WA0154301660
B1313473654092N00254327WA0154201658
B1313483654099N00254324WA0154201657
B1313493654106N00254322WA0154101656
B1313503654114N00254319WA0154101655
B1313513654122N00254316WA0154001653
B1313523654129N00254312WA0154001652
B1313533654136N00254308WA0154001651
B1313543654143N00254304WA0154101651
B1313553654150N00254300WA0154101651
B1313563654157N00254296WA0154101651
B1313573654164N00254293WA0154101651
B1313583654170N00254289WA0154201651
B1313593654176N00254285WA0154201651
B1314003654183N00254281WA0154301651
B1314013654189N00254278WA0154101651
B1314023654195N00254275WA0154101651
B1314033654201N00254272WA0154001651
B1314043654209N00254268WA0153901650
B1314053654217N00254264WA0153901649
B1314063654225N00254260WA0153601648
B1314073654232N00254256WA0153601648
B1314083654239N00254252WA0153501648
B1314093654245N00254248WA0153401647
B1314103654252N00254244WA0153201646
B1314113654260N00254241WA0152901645
B1314123654267N00254239WA0152701642
B1314133654275N00254239WA0152601641
B1314143654282N00254240WA0152501641
B1314153654288N00254244WA0152301640
B1314163654293N00254248WA0152201639
B1314173654297N00254254WA0152101638
B1314183654300N00254260WA0152001636
B1314193654301N00254267WA0151901636
B1314203654303N00254272WA0151801641
B1314213654304N00254277WA0151801642
B1314223654304N00254281WA0151601641
B1314233654304N00254286WA0151501641
B1314243654303N00254290WA0151401641
B1314253654301N00254295WA0151401641
B1314263654301N00254298WA0151401640
B1314273654299N00254301WA0151601639
B1314283654298N00254305WA0151701639
B1314293654297N00254307WA0151801639
B1314303654296N00254309WA0151801638
B1314313654294N00254311WA0151701638
B1314323654293N00254314WA0151501638
B1314333654292N00254317WA0151201637
B1314343654290N00254321WA0151001636
B1314353654289N00254324WA0150901635
B1314363654288N00254328WA0150801634
B1314373654287N00254330WA0150601633
B1314383654286N00254332WA0150401631
B1314393654285N00254335WA0150201631
B1314403654283N00254338WA0149901630
B1314413654281N00254343WA0149601629
B1314423654279N00254348WA0149501628
B1314433654277N00254352WA0149301627
B1314443654276N00254357WA0149201625
B1314453654274N00254363WA0149001624
B1314463654272N00254368WA0148901624
B1314473654270N00254372WA0148801623
B1314483654268N00254376WA0148701622
B1314493654265N00254380WA0148601621
B1314503654263N00254385WA0148401621
B1314513654260N00254391WA0148101620
B1314523654257N00254397WA0147901620
B1314533654255N00254402WA0147801619
B1314543654253N00254406WA0147801618
B1314553654251N00254410WA0147901617
B1314563654250N00254413WA0147901615
B1314573654248N00254416WA0147801614
B1314583654247N00254420WA0147701613
B1314593654245N00254424WA0147601612
B1315003654243N00254428WA0147501612
B1315013654240N00254432WA0147501611
B1315023654238N00254435WA0147401610
B1315033654235N00254439WA0147301609
B1315043654233N00254442WA0147201609
B1315053654231N00254445WA0147101608
B1315063654228N00254449WA0147001608
B1315073654226N00254452WA0146801607
B1315083654223N00254456WA0146801606
B1315093654221N00254460WA0146701606
B1315103654219N00254463WA0146601605
B1315113654217N00254465WA0146601604
B1315123654215N00254469WA0146501603
B1315133654213N00254473WA0146501603
B1315143654211N00254478WA0146501602
B1315153654211N00254483WA0146701602
B1315163654211N00254488WA0146701601
B1315173654211N00254492WA0146801600
B1315183654210N00254496WA0146701600
B1315193654210N00254500WA0146601599
B1315203654209N00254504WA0146601599
B1315213654208N00254508WA0146501599
B1315223654206N00254511WA0146601598
B1315233654205N00254514WA0146501597
B1315243654203N00254517WA0146401597
B1315253654201N00254521WA0146201596
B1315263654199N00254526WA0146101596
B1315273654197N00254531WA0146101595
B1315283654195N00254536WA0146101594
B1315293654194N00254540WA0146201594
B1315303654193N00254542WA0146201593
B1315313654192N00254546WA0146201593
B1315323654191N00254550WA0146201592
B1315333654189N00254554WA0146101592
B1315343654187N00254557WA0146001591
B1315353654185N00254562WA0146001591
B1315363654183N00254566WA0146001590
B1315373654182N00254571WA0146001590
B1315383654180N00254575WA0146001590
B1315393654179N00254579WA0145801589
B1315403654177N00254583WA0145501589
B1315413654174N00254586WA0145301588
B1315423654172N00254591WA0145101588
B1315433654171N00254595WA0145001587
B1315443654169N00254601WA0144801587
B1315453654167N00254607WA0144601586
B1315463654166N00254612WA0144401586
B1315473654165N00254617WA0144201585
B1315483654165N00254621WA0143901585
B1315493654164N00254625WA0143801584
B1315503654163N00254629WA0143601584
B1315513654162N00254633WA0143501583
B1315523654162N00254638WA0143401583
B1315533654161N00254644WA0143101582
B1315543654160N00254650WA0143101582
B1315553654158N00254654WA0143201581
B1315563654156N00254657WA0143301581
B1315573654154N00254659WA0143401580
B1315583654152N00254662WA0143301579
B1315593654150N00254666WA0143101579
B1316003654148N00254670WA0142801578
B1316013654145N00254675WA0142601578
B1316023654142N00254681WA0142701577
B1316033654140N00254685WA0142901576
B1316043654138N00254689WA0143101576
B1316053654138N00254692WA0143201575
B1316063654137N00254695WA0143301575
B1316073654136N00254700WA0143201574
B1316083654134N00254704WA0143001574
B1316093654133N00254708WA0142901573
B1316103654131N00254714WA0142801573
B1316113654130N00254720WA0142701572
B1316123654130N00254725WA0142701571
B1316133654130N00254729WA0142801571
B1316143654129N00254733WA0142801570
B1316153654130N00254736WA0142901570
B1316163654129N00254740WA0142901569
B1316173654130N00254743WA0142901568
B1316183654129N00254748WA0143001568
B1316193654130N00254751WA0143101568
B1316203654130N00254754WA0143101567
B1316213654130N00254756WA0143101567
B1316223654131N00254760WA0142801567
B1316233654130N00254764WA0142501567
B1316243654130N00254768WA0142101566
B1316253654130N00254774WA0141801566
B1316263654130N00254780WA0141601565
B1316273654130N00254786WA0141501565
B1316283654130N00254791WA0141301565
B1316293654130N00254796WA0141001564
B1316303654129N00254800WA0140801564
B1316313654129N00254803WA0140501563
B1316323654127N00254806WA0140201561
B1316333654124N00254810WA0139901559
B1316343654120N00254814WA0139701559
B1316353654117N00254818WA0139601558
B1316363654113N00254821WA0139501557
B1316373654110N00254824WA0139401556
B1316383654107N00254826WA0139201555
B1316393654103N00254828WA0138801555
B1316403654100N00254831WA0138601554
B1316413654095N00254834WA0138301553
B1316423654091N00254837WA0138201552
B1316433654087N00254839WA0138101551
B1316443654083N00254842WA0138201550
B1316453654077N00254844WA0138301550
B1316463654071N00254847WA0138501549
B1316473654066N00254849WA0138601548
B1316483654061N00254852WA0138901548
B1316493654058N00254854WA0139101547
B1316503654054N00254856WA0139301547
B1316513654050N00254857WA0139401546
B1316523654047N00254858WA0139401545
B1316533654043N00254859WA0139501544
B1316543654039N00254860WA0139501543
B1316553654035N00254860WA0139501542
B1316563654030N00254860WA0139601541
B1316573654025N00254860WA0139701541
B1316583654020N00254860WA0139901540
B1316593654016N00254859WA0140001539
B1317003654013N00254859WA0140201538
B1317013654010N00254859WA0140301538
B1317023654006N00254860WA0140301537
B1317033654002N00254861WA0140301536
B1317043654000N00254865WA0140201535
B1317053653999N00254870WA0140101534
B1317063653998N00254876WA0140001532
B1317073653998N00254882WA0140101531
B1317083653997N00254887WA0140301530
B1317093653996N00254891WA0140601529
B1317103653997N00254895WA0140801529
B1317113653997N00254899WA0141101528
B1317123654000N00254904WA0141101527
B1317133654004N00254909WA0141101527
B1317143654008N00254915WA0141301526
B1317153654013N00254919WA0141401526
B1317163654017N00254924WA0141601526
B1317173654022N00254928WA0141801526
B1317183654028N00254930WA0141901525
B1317193654034N00254928WA0141801525
B1317203654040N00254924WA0141701525
B1317213654043N00254919WA0141601525
B1317223654047N00254914WA0141601524
B1317233654048N00254909WA0141601524
B1317243654049N00254906WA0141501523
B1317253654047N00254902WA0141501522
B1317263654043N00254901WA0141401521
B1317273654041N00254901WA0141501521
B1317283654038N00254903WA0141601520
B1317293654034N00254908WA0141801520
B1317303654032N00254913WA0142001521
B1317313654030N00254918WA0142301522
B1317323654030N00254923WA0142601522
B1317333654030N00254929WA0142701522
B1317343654031N00254935WA0142801522
B1317353654032N00254940WA0143001522
B1317363654035N00254944WA0143201523
B1317373654039N00254948WA0143301523
B1317383654044N00254950WA0143401523
B1317393654050N00254950WA0143501524
B1317403654055N00254949WA0143601523
B1317413654061N00254948WA0143801524
B1317423654066N00254946WA0144101524
B1317433654070N00254946WA0144201524
B1317443654070N00254948WA0144301524
B1317453654071N00254952WA0144401524
B1317463654072N00254953WA0144601524
B1317473654070N00254952WA0144801524
B1317483654065N00254951WA0145201524
B1317493654061N00254953WA0145601524
B1317503654058N00254955WA0145801524
B1317513654056N00254959WA0146001524
B1317523654055N00254964WA0146101525
B1317533654056N00254968WA0146101526
B1317543654059N00254971WA0146301528
B1317553654062N00254973WA0146501530
B1317563654066N00254976WA0146801533
B1317573654069N00254978WA0147001535
B1317583654074N00254979WA0147301538
B1317593654078N00254981WA0147401539
B1318003654083N00254979WA0147401540
B1318013654090N00254977WA0147401542
B1318023654096N00254973WA0147501542
B1318033654100N00254967WA0147701543
B1318043654104N00254960WA0148001546
B1318053654107N00254953WA0148401548
B1318063654108N00254946WA0148601550
B1318073654108N00254940WA0148701551
B1318083654106N00254936WA0148701552
B1318093654103N00254933WA0148801555
B1318103654100N00254931WA0148901557
B1318113654095N00254934WA0149001559
B1318123654092N00254936WA0149201563
B1318133654089N00254937WA0149601565
B1318143654087N00254941WA0149801566
B1318153654087N00254945WA0150101567
B1318163654089N00254950WA0150301569
B1318173654093N00254955WA0150501571
B1318183654097N00254959WA0150701572
B1318193654103N00254960WA0150901574
B1318203654109N00254957WA0151201575
B1318213654115N00254954WA0151401576
B1318223654118N00254950WA0151701580
B1318233654121N00254945WA0152001583
B1318243654123N00254939WA0152101585
B1318253654123N00254933WA0152201587
B1318263654123N00254928WA0152501589
B1318273654120N00254925WA0152701591
B1318283654118N00254924WA0152901594
B1318293654116N00254924WA0153201596
B1318303654114N00254924WA0153501600
B1318313654112N00254924WA0153701602
B1318323654110N00254925WA0154001604
B1318333654109N00254931WA0154201607
B1318343654108N00254938WA0154501610
B1318353654110N00254942WA0154701613
B1318363654113N00254947WA0155001615
B1318373654116N00254951WA0155101617
B1318383654120N00254954WA0155301620
B1318393654127N00254956WA0155401622
B1318403654131N00254956WA0155701625
B1318413654136N00254953WA0156101628
B1318423654140N00254949WA0156301631
B1318433654143N00254944WA0156401634
B1318443654147N00254938WA0156601636
B1318453654150N00254932WA0156701638
B1318463654151N00254926WA0156901641
B1318473654150N00254919WA0157001643
B1318483654148N00254914WA0157201646
B1318493654146N00254909WA0157401649
B1318503654144N00254905WA0157801651
B1318513654141N00254903WA0158001654
B1318523654138N00254905WA0158201657
B1318533654136N00254907WA0158401661
B1318543654133N00254910WA0158501664
B1318553654132N00254914WA0158601667
B1318563654131N00254918WA0158801670
B1318573654132N00254924WA0159101673
B1318583654135N00254929WA0159401675
B1318593654140N00254932WA0159701678
B1319003654144N00254934WA0159901681
B1319013654149N00254935WA0160101684
B1319023654155N00254937WA0160401686
B1319033654161N00254938WA0160601689
B1319043654166N00254938WA0160701692
B1319053654172N00254936WA0161001695
B1319063654178N00254933WA0161301698
B1319073654183N00254929WA0161501701
B1319083654187N00254925WA0161701704
B1319093654189N00254918WA0161901708
B1319103654190N00254912WA0162101712
B1319113654192N00254905WA0162401716
B1319123654193N00254900WA0162601720
B1319133654192N00254894WA0163001723
B1319143654190N00254890WA0163301719
B1319153654188N00254887WA0163501720
B1319163654186N00254886WA0163701722
B1319173654183N00254886WA0163801724
B1319183654180N00254887WA0163901725
B1319193654177N00254890WA0164101727
B1319203654174N00254892WA0164301728
B1319213654172N00254895WA0164501730
B1319223654170N00254899WA0164601732
B1319233654168N00254904WA0164801734
B1319243654167N00254909WA0165001736
B1319253654166N00254915WA0165101738
B1319263654166N00254921WA0165301739
B1319273654165N00254927WA0165501741
B1319283654165N00254933WA0165801742
B1319293654167N00254938WA0166201743
B1319303654170N00254941WA0166401744
B1319313654174N00254943WA0166501745
B1319323654179N00254944WA0166501746
B1319333654185N00254944WA0166501747
B1319343654190N00254944WA0166401748
B1319353654196N00254941WA0166401750
B1319363654201N00254938WA0166401751
B1319373654205N00254933WA0166501753
B1319383654208N00254927WA0166601755
B1319393654211N00254921WA0166801757
B1319403654213N00254914WA0166801759
B1319413654213N00254907WA0167001761
B1319423654213N00254901WA0167201759
B1319433654212N00254896WA0167601760
B1319443654209N00254892WA0167801763
B1319453654207N00254889WA0168101765
B1319463654204N00254889WA0168401765
B1319473654201N00254888WA0168601767
B1319483654199N00254889WA0168801768
B1319493654198N00254890WA0169101770
B1319503654197N00254891WA0169301772
B1319513654195N00254894WA0169501773
B1319523654195N00254898WA0169601775
B1319533654195N00254903WA0169701777
B1319543654196N00254908WA0169801779
B1319553654199N00254913WA0169701780
B1319563654203N00254915WA0169701780
B1319573654209N00254916WA0169601781
B1319583654215N00254914WA0169701782
B1319593654220N00254911WA0169801783
B1320003654225N00254908WA0169801784
B1320013654228N00254903WA0170001786
B1320023654232N00254897WA0169901787
B1320033654236N00254890WA0170101789
B1320043654238N00254882WA0170301790
B1320053654239N00254874WA0170601792
B1320063654238N00254869WA0170801794
B1320073654236N00254865WA0171001797
B1320083654233N00254861WA0171201801
B1320093654230N00254857WA0171401806
B1320103654228N00254853WA0171601810
B1320113654226N00254849WA0171801805
B1320123654224N00254845WA0171901805
B1320133654222N00254843WA0172101806
B1320143654219N00254843WA0172201808
B1320153654217N00254845WA0172301810
B1320163654214N00254849WA0172401812
B1320173654212N00254854WA0172501814
B1320183654212N00254859WA0172701816
B1320193654212N00254864WA0173001817
B1320203654215N00254868WA0173201819
B1320213654219N00254872WA0173301820
B1320223654224N00254875WA0173201821
B1320233654230N00254875WA0173101823
B1320243654237N00254873WA0173101824
B1320253654243N00254869WA0172901826
B1320263654248N00254861WA0172801827
B1320273654251N00254853WA0172801828
B1320283654252N00254844WA0172901829
B1320293654251N00254836WA0173101830
B1320303654249N00254830WA0173201833
B1320313654247N00254826WA0173501836
B1320323654245N00254821WA0173601838
B1320333654243N00254818WA0173701835
B1320343654240N00254815WA0173901835
B1320353654236N00254814WA0173901836
B1320363654233N00254815WA0174001837
B1320373654229N00254818WA0174201838
B1320383654227N00254821WA0174301839
B1320393654227N00254825WA0174501841
B1320403654230N00254828WA0174501842
B1320413654233N00254831WA0174501843
B1320423654238N00254834WA0174501844
B1320433654243N00254837WA0174501845
B1320443654248N00254839WA0174501846
B1320453654253N00254840WA0174501847
B1320463654259N00254841WA0174501847
B1320473654266N00254840WA0174301848
B1320483654274N00254837WA0174301848
B1320493654280N00254833WA0174301849
B1320503654285N00254826WA0174601850
B1320513654290N00254818WA0174701851
B1320523654294N00254810WA0175001853
B1320533654297N00254803WA0175301854
B1320543654299N00254795WA0175501856
B1320553654299N00254788WA0175701859
B1320563654299N00254781WA0175801861
B1320573654297N00254775WA0175901863
B1320583654294N00254769WA0176001865
B1320593654290N00254765WA0176201868
B1321003654286N00254762WA0176401871
B1321013654283N00254761WA0176601864
B1321023654281N00254760WA0176901867
B1321033654279N00254760WA0177101868
B1321043654277N00254762WA0177201870
B1321053654276N00254766WA0177201872
B1321063654277N00254770WA0177201874
B1321073654279N00254774WA0177101875
B1321083654282N00254778WA0177201876
B1321093654286N00254781WA0177201877
B1321103654290N00254785WA0177301878
B1321113654295N00254787WA0177301879
B1321123654301N00254788WA0177201880
B1321133654308N00254789WA0177101881
B1321143654316N00254788WA0177201882
B1321153654324N00254784WA0177401884
B1321163654330N00254781WA0177801886
B1321173654335N00254778WA0178101889
B1321183654339N00254773WA0178301895
B1321193654342N00254768WA0178601898
B1321203654345N00254763WA0178701900
B1321213654346N00254756WA0178801902
B1321223654347N00254748WA0179001904
B1321233654347N00254740WA0179301906
B1321243654346N00254732WA0179701910
B1321253654344N00254726WA0180001914
B1321263654341N00254720WA0180301919
B1321273654338N00254718WA0180601908
B1321283654336N00254717WA0180901910
B1321293654333N00254717WA0181001913
B1321303654331N00254718WA0181201914
B1321313654330N00254720WA0181301915
B1321323654330N00254722WA0181301917
B1321333654331N00254725WA0181301918
B1321343654333N00254729WA0181301919
B1321353654337N00254733WA0181201920
B1321363654342N00254737WA0181101921
B1321373654348N00254740WA0181001922
B1321383654355N00254741WA0181101922
B1321393654361N00254742WA0181301923
B1321403654367N00254742WA0181601924
B1321413654373N00254742WA0181801926
B1321423654379N00254740WA0182101928
B1321433654384N00254736WA0182301930
B1321443654389N00254731WA0182401933
B1321453654393N00254725WA0182601935
B1321463654397N00254719WA0182601938
B1321473654398N00254711WA0182701940
B1321483654399N00254703WA0182701941
B1321493654397N00254696WA0182801943
B1321503654394N00254689WA0182801945
B1321513654391N00254683WA0183101947
B1321523654388N00254678WA0183401950
B1321533654385N00254674WA0183601953
B1321543654383N00254671WA0183801946
B1321553654381N00254669WA0183901947
B1321563654379N00254669WA0183901948
B1321573654376N00254671WA0183701949
B1321583654373N00254673WA0183701949
B1321593654370N00254675WA0183701950
B1322003654369N00254677WA0183701951
B1322013654369N00254681WA0183701952
B1322023654370N00254685WA0183701952
B1322033654372N00254689WA0183601952
B1322043654376N00254694WA0183501952
B1322053654382N00254697WA0183301953
B1322063654388N00254699WA0183101953
B1322073654395N00254699WA0183001953
B1322083654402N00254698WA0183001953
B1322093654409N00254696WA0183001953
B1322103654416N00254692WA0183201953
B1322113654422N00254688WA0183401954
B1322123654428N00254682WA0183701956
B1322133654433N00254676WA0183801958
B1322143654437N00254669WA0184001959
B1322153654441N00254663WA0184101960
B1322163654444N00254656WA0184201961
B1322173654446N00254648WA0184301962
B1322183654446N00254641WA0184301964
B1322193654446N00254633WA0184401964
B1322203654444N00254626WA0184501965
B1322213654442N00254621WA0184701966
B1322223654440N00254615WA0184801968
B1322233654437N00254612WA0184901964
B1322243654434N00254611WA0185101965
B1322253654431N00254610WA0185201966
B1322263654428N00254610WA0185301966
B1322273654426N00254613WA0185401966
B1322283654424N00254616WA0185501967
B1322293654423N00254620WA0185701968
B1322303654423N00254625WA0185701969
B1322313654424N00254629WA0185701969
B1322323654426N00254633WA0185601969
B1322333654430N00254638WA0185401970
B1322343654434N00254640WA0185301970
B1322353654440N00254642WA0185201970
B1322363654446N00254641WA0185001970
B1322373654453N00254638WA0185001970
B1322383654460N00254632WA0185001970
B1322393654465N00254625WA0185301971
B1322403654469N00254617WA0185501972
B1322413654472N00254610WA0185601974
B1322423654474N00254604WA0185801975
B1322433654476N00254597WA0185901977
B1322443654476N00254590WA0186001976
B1322453654476N00254583WA0185901976
B1322463654474N00254575WA0186001977
B1322473654472N00254569WA0186101978
B1322483654470N00254563WA0186201979
B1322493654467N00254559WA0186301979
B1322503654465N00254556WA0186501980
B1322513654462N00254553WA0186501980
B1322523654459N00254551WA0186501980
B1322533654455N00254552WA0186501981
B1322543654452N00254553WA0186501981
B1322553654450N00254556WA0186501982
B1322563654448N00254559WA0186501982
B1322573654447N00254563WA0186601983
B1322583654446N00254566WA0186801983
B1322593654446N00254570WA0187001983
B1323003654446N00254574WA0187201984
B1323013654448N00254578WA0187101984
B1323023654451N00254582WA0187201985
B1323033654455N00254585WA0187201985
B1323043654461N00254586WA0187201985
B1323053654467N00254586WA0187101986
B1323063654472N00254584WA0187101986
B1323073654478N00254579WA0187001986
B1323083654483N00254572WA0186901986
B1323093654487N00254565WA0186801986
B1323103654490N00254556WA0186901987
B1323113654493N00254547WA0187001988
B1323123654495N00254539WA0187101989
B1323133654496N00254531WA0187201990
B1323143654496N00254524WA0187201991
B1323153654495N00254517WA0187201992
B1323163654492N00254511WA0187201992
B1323173654488N00254506WA0187101992
B1323183654483N00254504WA0187001992
B1323193654478N00254505WA0187001992
B1323203654475N00254508WA0186901992
B1323213654473N00254512WA0186901992
B1323223654472N00254518WA0186901992
B1323233654473N00254523WA0187001992
B1323243654475N00254527WA0187101992
B1323253654478N00254530WA0187201992
B1323263654480N00254533WA0187301992
B1323273654484N00254535WA0187401992
B1323283654488N00254536WA0187501993
B1323293654494N00254536WA0187601993
B1323303654500N00254535WA0187601993
B1323313654507N00254533WA0187701994
B1323323654514N00254530WA0187701994
B1323333654519N00254526WA0187701995
B1323343654525N00254521WA0187801995
B1323353654530N00254514WA0187801996
B1323363654536N00254506WA0187901996
B1323373654541N00254498WA0188001997
B1323383654544N00254490WA0188201999
B1323393654547N00254483WA0188202000
B1323403654549N00254475WA0188202001
B1323413654550N00254468WA0188102001
B1323423654550N00254460WA0188102001
B1323433654550N00254451WA0188002001
B1323443654551N00254443WA0188102002
B1323453654551N00254435WA0188202004
B1323463654552N00254427WA0188302005
B1323473654552N00254418WA0188302005
B1323483654551N00254410WA0188202006
B1323493654550N00254401WA0188302007
B1323503654549N00254393WA0188502007
B1323513654549N00254385WA0188602008
B1323523654549N00254379WA0188602009
B1323533654549N00254372WA0188502009
B1323543654548N00254364WA0188502009
B1323553654547N00254357WA0188402008
B1323563654545N00254349WA0188302007
B1323573654544N00254342WA0188202007
B1323583654544N00254333WA0188202007
B1323593654544N00254326WA0188202006
B1324003654544N00254319WA0188302007
B1324013654545N00254311WA0188302008
B1324023654545N00254304WA0188202008
B1324033654545N00254296WA0188202008
B1324043654544N00254288WA0188002007
B1324053654543N00254279WA0188002007
B1324063654543N00254271WA0188002007
B1324073654542N00254263WA0188002007
B1324083654541N00254256WA0188002008
B1324093654540N00254249WA0188002009
B1324103654539N00254242WA0187902009
B1324113654538N00254234WA0187802008
B1324123654538N00254225WA0187802008
B1324133654538N00254216WA0187702007
B1324143654538N00254207WA0187802007
B1324153654538N00254198WA0187702006
B1324163654538N00254189WA0187802006
B1324173654538N00254181WA0187902006
B1324183654536N00254173WA0187902006
B1324193654535N00254167WA0187802006
B1324203654533N00254160WA0187702006
B1324213654530N00254153WA0187502005
B1324223654529N00254145WA0187302004
B1324233654528N00254136WA0187102003
B1324243654529N00254128WA0186902003
B1324253654529N00254119WA0186702002
B1324263654531N00254111WA0186502001
B1324273654532N00254104WA0186202000
B1324283654533N00254095WA0185801998
B1324293654533N00254086WA0185501995
B1324303654532N00254077WA0185201991
B1324313654529N00254068WA0184901988
B1324323654526N00254059WA0184701985
B1324333654522N00254052WA0184501982
B1324343654519N00254046WA0184301979
B1324353654515N00254040WA0184101975
B1324363654510N00254037WA0183701971
B1324373654505N00254035WA0183301965
B1324383654499N00254035WA0183001970
B1324393654495N00254036WA0182801970
B1324403654492N00254038WA0182501969
B1324413654490N00254041WA0182401968
B1324423654488N00254044WA0182201966
B1324433654487N00254047WA0182101964
B1324443654487N00254051WA0181901964
B1324453654488N00254055WA0181601963
B1324463654490N00254059WA0181501962
B1324473654492N00254063WA0181301960
B1324483654496N00254066WA0181101959
B1324493654500N00254069WA0181001957
B1324503654505N00254071WA0180701956
B1324513654511N00254073WA0180301956
B1324523654516N00254076WA0180001954
B1324533654522N00254078WA0179801953
B1324543654528N00254078WA0179601952
B1324553654534N00254078WA0179401950
B1324563654540N00254078WA0179101949
B1324573654546N00254077WA0178801946
B1324583654553N00254076WA0178501943
B1324593654559N00254074WA0178301940
B1325003654565N00254073WA0178001936
B1325013654572N00254071WA0177801932
B1325023654577N00254069WA0177501927
B1325033654583N00254066WA0177301923
B1325043654589N00254064WA0177001920
B1325053654596N00254062WA0176901916
B1325063654603N00254061WA0176801912
B1325073654609N00254060WA0176601908
B1325083654615N00254060WA0176601904
B1325093654622N00254061WA0176601901
B1325103654629N00254061WA0176601898
B1325113654635N00254061WA0176601896
B1325123654642N00254060WA0176701895
B1325133654649N00254060WA0176601894
B1325143654657N00254059WA0176601892
B1325153654665N00254060WA0176701891
B1325163654673N00254061WA0176701890
B1325173654681N00254062WA0176901890
B1325183654689N00254063WA0177101891
B1325193654697N00254063WA0177301891
B1325203654704N00254061WA0177601893
B1325213654710N00254058WA0177801896
B1325223654716N00254052WA0177801898
B1325233654720N00254043WA0177801897
B1325243654721N00254035WA0177701896
B1325253654720N00254027WA0177801896
B1325263654717N00254022WA0178001897
B1325273654713N00254020WA0178401897
B1325283654711N00254019WA0178701897
B1325293654708N00254020WA0178901898
B1325303654706N00254022WA0179001899
B1325313654706N00254027WA0179301901
B1325323654706N00254032WA0179401902
B1325333654709N00254038WA0179601904
B1325343654714N00254041WA0179901903
B1325353654721N00254044WA0180101904
B1325363654727N00254045WA0180301905
B1325373654735N00254044WA0180501906
B1325383654741N00254042WA0180601907
B1325393654748N00254038WA0180701909
B1325403654753N00254032WA0180801911
B1325413654758N00254026WA0180901913
B1325423654761N00254018WA0180901915
B1325433654761N00254010WA0180801916
B1325443654759N00254002WA0181001917
B1325453654756N00253997WA0181301919
B1325463654753N00253994WA0181701923
B1325473654750N00253992WA0182201927
B1325483654748N00253991WA0182601922
B1325493654746N00253993WA0182901923
B1325503654745N00253996WA0183101925
B1325513654744N00253999WA0183201927
B1325523654745N00254005WA0183501929
B1325533654747N00254010WA0183601930
B1325543654751N00254014WA0183801931
B1325553654756N00254018WA0184201932
B1325563654761N00254020WA0184501934
B1325573654766N00254019WA0184801935
B1325583654772N00254017WA0184801938
B1325593654777N00254012WA0184801941
B1326003654782N00254003WA0185001943
B1326013654783N00253994WA0185301945
B1326023654783N00253986WA0185601947
B1326033654781N00253981WA0186001950
B1326043654779N00253977WA0186301954
B1326053654775N00253976WA0186601952
B1326063654773N00253975WA0186801953
B1326073654770N00253976WA0187101954
B1326083654770N00253978WA0187301956
B1326093654771N00253981WA0187301958
B1326103654773N00253985WA0187301959
B1326113654779N00253989WA0187201960
B1326123654785N00253991WA0187301961
B1326133654792N00253991WA0187601963
B1326143654798N00253987WA0188101964
B1326153654803N00253984WA0188501967
B1326163654808N00253980WA0189001970
B1326173654812N00253975WA0189301974
B1326183654816N00253969WA0189601978
B1326193654820N00253962WA0189801981
B1326203654822N00253954WA0190001985
B1326213654823N00253946WA0190201988
B1326223654822N00253940WA0190601992
B1326233654821N00253936WA0190901997
B1326243654819N00253935WA0191302003
B1326253654817N00253933WA0191502009
B1326263654815N00253935WA0191701998
B1326273654814N00253938WA0191902000
B1326283654815N00253942WA0192102002
B1326293654817N00253946WA0192302003
B1326303654822N00253949WA0192602004
B1326313654829N00253951WA0192702004
B1326323654836N00253950WA0193002006
B1326333654843N00253948WA0193302007
B1326343654849N00253943WA0193702011
B1326353654855N00253935WA0194002015
B1326363654858N00253927WA0194402018
B1326373654859N00253918WA0194602021
B1326383654858N00253911WA0194902024
B1326393654856N00253907WA0195302029
B1326403654853N00253904WA0195602035
B1326413654851N00253901WA0195802040
B1326423654849N00253902WA0196002032
B1326433654848N00253906WA0196202033
B1326443654849N00253912WA0196402035
B1326453654851N00253916WA0196602037
B1326463654855N00253920WA0196602039
B1326473654860N00253922WA0196802040
B1326483654867N00253923WA0197002042
B1326493654872N00253922WA0197302045
B1326503654877N00253919WA0197702048
B1326513654883N00253915WA0198002052
B1326523654887N00253908WA0198402055
B1326533654891N00253899WA0198702060
B1326543654895N00253890WA0199002065
B1326553654897N00253881WA0199402070
B1326563654897N00253874WA0199802075
B1326573654896N00253868WA0200102081
B1326583654893N00253862WA0200302087
B1326593654890N00253861WA0200502076
B1327003654887N00253862WA0200602078
B1327013654886N00253865WA0200702080
B1327023654885N00253870WA0200902082
B1327033654888N00253875WA0201002086
B1327043654893N00253878WA0201102088
B1327053654899N00253879WA0201202090
B1327063654906N00253876WA0201402092
B1327073654913N00253870WA0201602095
B1327083654918N00253862WA0201902098
B1327093654920N00253853WA0202202101
B1327103654919N00253844WA0202502104
B1327113654918N00253838WA0202702106
B1327123654916N00253834WA0202802111
B1327133654913N00253832WA0202902116
B1327143654911N00253829WA0203002121
B1327153654909N00253829WA0203102115
B1327163654907N00253830WA0203102117
B1327173654907N00253835WA0203102118
B1327183654908N00253840WA0203002120
B1327193654910N00253845WA0203102122
B1327203654915N00253849WA0203202123
B1327213654921N00253851WA0203302124
B1327223654927N00253852WA0203502125
B1327233654934N00253851WA0203702126
B1327243654940N00253850WA0203902127
B1327253654945N00253848WA0204202130
B1327263654951N00253845WA0204302135
B1327273654957N00253841WA0204502139
B1327283654962N00253835WA0204602142
B1327293654967N00253828WA0204702145
B1327303654972N00253821WA0204902148
B1327313654976N00253813WA0205102151
B1327323654978N00253804WA0205402154
B1327333654979N00253796WA0205702158
B1327343654979N00253789WA0206002162
B1327353654977N00253782WA0206302167
B1327363654974N00253776WA0206602172
B1327373654972N00253773WA0206802163
B1327383654969N00253772WA0206902164
B1327393654967N00253774WA0206902166
B1327403654966N00253778WA0207002167
B1327413654967N00253782WA0207102169
B1327423654970N00253785WA0207402170
B1327433654973N00253788WA0207602171
B1327443654980N00253789WA0207702173
B1327453654987N00253789WA0207902174
B1327463654994N00253787WA0208102175
B1327473655001N00253783WA0208202177
B1327483655008N00253779WA0208502180
B1327493655015N00253772WA0208802183
B1327503655020N00253765WA0209002187
B1327513655024N00253757WA0209202191
B1327523655027N00253749WA0209402194
B1327533655029N00253741WA0209702197
B1327543655030N00253734WA0209902200
B1327553655029N00253727WA0210302203
B1327563655028N00253721WA0210702208
B1327573655026N00253718WA0211002214
B1327583655024N00253717WA0211302220
B1327593655023N00253719WA0211502211
B1328003655023N00253724WA0211702211
B1328013655027N00253728WA0211902212
B1328023655032N00253730WA0212002214
B1328033655039N00253731WA0212202216
B1328043655046N00253729WA0212302218
B1328053655054N00253727WA0212602222
B1328063655062N00253723WA0212902225
B1328073655069N00253717WA0213202229
B1328083655074N00253709WA0213402233
B1328093655079N00253701WA0213602237
B1328103655081N00253692WA0213702241
B1328113655082N00253683WA0214102244
B1328123655082N00253675WA0214402248
B1328133655081N00253669WA0214802253
B1328143655079N00253663WA0215202259
B1328153655077N00253661WA0215402251
B1328163655075N00253661WA0215402252
B1328173655074N00253664WA0215502254
B1328183655073N00253668WA0215702255
B1328193655075N00253672WA0216002256
B1328203655078N00253676WA0216302257
B1328213655082N00253678WA0216602258
B1328223655087N00253681WA0216802261
B1328233655092N00253682WA0217102262
B1328243655098N00253683WA0217302264
B1328253655105N00253680WA0217502265
B1328263655112N00253676WA0217802266
B1328273655120N00253672WA0217802268
B1328283655127N00253665WA0217902271
B1328293655133N00253657WA0218002273
B1328303655138N00253647WA0218102276
B1328313655141N00253636WA0218302278
B1328323655143N00253625WA0218602280
B1328333655144N00253616WA0219002282
B1328343655143N00253609WA0219302287
B1328353655141N00253602WA0219602293
B1328363655138N00253598WA0219802297
B1328373655136N00253596WA0220002292
B1328383655134N00253595WA0220302294
B1328393655131N00253595WA0220602295
B1328403655130N00253597WA0221002297
B1328413655132N00253600WA0221102298
B1328423655134N00253605WA0221202299
B1328433655140N00253608WA0221302301
B1328443655146N00253611WA0221402302
B1328453655153N00253609WA0221602303
B1328463655160N00253605WA0221902305
B1328473655167N00253598WA0222102307
B1328483655172N00253591WA0222502310
B1328493655176N00253582WA0222902313
B1328503655178N00253573WA0223102317
B1328513655179N00253564WA0223202320
B1328523655177N00253557WA0223302323
B1328533655174N00253552WA0223402325
B1328543655170N00253551WA0223402323
B1328553655166N00253551WA0223702324
B1328563655163N00253554WA0223902326
B1328573655161N00253558WA0224002328
B1328583655162N00253562WA0223902329
B1328593655165N00253566WA0223902330
B1329003655170N00253568WA0223902331
B1329013655177N00253569WA0223902332
B1329023655183N00253567WA0224002334
B1329033655189N00253562WA0224102336
B1329043655194N00253557WA0224302339
B1329053655199N00253551WA0224502342
B1329063655204N00253545WA0224702343
B1329073655209N00253539WA0224802345
B1329083655214N00253532WA0224902347
B1329093655218N00253524WA0224802350
B1329103655222N00253515WA0224902352
B1329113655224N00253506WA0225102354
B1329123655226N00253496WA0225302357
B1329133655227N00253487WA0225402361
B1329143655227N00253480WA0225602364
B1329153655226N00253472WA0225802369
B1329163655225N00253466WA0226002375
B1329173655224N00253460WA0226302380
B1329183655222N00253457WA0226602385
B1329193655220N00253454WA0226702390
B1329203655219N00253452WA0226902380
B1329213655219N00253453WA0227002381
B1329223655219N00253454WA0227102383
B1329233655220N00253457WA0226902385
B1329243655223N00253461WA0226802387
B1329253655227N00253465WA0226802388
B1329263655235N00253466WA0226802389
B1329273655244N00253465WA0226802389
B1329283655252N00253461WA0226902390
B1329293655259N00253454WA0227002391
B1329303655265N00253446WA0227102392
B1329313655271N00253438WA0227102393
B1329323655276N00253430WA0227202394
B1329333655280N00253419WA0227302395
B1329343655283N00253409WA0227302397
B1329353655284N00253399WA0227402398
B1329363655284N00253389WA0227502399
B1329373655283N00253380WA0227702402
B1329383655281N00253373WA0227902404
B1329393655279N00253368WA0228102407
B1329403655279N00253365WA0228302404
B1329413655279N00253361WA0228502406
B1329423655279N00253358WA0228802407
B1329433655279N00253354WA0229102408
B1329443655279N00253352WA0229302409
B1329453655279N00253352WA0229402410
B1329463655279N00253351WA0229502412
B1329473655280N00253352WA0229402412
B1329483655282N00253355WA0229402413
B1329493655286N00253358WA0229402414
B1329503655292N00253360WA0229402415
B1329513655299N00253360WA0229402415
B1329523655307N00253359WA0229502416
B1329533655315N00253356WA0229502417
B1329543655323N00253353WA0229602418
B1329553655331N00253349WA0229502419
B1329563655339N00253346WA0229602421
B1329573655347N00253342WA0229702422
B1329583655356N00253339WA0229702424
B1329593655364N00253336WA0229702426
B1330003655372N00253332WA0229702427
B1330013655381N00253328WA0229802429
B1330023655390N00253324WA0229802430
B1330033655399N00253319WA0229702432
B1330043655408N00253315WA0229602432
B1330053655417N00253310WA0229502432
B1330063655426N00253305WA0229402432
B1330073655434N00253300WA0229302432
B1330083655443N00253295WA0229202431
B1330093655451N00253290WA0228902430
B1330103655460N00253286WA0228702429
B1330113655469N00253281WA0228502427
B1330123655478N00253276WA0228402426
B1330133655486N00253269WA0228202425
B1330143655494N00253261WA0228002423
B1330153655502N00253253WA0227802421
B1330163655511N00253245WA0227502418
B1330173655520N00253238WA0227202416
B1330183655528N00253230WA0227002413
B1330193655536N00253222WA0226802411
B1330203655544N00253215WA0226602409
B1330213655552N00253207WA0226302407
B1330223655559N00253200WA0226002404
B1330233655567N00253192WA0225702401
B1330243655575N00253185WA0225402397
B1330253655584N00253177WA0225102395
B1330263655591N00253169WA0224902392
B1330273655599N00253162WA0224702390
B1330283655606N00253153WA0224402387
B1330293655614N00253145WA0224102384
B1330303655623N00253137WA0223702381
B1330313655631N00253129WA0223402378
B1330323655639N00253121WA0223202375
B1330333655647N00253114WA0222902372
B1330343655655N00253106WA0222702369
B1330353655662N00253098WA0222502367
B1330363655669N00253091WA0222102363
B1330373655677N00253083WA0221802361
B1330383655686N00253076WA0221602358
B1330393655694N00253068WA0221302355
B1330403655701N00253060WA0221102352
B1330413655709N00253053WA0220702349
B1330423655717N00253045WA0220502347
B1330433655724N00253037WA0220302344
B1330443655732N00253030WA0220002340
B1330453655740N00253023WA0219702337
B1330463655748N00253016WA0219402333
B1330473655756N00253009WA0219102330
B1330483655764N00253002WA0218902327
B1330493655772N00252996WA0218702324
B1330503655780N00252990WA0218402321
B1330513655788N00252983WA0218202318
B1330523655796N00252977WA0218002316
B1330533655803N00252971WA0217802314
B1330543655811N00252964WA0217402311
B1330553655818N00252957WA0217202309
B1330563655825N00252948WA0217002306
B1330573655832N00252940WA0216802303
B1330583655839N00252931WA0216502301
B1330593655846N00252922WA0216202299
B1331003655852N00252911WA0215902296
B1331013655859N00252901WA0215702294
B1331023655865N00252891WA0215402291
B1331033655872N00252881WA0215202288
B1331043655878N00252872WA0215002286
B1331053655885N00252863WA0214802283
B1331063655892N00252853WA0214602281
B1331073655898N00252845WA0214302277
B1331083655905N00252836WA0213902274
B1331093655912N00252827WA0213602271
B1331103655920N00252818WA0213302268
B1331113655927N00252808WA0213102266
B1331123655934N00252798WA0212902263
B1331133655941N00252789WA0212702261
B1331143655947N00252780WA0212502258
B1331153655955N00252771WA0212302255
B1331163655962N00252761WA0212002252
B1331173655969N00252752WA0211802250
B1331183655976N00252743WA0211502247
B1331193655983N00252733WA0211302244
B1331203655991N00252725WA0211102241
B1331213655998N00252716WA0210802239
B1331223656005N00252707WA0210602236
B1331233656013N00252699WA0210402233
B1331243656021N00252691WA0210102231
B1331253656029N00252682WA0209902228
B1331263656036N00252674WA0209702226
B1331273656044N00252666WA0209502223
B1331283656052N00252658WA0209402222
B1331293656059N00252650WA0209302221
B1331303656065N00252642WA0209102220
B1331313656072N00252632WA0208902219
B1331323656078N00252622WA0208702217
B1331333656084N00252611WA0208502216
B1331343656089N00252600WA0208302213
B1331353656095N00252589WA0208202212
B1331363656100N00252577WA0208002210
B1331373656105N00252566WA0207802207
B1331383656111N00252554WA0207602205
B1331393656117N00252542WA0207402203
B1331403656122N00252531WA0207302201
B1331413656128N00252519WA0207102200
B1331423656133N00252507WA0207002198
B1331433656139N00252496WA0206902196
B1331443656145N00252485WA0206702194
B1331453656151N00252473WA0206502192
B1331463656157N00252462WA0206302191
B1331473656162N00252450WA0206102189
B1331483656168N00252438WA0206002187
B1331493656173N00252426WA0205802185
B1331503656178N00252414WA0205702183
B1331513656184N00252401WA0205502181
B1331523656189N00252389WA0205402178
B1331533656194N00252376WA0205102176
B1331543656200N00252364WA0205002174
B1331553656206N00252351WA0204802173
B1331563656211N00252339WA0204602171
B1331573656216N00252326WA0204502170
B1331583656222N00252313WA0204302168
B1331593656227N00252300WA0204202166
B1332003656231N00252287WA0204002164
B1332013656235N00252275WA0203902162
B1332023656239N00252262WA0203802161
B1332033656242N00252249WA0203602160
B1332043656245N00252234WA0203502157
B1332053656248N00252221WA0203402154
B1332063656250N00252208WA0203202154
B1332073656252N00252194WA0203202153
B1332083656254N00252181WA0203002152
B1332093656256N00252167WA0202902151
B1332103656257N00252153WA0202802150
B1332113656258N00252140WA0202602148
B1332123656259N00252127WA0202402147
B1332133656261N00252114WA0202202146
B1332143656263N00252101WA0202202145
B1332153656265N00252090WA0202102144
B1332163656267N00252078WA0202002143
B1332173656269N00252066WA0201702142
B1332183656272N00252054WA0201502140
B1332193656275N00252043WA0201202139
B1332203656278N00252031WA0201002140
B1332213656281N00252019WA0200802142
B1332223656285N00252007WA0200602143
B1332233656289N00251994WA0200402142
B1332243656293N00251981WA0200102140
B1332253656296N00251968WA0199902138
B1332263656300N00251955WA0199702136
B1332273656303N00251941WA0199502134
B1332283656307N00251927WA0199202131
B1332293656310N00251914WA0199002129
B1332303656314N00251901WA0198802126
B1332313656317N00251888WA0198602124
B1332323656320N00251876WA0198202121
B1332333656323N00251863WA0197902118
B1332343656326N00251851WA0197702116
B1332353656329N00251839WA0197502114
B1332363656333N00251828WA0197302112
B1332373656337N00251816WA0197102110
B1332383656342N00251806WA0196802107
B1332393656348N00251795WA0196502104
B1332403656355N00251785WA0196202099
B1332413656361N00251774WA0195902096
B1332423656367N00251763WA0195802094
B1332433656373N00251752WA0195602091
B1332443656378N00251741WA0195402088
B1332453656384N00251731WA0195202085
B1332463656390N00251721WA0194902081
B1332473656396N00251711WA0194702078
B1332483656402N00251701WA0194502075
B1332493656409N00251690WA0194302072
B1332503656416N00251680WA0194102070
B1332513656422N00251670WA0194002067
B1332523656428N00251661WA0193802065
B1332533656435N00251652WA0193602062
B1332543656442N00251643WA0193302060
B1332553656449N00251634WA0193002057
B1332563656456N00251624WA0192802054
B1332573656462N00251614WA0192602052
B1332583656469N00251605WA0192402049
B1332593656475N00251596WA0192102047
B1333003656482N00251587WA0191902044
B1333013656489N00251579WA0191602041
B1333023656496N00251571WA0191302039
B1333033656503N00251562WA0191102036
B1333043656510N00251554WA0190802033
B1333053656517N00251546WA0190502030
B1333063656523N00251539WA0190302027
B1333073656530N00251532WA0190002024
B1333083656537N00251526WA0189702022
B1333093656545N00251521WA0189302019
B1333103656553N00251516WA0189002015
B1333113656561N00251511WA0188702013
B1333123656568N00251506WA0188502010
B1333133656575N00251501WA0188302008
B1333143656582N00251496WA0188002005
B1333153656588N00251492WA0187702002
B1333163656595N00251487WA0187401999
B1333173656603N00251482WA0187101996
B1333183656611N00251477WA0186801992
B1333193656618N00251470WA0186501989
B1333203656625N00251464WA0186301986
B1333213656632N00251458WA0186001982
B1333223656639N00251452WA0185701979
B1333233656646N00251445WA0185401976
B1333243656653N00251439WA0185101972
B1333253656660N00251433WA0184801969
B1333263656667N00251427WA0184501966
B1333273656674N00251422WA0184201963
B1333283656681N00251418WA0183901960
B1333293656688N00251414WA0183601957
B1333303656695N00251410WA0183301954
B1333313656702N00251407WA0183001951
B1333323656709N00251403WA0182701948
B1333333656716N00251400WA0182301945
B1333343656723N00251396WA0182001942
B1333353656730N00251392WA0181601938
B1333363656738N00251387WA0181301935
B1333373656745N00251382WA0181001931
B1333383656752N00251377WA0180601927
B1333393656759N00251372WA0180301924
B1333403656766N00251368WA0179901921
B1333413656773N00251363WA0179601917
B1333423656780N00251358WA0179201914
B1333433656787N00251352WA0178801910
B1333443656795N00251346WA0178401906
B1333453656802N00251340WA0178001902
B1333463656809N00251334WA0177701898
B1333473656817N00251328WA0177301894
B1333483656824N00251321WA0176901890
B1333493656832N00251314WA0176601885
B1333503656840N00251308WA0176501881
B1333513656848N00251302WA0176401879
B1333523656855N00251295WA0176301878
B1333533656862N00251288WA0176101876
B1333543656868N00251281WA0175901874
B1333553656875N00251273WA0175701872
B1333563656882N00251267WA0175501870
B1333573656887N00251260WA0175301869
B1333583656893N00251253WA0175101867
B1333593656898N00251245WA0174901865
B1334003656904N00251236WA0174801863
B1334013656910N00251226WA0174801862
B1334023656917N00251218WA0174801860
B1334033656922N00251211WA0174801861
B1334043656927N00251204WA0174901861
B1334053656931N00251198WA0174901861
B1334063656936N00251193WA0174901860
B1334073656942N00251186WA0174701860
B1334083656948N00251179WA0174401858
B1334093656954N00251171WA0174301857
B1334103656960N00251162WA0174201856
B1334113656965N00251154WA0174201856
B1334123656970N00251145WA0174201856
B1334133656975N00251137WA0174101856
B1334143656981N00251129WA0173901855
B1334153656987N00251121WA0173801854
B1334163656992N00251114WA0173701853
B1334173656998N00251106WA0173701853
B1334183657003N00251099WA0173601852
B1334193657008N00251091WA0173601852
B1334203657014N00251083WA0173501851
B1334213657020N00251075WA0173401850
B1334223657025N00251068WA0173401848
B1334233657031N00251061WA0173301846
B1334243657037N00251055WA0173101844
B1334253657043N00251049WA0173101843
B1334263657049N00251043WA0173001842
B1334273657055N00251036WA0172801841
B1334283657061N00251029WA0172701839
B1334293657067N00251022WA0172501838
B1334303657073N00251015WA0172401836
B1334313657079N00251008WA0172201835
B1334323657086N00251001WA0172001833
B1334333657092N00250993WA0172001831
B1334343657098N00250984WA0171801830
B1334353657104N00250977WA0171701829
B1334363657109N00250970WA0171601828
B1334373657116N00250963WA0171301826
B1334383657123N00250957WA0171101823
B1334393657130N00250950WA0170901821
B1334403657138N00250943WA0170901820
B1334413657144N00250935WA0170901819
B1334423657149N00250928WA0170801820
B1334433657155N00250921WA0170701819
B1334443657162N00250915WA0170601818
B1334453657169N00250909WA0170401816
B1334463657176N00250903WA0170401815
B1334473657182N00250896WA0170401815
B1334483657188N00250890WA0170601817
B1334493657194N00250883WA0170601819
B1334503657200N00250875WA0170701819
B1334513657206N00250868WA0170501819
B1334523657213N00250862WA0170401818
B1334533657221N00250857WA0170301817
B1334543657228N00250852WA0170301817
B1334553657235N00250848WA0170301817
B1334563657242N00250844WA0170301817
B1334573657249N00250839WA0170301817
B1334583657255N00250835WA0170201816
B1334593657262N00250830WA0170201815
B1335003657269N00250825WA0170101815
B1335013657275N00250820WA0170001815
B1335023657281N00250815WA0169901814
B1335033657287N00250812WA0169801814
B1335043657294N00250808WA0169601813
B1335053657300N00250805WA0169501812
B1335063657307N00250803WA0169401811
B1335073657313N00250800WA0169301811
B1335083657320N00250798WA0169201810
B1335093657327N00250794WA0169201810
B1335103657334N00250792WA0169101809
B1335113657342N00250789WA0169001808
B1335123657349N00250786WA0168901807
B1335133657357N00250784WA0168901806
B1335143657365N00250782WA0168801805
B1335153657372N00250779WA0168801805
B1335163657379N00250775WA0168701804
B1335173657386N00250771WA0168601803
B1335183657394N00250766WA0168501802
B1335193657401N00250762WA0168501801
B1335203657408N00250758WA0168501800
B1335213657416N00250754WA0168501800
B1335223657423N00250750WA0168401799
B1335233657431N00250745WA0168401798
B1335243657438N00250740WA0168301797
B1335253657446N00250735WA0168301796
B1335263657454N00250731WA0168201796
B1335273657462N00250727WA0168101795
B1335283657470N00250724WA0168101794
B1335293657478N00250721WA0168201795
B1335303657485N00250718WA0168201795
B1335313657492N00250713WA0168201795
B1335323657498N00250709WA0168101795
B1335333657504N00250704WA0167901794
B1335343657511N00250700WA0167701793
B1335353657519N00250697WA0167501792
B1335363657526N00250693WA0167501791
B1335373657533N00250690WA0167301790
B1335383657540N00250687WA0167201789
B1335393657547N00250684WA0166901787
B1335403657554N00250681WA0166601786
B1335413657561N00250677WA0166401784
B1335423657568N00250674WA0166101782
B1335433657575N00250671WA0165801781
B1335443657582N00250667WA0165601779
B1335453657589N00250663WA0165401777
B1335463657596N00250658WA0165201774
B1335473657603N00250652WA0165001771
B1335483657610N00250647WA0164701768
B1335493657617N00250642WA0164601765
B1335503657624N00250637WA0164401762
B1335513657631N00250632WA0164301760
B1335523657638N00250627WA0164301758
B1335533657644N00250623WA0164301757
B1335543657651N00250620WA0164201756
B1335553657657N00250617WA0164101755
B1335563657664N00250615WA0164001753
B1335573657670N00250613WA0163901752
B1335583657677N00250612WA0163701750
B1335593657683N00250610WA0163401748
B1336003657690N00250606WA0163301746
B1336013657696N00250602WA0163201744
B1336023657703N00250598WA0163001743
B1336033657709N00250593WA0162901741
B1336043657715N00250588WA0162701739
B1336053657721N00250584WA0162501737
B1336063657728N00250580WA0162201736
B1336073657735N00250577WA0161901733
B1336083657742N00250574WA0161601730
B1336093657749N00250571WA0161401728
B1336103657755N00250567WA0161201726
B1336113657762N00250563WA0161001724
B1336123657768N00250559WA0160801722
B1336133657775N00250554WA0160601720
B1336143657782N00250549WA0160301717
B1336153657790N00250543WA0160001714
B1336163657797N00250537WA0159801711
B1336173657804N00250530WA0159701709
B1336183657811N00250524WA0159601707
B1336193657818N00250518WA0159401706
B1336203657825N00250513WA0159201704
B1336213657832N00250508WA0159101702
B1336223657840N00250502WA0158901701
B1336233657846N00250496WA0158901699
B1336243657853N00250490WA0158901698
B1336253657859N00250484WA0158901697
B1336263657864N00250479WA0158901697
B1336273657870N00250475WA0158901696
B1336283657876N00250470WA0158801696
B1336293657881N00250464WA0158601695
B1336303657887N00250458WA0158401694
B1336313657892N00250453WA0158201693
B1336323657898N00250448WA0157901691
B1336333657904N00250443WA0157701689
B1336343657910N00250439WA0157501687
B1336353657916N00250434WA0157401686
B1336363657923N00250430WA0157301684
B1336373657929N00250425WA0157201684
B1336383657935N00250420WA0157101682
B1336393657942N00250415WA0157001681
B1336403657948N00250411WA0156901679
B1336413657955N00250407WA0156801678
B1336423657961N00250404WA0156801678
B1336433657966N00250401WA0156801678
B1336443657972N00250399WA0156601677
B1336453657977N00250396WA0156401675
B1336463657983N00250393WA0156301674
B1336473657990N00250389WA0156101672
B1336483657996N00250386WA0155901670
B1336493658002N00250382WA0155901669
B1336503658007N00250378WA0155801669
B1336513658012N00250373WA0155701668
B1336523658017N00250368WA0155501667
B1336533658023N00250363WA0155301666
B1336543658030N00250359WA0155001664
B1336553658036N00250356WA0154901662
B1336563658042N00250352WA0154701661
B1336573658047N00250348WA0154701660
B1336583658053N00250343WA0154501659
B1336593658058N00250339WA0154301657
B1337003658064N00250334WA0154101655
B1337013658070N00250330WA0153901652
B1337023658077N00250324WA0153701650
B1337033658082N00250319WA0153501648
B1337043658088N00250313WA0153401646
B1337053658092N00250307WA0153401644
B1337063658096N00250301WA0153301643
B1337073658100N00250294WA0153101641
B1337083658105N00250288WA0152801639
B1337093658110N00250281WA0152501636
B1337103658115N00250274WA0152301633
B1337113658120N00250267WA0152101631
B1337123658125N00250260WA0152001629
B1337133658129N00250253WA0151901627
B1337143658133N00250247WA0151701625
B1337153658137N00250240WA0151401623
B1337163658142N00250233WA0151101620
B1337173658147N00250226WA0150901617
B1337183658153N00250218WA0150601614
B1337193658158N00250211WA0150501612
B1337203658162N00250205WA0150401611
B1337213658167N00250198WA0150301610
B1337223658171N00250191WA0150101608
B1337233658176N00250183WA0150001606
B1337243658181N00250176WA0149801605
B1337253658186N00250168WA0149501603
B1337263658191N00250160WA0149401600
B1337273658196N00250153WA0149201598
B1337283658201N00250145WA0149101597
B1337293658206N00250137WA0149001596
B1337303658210N00250129WA0148901595
B1337313658215N00250121WA0148901594
B1337323658219N00250113WA0148801593
B1337333658224N00250105WA0148601592
B1337343658229N00250097WA0148601591
B1337353658233N00250089WA0148401589
B1337363658237N00250080WA0148301588
B1337373658242N00250072WA0148201586
B1337383658246N00250063WA0148001585
B1337393658250N00250055WA0147801583
B1337403658255N00250047WA0147701582
B1337413658259N00250038WA0147501580
B1337423658263N00250030WA0147401579
B1337433658268N00250021WA0147201577
B1337443658273N00250013WA0147101576
B1337453658278N00250005WA0146901575
B1337463658284N00249998WA0146701573
B1337473658289N00249990WA0146601572
B1337483658294N00249981WA0146401570
B1337493658299N00249973WA0146101569
B1337503658304N00249965WA0146001567
B1337513658308N00249957WA0145701564
B1337523658313N00249949WA0145401561
B1337533658319N00249940WA0145101559
B1337543658324N00249932WA0144901556
B1337553658329N00249923WA0144801554
B1337563658334N00249915WA0144601553
B1337573658338N00249908WA0144501550
B1337583658342N00249902WA0144201549
B1337593658346N00249895WA0143901546
B1338003658350N00249887WA0143501543
B1338013658355N00249879WA0143101538
B1338023658360N00249871WA0142801534
B1338033658365N00249863WA0142601532
B1338043658369N00249856WA0142401529
B1338053658373N00249849WA0142201527
B1338063658377N00249842WA0141901524
B1338073658381N00249834WA0141601521
B1338083658386N00249825WA0141401518
B1338093658390N00249816WA0141201515
B1338103658394N00249807WA0141101513
B1338113658397N00249797WA0140901511
B1338123658401N00249788WA0140701508
B1338133658405N00249778WA0140401506
B1338143658409N00249769WA0140101503
B1338153658413N00249759WA0139901501
B1338163658417N00249750WA0139701499
B1338173658421N00249740WA0139501497
B1338183658424N00249731WA0139301495
B1338193658428N00249721WA0139101493
B1338203658432N00249712WA0138801490
B1338213658435N00249703WA0138601488
B1338223658438N00249694WA0138401486
B1338233658441N00249685WA0138301484
B1338243658444N00249675WA0138101482
B1338253658446N00249665WA0137901480
B1338263658447N00249656WA0137701478
B1338273658449N00249647WA0137601476
B1338283658451N00249638WA0137501474
B1338293658453N00249628WA0137401472
B1338303658455N00249618WA0137201470
B1338313658458N00249608WA0137101468
B1338323658460N00249598WA0136901467
B1338333658462N00249588WA0136701465
B1338343658465N00249579WA0136501463
B1338353658467N00249569WA0136401462
B1338363658469N00249560WA0136201460
B1338373658472N00249550WA0136001459
B1338383658474N00249541WA0135901457
B1338393658476N00249533WA0135701456
B1338403658478N00249524WA0135601455
B1338413658482N00249514WA0135301453
B1338423658485N00249505WA0135101449
B1338433658489N00249494WA0134901447
B1338443658491N00249484WA0134901446
B1338453658494N00249474WA0134801444
B1338463658497N00249467WA0134701442
B1338473658500N00249459WA0134501441
B1338483658504N00249450WA0134101439
B1338493658508N00249442WA0133801436
B1338503658512N00249433WA0133601434
B1338513658516N00249424WA0133501432
B1338523658520N00249415WA0133301430
B1338533658524N00249406WA0133201429
B1338543658527N00249398WA0133001428
B1338553658531N00249389WA0132901427
B1338563658536N00249380WA0132701425
B1338573658540N00249371WA0132501423
B1338583658544N00249362WA0132301421
B1338593658548N00249353WA0132201419
B1339003658552N00249344WA0132201418
B1339013658556N00249336WA0132101417
B1339023658559N00249327WA0132001416
B1339033658563N00249318WA0131801415
B1339043658567N00249309WA0131601413
B1339053658571N00249300WA0131501411
B1339063658574N00249291WA0131401410
B1339073658577N00249281WA0131301408
B1339083658581N00249272WA0131101407
B1339093658584N00249263WA0131001406
B1339103658588N00249254WA0130901405
B1339113658591N00249244WA0130701404
B1339123658594N00249233WA0130601403
B1339133658597N00249223WA0130501402
B1339143658601N00249213WA0130301401
B1339153658606N00249203WA0130201399
B1339163658610N00249194WA0130101397
B1339173658615N00249185WA0129901395
B1339183658619N00249175WA0129701393
B1339193658623N00249166WA0129601391
B1339203658627N00249156WA0129501390
B1339213658631N00249147WA0129301388
B1339223658636N00249138WA0129101387
B1339233658641N00249130WA0128901384
B1339243658645N00249121WA0128801382
B1339253658650N00249112WA0128601381
B1339263658655N00249104WA0128501379
B1339273658660N00249095WA0128501378
B1339283658665N00249088WA0128401378
B1339293658669N00249080WA0128301377
B1339303658674N00249072WA0128201376
B1339313658678N00249063WA0128101375
B1339323658682N00249055WA0128001373
B1339333658687N00249046WA0127801372
B1339343658691N00249038WA0127701371
B1339353658696N00249030WA0127501370
B1339363658700N00249021WA0127401368
B1339373658705N00249012WA0127201367
B1339383658709N00249004WA0127101366
B1339393658713N00248996WA0127001365
B1339403658717N00248988WA0126901363
B1339413658721N00248980WA0126701362
B1339423658726N00248972WA0126501360
B1339433658730N00248963WA0126301358
B1339443658735N00248955WA0126201357
B1339453658739N00248947WA0126101356
B1339463658743N00248939WA0125901355
B1339473658748N00248931WA0125701353
B1339483658752N00248922WA0125401352
B1339493658757N00248913WA0125301348
B1339503658762N00248904WA0125001346
B1339513658767N00248896WA0125001345
B1339523658771N00248888WA0124901345
B1339533658775N00248880WA0124801343
B1339543658779N00248871WA0124501342
B1339553658783N00248862WA0124301339
B1339563658787N00248853WA0124001337
B1339573658791N00248845WA0123901335
B1339583658795N00248837WA0123801334
B1339593658800N00248829WA0123701332
B1340003658804N00248821WA0123601330
B1340013658807N00248812WA0123301328
B1340023658811N00248803WA0123101325
B1340033658816N00248794WA0122801322
B1340043658820N00248785WA0122601320
B1340053658825N00248777WA0122401318
B1340063658830N00248769WA0122201315
B1340073658835N00248760WA0122101314
B1340083658839N00248752WA0121901312
B1340093658843N00248742WA0121701310
B1340103658847N00248733WA0121501308
B1340113658851N00248725WA0121301307
B1340123658855N00248716WA0121001305
B1340133658859N00248707WA0120801303
B1340143658863N00248698WA0120601301
B1340153658866N00248689WA0120301298
B1340163658869N00248680WA0120101296
B1340173658872N00248671WA0119801293
B1340183658876N00248662WA0119601291
B1340193658880N00248654WA0119401289
B1340203658884N00248645WA0119201287
B1340213658887N00248636WA0119001285
B1340223658890N00248626WA0118801283
B1340233658893N00248616WA0118501280
B1340243658896N00248607WA0118301278
B1340253658900N00248598WA0118101276
B1340263658903N00248589WA0117901274
B1340273658907N00248580WA0117801271
B1340283658910N00248571WA0117601269
B1340293658913N00248561WA0117301267
B1340303658916N00248552WA0117001264
B1340313658919N00248542WA0116801262
B1340323658922N00248533WA0116701260
B1340333658926N00248525WA0116601258
B1340343658929N00248517WA0116501257
B1340353658932N00248509WA0116401256
B1340363658936N00248501WA0116201254
B1340373658940N00248493WA0116001252
B1340383658943N00248484WA0115701251
B1340393658947N00248476WA0115401248
B1340403658951N00248468WA0115201246
B1340413658954N00248459WA0115101244
B1340423658959N00248451WA0114901242
B1340433658962N00248443WA0114601240
B1340443658966N00248434WA0114401238
B1340453658969N00248425WA0114301236
B1340463658972N00248416WA0114101234
B1340473658975N00248409WA0113901232
B1340483658979N00248401WA0113801230
B1340493658983N00248393WA0113701228
B1340503658986N00248384WA0113501225
B1340513658990N00248374WA0113201222
B1340523658994N00248365WA0113101220
B1340533658997N00248355WA0113001219
B1340543659000N00248347WA0113001217
B1340553659004N00248338WA0113001216
B1340563659007N00248330WA0112901215
B1340573659011N00248321WA0112801214
B1340583659015N00248311WA0112601213
B1340593659019N00248301WA0112501212
B1341003659023N00248291WA0112501210
B1341013659027N00248281WA0112501209
B1341023659032N00248272WA0112401208
B1341033659036N00248263WA0112301207
B1341043659041N00248254WA0112201206
B1341053659046N00248245WA0112101205
B1341063659050N00248236WA0111901204
B1341073659053N00248227WA0111601203
B1341083659056N00248217WA0111501202
B1341093659059N00248208WA0111301200
B1341103659063N00248199WA0111201198
B1341113659067N00248189WA0111201196
B1341123659070N00248179WA0111201196
B1341133659073N00248170WA0111201195
B1341143659076N00248161WA0111101195
B1341153659079N00248152WA0110901194
B1341163659082N00248143WA0110801193
B1341173659086N00248134WA0110601192
B1341183659090N00248125WA0110501191
B1341193659094N00248117WA0110401189
B1341203659098N00248110WA0110401189
B1341213659101N00248102WA0110301188
B1341223659105N00248095WA0110201187
B1341233659109N00248087WA0110101186
B1341243659113N00248078WA0110001185
B1341253659117N00248070WA0110001184
B1341263659120N00248061WA0109901183
B1341273659124N00248053WA0109901182
B1341283659128N00248044WA0109701182
B1341293659132N00248036WA0109601181
B1341303659137N00248028WA0109401180
B1341313659142N00248020WA0109201178
B1341323659146N00248012WA0108901176
B1341333659150N00248003WA0108701174
B1341343659154N00247995WA0108601172
B1341353659158N00247986WA0108201170
B1341363659162N00247978WA0108001168
B1341373659165N00247970WA0107801166
B1341383659168N00247961WA0107501164
B1341393659171N00247952WA0107201162
B1341403659174N00247944WA0106901159
B1341413659177N00247935WA0106501157
B1341423659180N00247926WA0106301155
B1341433659183N00247918WA0106101152
B1341443659186N00247909WA0105901150
B1341453659188N00247900WA0105701148
B1341463659191N00247891WA0105501146
B1341473659194N00247882WA0105401144
B1341483659197N00247874WA0105301142
B1341493659200N00247865WA0105101140
B1341503659203N00247856WA0104901138
B1341513659206N00247847WA0104601136
B1341523659209N00247837WA0104301133
B1341533659211N00247828WA0104101131
B1341543659214N00247819WA0103901128
B1341553659218N00247810WA0103701125
B1341563659220N00247801WA0103401122
B1341573659223N00247791WA0103101119
B1341583659226N00247781WA0102901116
B1341593659229N00247772WA0102801115
B1342003659231N00247763WA0102501113
B1342013659234N00247754WA0102201110
B1342023659237N00247745WA0101801106
B1342033659239N00247735WA0101501102
B1342043659242N00247724WA0101101098
B1342053659244N00247714WA0100901094
B1342063659247N00247704WA0100701091
B1342073659250N00247696WA0100601089
B1342083659253N00247687WA0100401086
B1342093659256N00247678WA0100201084
B1342103659258N00247669WA0100001081
B1342113659261N00247659WA0099801079
B1342123659263N00247650WA0099601078
B1342133659265N00247640WA0099501076
B1342143659267N00247631WA0099401075
B1342153659270N00247622WA0099301073
B1342163659272N00247612WA0099101072
B1342173659274N00247601WA0098901070
B1342183659276N00247590WA0098801068
B1342193659278N00247580WA0098701067
B1342203659280N00247569WA0098501065
B1342213659282N00247560WA0098401063
B1342223659284N00247550WA0098301062
B1342233659286N00247540WA0098101060
B1342243659287N00247530WA0098001059
B1342253659289N00247520WA0097801057
B1342263659291N00247510WA0097701056
B1342273659293N00247500WA0097601055
B1342283659296N00247491WA0097501054
B1342293659298N00247482WA0097301053
B1342303659300N00247473WA0097301052
B1342313659302N00247463WA0097201051
B1342323659304N00247454WA0097101050
B1342333659307N00247445WA0097001050
B1342343659308N00247437WA0096901049
B1342353659309N00247428WA0096701047
B1342363659312N00247418WA0096501045
B1342373659314N00247408WA0096301044
B1342383659316N00247398WA0096201043
B1342393659319N00247389WA0096201042
B1342403659322N00247380WA0096201041
B1342413659325N00247372WA0096201041
B1342423659329N00247363WA0096201041
B1342433659332N00247355WA0096101041
B1342443659335N00247345WA0095901040
B1342453659338N00247336WA0095701038
B1342463659342N00247326WA0095501037
B1342473659345N00247317WA0095301035
B1342483659349N00247308WA0095301033
B1342493659352N00247298WA0095201031
B1342503659355N00247288WA0095101030
B1342513659358N00247279WA0094901028
B1342523659361N00247270WA0094901026
B1342533659365N00247261WA0094801024
B1342543659369N00247253WA0094801023
B1342553659373N00247246WA0094701022
B1342563659378N00247240WA0094501022
B1342573659382N00247233WA0094401021
B1342583659386N00247226WA0094201019
B1342593659391N00247217WA0094101018
B1343003659394N00247209WA0094001017
B1343013659397N00247201WA0094001016
B1343023659400N00247193WA0094001014
B1343033659403N00247185WA0094001015
B1343043659406N00247178WA0094001014
B1343053659409N00247171WA0093801014
B1343063659412N00247163WA0093701013
B1343073659416N00247154WA0093501012
B1343083659420N00247145WA0093401011
B1343093659423N00247135WA0093401010
B1343103659425N00247125WA0093501009
B1343113659427N00247117WA0093401008
B1343123659430N00247109WA0093301007
B1343133659434N00247102WA0093201006
B1343143659439N00247095WA0093101005
B1343153659444N00247089WA0093101005
B1343163659449N00247083WA0093001006
B1343173659454N00247077WA0093001005
B1343183659459N00247071WA0092901005
B1343193659463N00247067WA0092901004
B1343203659468N00247062WA0092901005
B1343213659472N00247057WA0092801004
B1343223659477N00247051WA0092601003
B1343233659481N00247045WA0092301001
B1343243659486N00247039WA0092101000
B1343253659491N00247033WA0092000998
B1343263659496N00247025WA0091900996
B1343273659501N00247018WA0091700995
B1343283659506N00247012WA0091700994
B1343293659511N00247006WA0091700994
B1343303659516N00247002WA0091600994
B1343313659520N00246997WA0091500993
B1343323659526N00246992WA0091300992
B1343333659531N00246986WA0091100990
B1343343659537N00246980WA0091000989
B1343353659542N00246974WA0090900987
B1343363659547N00246968WA0090800986
B1343373659552N00246961WA0090600984
B1343383659557N00246954WA0090400983
B1343393659562N00246947WA0090200981
B1343403659567N00246939WA0090100979
B1343413659572N00246932WA0089900977
B1343423659577N00246924WA0089800976
B1343433659582N00246917WA0089600974
B1343443659587N00246909WA0089500973
B1343453659592N00246901WA0089500972
B1343463659598N00246893WA0089600973
B1343473659603N00246886WA0089800973
B1343483659609N00246880WA0090000974
B1343493659614N00246874WA0090000976
B1343503659618N00246869WA0090000976
B1343513659622N00246864WA0089900976
B1343523659626N00246859WA0089700975
B1343533659631N00246852WA0089500975
B1343543659637N00246846WA0089300973
B1343553659643N00246840WA0089000971
B1343563659648N00246833WA0088700970
B1343573659654N00246827WA0088500968
B1343583659659N00246822WA0088300966
B1343593659665N00246817WA0088100964
B1344003659671N00246813WA0087900962
B1344013659677N00246808WA0087700960
B1344023659683N00246804WA0087500957
B1344033659690N00246799WA0087200954
B1344043659696N00246795WA0087100952
B1344053659702N00246792WA0086900949
B1344063659708N00246788WA0086800947
B1344073659714N00246785WA0086500944
B1344083659720N00246781WA0086300942
B1344093659726N00246778WA0086100939
B1344103659732N00246774WA0085900936
B1344113659738N00246770WA0085700934
B1344123659745N00246766WA0085400931
B1344133659751N00246762WA0085300928
B1344143659757N00246758WA0085000926
B1344153659763N00246754WA0084800923
B1344163659769N00246749WA0084500921
B1344173659776N00246745WA0084300918
B1344183659782N00246741WA0084100916
B1344193659788N00246737WA0083900914
B1344203659794N00246733WA0083800912
B1344213659799N00246729WA0083600910
B1344223659805N00246726WA0083400908
B1344233659812N00246722WA0083100905
B1344243659818N00246718WA0082900903
B1344253659825N00246716WA0082700901
B1344263659832N00246713WA0082600899
B1344273659838N00246710WA0082500897
B1344283659843N00246706WA0082500896
B1344293659849N00246703WA0082500896
B1344303659854N00246699WA0082400895
B1344313659860N00246696WA0082200894
B1344323659866N00246692WA0082100893
B1344333659873N00246688WA0082000891
B1344343659880N00246686WA0081900890
B1344353659886N00246683WA0082000891
B1344363659892N00246681WA0082200891
B1344373659898N00246680WA0082200892
B1344383659904N00246679WA0082400893
B1344393659909N00246678WA0082400894
B1344403659914N00246677WA0082400895
B1344413659919N00246676WA0082500894
B1344423659925N00246676WA0082600894
B1344433659930N00246676WA0082700895
B1344443659933N00246677WA0082800895
B1344453659936N00246680WA0082900896
B1344463659936N00246683WA0082800896
B1344473659935N00246687WA0082600897
B1344483659931N00246691WA0082600897
B1344493659928N00246693WA0082700897
B1344503659924N00246693WA0083000897
B1344513659920N00246691WA0083000898
B1344523659916N00246687WA0083000898
B1344533659912N00246680WA0083100899
B1344543659909N00246673WA0083100899
B1344553659908N00246665WA0083300899
B1344563659908N00246658WA0083400899
B1344573659911N00246651WA0083500900
B1344583659916N00246644WA0083500901
B1344593659921N00246639WA0083600901
B1345003659927N00246636WA0083600903
B1345013659931N00246634WA0083800904
B1345023659936N00246633WA0083900903
B1345033659940N00246634WA0083900904
B1345043659944N00246636WA0084000904
B1345053659947N00246640WA0084100905
B1345063659949N00246644WA0084200905
B1345073659951N00246648WA0084300905
B1345083659952N00246652WA0084400906
B1345093659952N00246656WA0084500906
B1345103659951N00246659WA0084600907
B1345113659948N00246662WA0084600908
B1345123659944N00246663WA0084500908
B1345133659939N00246664WA0084500909
B1345143659934N00246663WA0084600910
B1345153659929N00246660WA0084700910
B1345163659925N00246656WA0084800910
B1345173659922N00246650WA0084900910
B1345183659919N00246643WA0085000911
B1345193659918N00246636WA0085100911
B1345203659918N00246628WA0085100911
B1345213659920N00246620WA0085200912
B1345223659923N00246613WA0085300913
B1345233659927N00246607WA0085300914
B1345243659932N00246603WA0085400915
B1345253659937N00246600WA0085600917
B1345263659941N00246599WA0085900919
B1345273659944N00246600WA0086200917
B1345283659947N00246602WA0086200917
B1345293659948N00246606WA0086300918
B1345303659950N00246610WA0086400919
B1345313659950N00246615WA0086400920
B1345323659948N00246620WA0086500921
B1345333659945N00246623WA0086600922
B1345343659941N00246623WA0086600923
B1345353659936N00246622WA0086600923
B1345363659931N00246618WA0086600924
B1345373659927N00246614WA0086700924
B1345383659923N00246608WA0086900925
B1345393659920N00246602WA0087000925
B1345403659919N00246595WA0087100926
B1345413659919N00246587WA0087000927
B1345423659922N00246579WA0087000928
B1345433659926N00246571WA0086800928
B1345443659932N00246565WA0086900929
B1345453659937N00246560WA0087100930
B1345463659943N00246557WA0087300932
B1345473659947N00246556WA0087500936
B1345483659950N00246557WA0087800939
B1345493659953N00246559WA0088100934
B1345503659956N00246563WA0088100934
B1345513659957N00246567WA0088300936
B1345523659958N00246572WA0088300937
B1345533659957N00246578WA0088500938
B1345543659955N00246582WA0088700939
B1345553659954N00246586WA0088900941
B1345563659952N00246589WA0089100943
B1345573659950N00246591WA0089100945
B1345583659947N00246591WA0089100947
B1345593659942N00246590WA0089200950
B1346003659938N00246587WA0089200948
B1346013659934N00246584WA0089200949
B1346023659929N00246579WA0089300950
B1346033659926N00246573WA0089300950
B1346043659924N00246565WA0089300951
B1346053659925N00246557WA0089200952
B1346063659928N00246548WA0089100952
B1346073659933N00246540WA0089000952
B1346083659939N00246534WA0089100952
B1346093659945N00246531WA0089300954
B1346103659950N00246529WA0089500956
B1346113659954N00246527WA0089700956
B1346123659957N00246527WA0090100956
B1346133659962N00246527WA0090100956
B1346143659966N00246529WA0090300957
B1346153659971N00246533WA0090500958
B1346163659974N00246539WA0090700959
B1346173659976N00246544WA0091000961
B1346183659978N00246548WA0091100962
B1346193659977N00246551WA0091400963
B1346203659976N00246555WA0091600963
B1346213659974N00246557WA0091700964
B1346223659972N00246560WA0091900965
B1346233659969N00246561WA0091900966
B1346243659966N00246561WA0091900967
B1346253659962N00246560WA0091900968
B1346263659958N00246556WA0092000969
B1346273659955N00246552WA0092000969
B1346283659952N00246547WA0092100970
B1346293659950N00246540WA0092100970
B1346303659949N00246532WA0092200971
B1346313659949N00246524WA0092200972
B1346323659951N00246515WA0092100973
B1346333659954N00246505WA0092100974
B1346343659957N00246496WA0092100974
B1346353659961N00246488WA0092400975
B1346363659965N00246482WA0092800977
B1346373659970N00246478WA0093100979
B1346383659973N00246476WA0093500982
B1346393659977N00246476WA0093700981
B1346403659981N00246479WA0093700981
B1346413659985N00246483WA0093800982
B1346423659987N00246488WA0093900984
B1346433659989N00246493WA0094200986
B1346443659989N00246498WA0094700987
B1346453659988N00246499WA0095000988
B1346463659985N00246502WA0095200990
B1346473659982N00246503WA0095200991
B1346483659979N00246503WA0095400993
B1346493659975N00246502WA0095600994
B1346503659972N00246499WA0095800995
B1346513659969N00246493WA0095900995
B1346523659968N00246485WA0096000997
B1346533659968N00246476WA0096000998
B1346543659969N00246467WA0096100999
B1346553659971N00246458WA0096201000
B1346563659975N00246450WA0096501001
B1346573659981N00246445WA0096601003
B1346583659986N00246444WA0096801005
B1346593659990N00246444WA0097001009
B1347003659994N00246445WA0097301007
B1347013659997N00246448WA0097401008
B1347023659999N00246452WA0097801010
B1347033700001N00246456WA0098101012
B1347043700002N00246460WA0098301014
B1347053700000N00246464WA0098501016
B1347063659997N00246468WA0098801019
B1347073659995N00246470WA0099001022
B1347083659992N00246470WA0099301021
B1347093659990N00246468WA0099501022
B1347103659988N00246466WA0099501024
B1347113659985N00246462WA0099501025
B1347123659983N00246455WA0099601026
B1347133659982N00246448WA0099801027
B1347143659982N00246440WA0099901028
B1347153659984N00246432WA0100001029
B1347163659987N00246425WA0100101030
B1347173659991N00246418WA0100201031
B1347183659996N00246412WA0100401033
B1347193700002N00246407WA0100601035
B1347203700009N00246405WA0101001039
B1347213700014N00246405WA0101401043
B1347223700019N00246407WA0101701040
B1347233700024N00246409WA0101901042
B1347243700027N00246412WA0102201043
B1347253700030N00246414WA0102501045
B1347263700032N00246417WA0102801047
B1347273700032N00246422WA0102901048
B1347283700030N00246427WA0103101050
B1347293700028N00246431WA0103501052
B1347303700025N00246434WA0103701053
B1347313700022N00246433WA0104001054
B1347323700019N00246431WA0104001055
B1347333700017N00246428WA0104201056
B1347343700013N00246423WA0104301058
B1347353700011N00246418WA0104501059
B1347363700010N00246413WA0104701060
B1347373700009N00246405WA0104701060
B1347383700009N00246397WA0104801061
B1347393700011N00246388WA0104901062
B1347403700014N00246378WA0104801063
B1347413700020N00246370WA0104901065
B1347423700027N00246364WA0105101067
B1347433700034N00246361WA0105501070
B1347443700041N00246359WA0106101075
B1347453700046N00246361WA0106301078
B1347463700050N00246364WA0106601083
B1347473700052N00246366WA0106801080
B1347483700054N00246368WA0107101082
B1347493700054N00246370WA0107101083
B1347503700053N00246374WA0107101085
B1347513700050N00246380WA0107201087
B1347523700047N00246382WA0107501089
B1347533700043N00246383WA0107701090
B1347543700040N00246381WA0108001091
B1347553700037N00246377WA0108301092
B1347563700035N00246370WA0108601093
B1347573700034N00246364WA0108701094
B1347583700034N00246356WA0108901095
B1347593700035N00246349WA0109101096
B1348003700038N00246342WA0109201096
B1348013700044N00246335WA0109401097
B1348023700050N00246330WA0109501098
B1348033700055N00246326WA0109701098
B1348043700060N00246323WA0110001099
B1348053700066N00246324WA0110201100
B1348063700070N00246326WA0110601102
B1348073700073N00246329WA0110701104
B1348083700074N00246331WA0110801106
B1348093700074N00246334WA0111001107
B1348103700072N00246337WA0111101109
B1348113700070N00246341WA0111201112
B1348123700068N00246344WA0111401114
B1348133700067N00246346WA0111501116
B1348143700065N00246347WA0111801119
B1348153700062N00246345WA0112001121
B1348163700057N00246341WA0112201124
B1348173700054N00246338WA0112401127
B1348183700052N00246335WA0112601129
B1348193700049N00246329WA0112901131
B1348203700049N00246321WA0113001133
B1348213700049N00246309WA0113001135
B1348223700050N00246300WA0113101137
B1348233700051N00246294WA0113401139
B1348243700055N00246290WA0113701142
B1348253700061N00246290WA0114001145
B1348263700063N00246292WA0114301149
B1348273700065N00246294WA0114401153
B1348283700066N00246296WA0114501155
B1348293700064N00246299WA0114701158
B1348303700061N00246301WA0114901163
B1348313700058N00246300WA0115201166
B1348323700055N00246296WA0115401170
B1348333700053N00246286WA0115601175
B1348343700052N00246277WA0115701181
B1348353700052N00246268WA0115801185
B1348363700055N00246260WA0116101189
B1348373700061N00246253WA0116401192
B1348383700067N00246247WA0116501197
B1348393700072N00246241WA0116701201
B1348403700077N00246237WA0117001205
B1348413700082N00246236WA0117101208
B1348423700086N00246237WA0117201213
B1348433700088N00246241WA0117301217
B1348443700088N00246245WA0117501221
B1348453700087N00246248WA0117601225
B1348463700085N00246249WA0117801228
B1348473700083N00246249WA0117901232
B1348483700081N00246249WA0118101236
B1348493700079N00246250WA0118201239
B1348503700075N00246246WA0118301243
B1348513700072N00246235WA0118501247
B1348523700070N00246225WA0118601251
B1348533700070N00246216WA0118801254
B1348543700072N00246207WA0118901257
B1348553700077N00246198WA0119101260
B1348563700083N00246190WA0119301263
B1348573700088N00246185WA0119401267
B1348583700094N00246181WA0119601270
B1348593700100N00246179WA0119801273
B1349003700105N00246178WA0120001277
B1349013700109N00246178WA0120201281
B1349023700113N00246180WA0120301284
B1349033700115N00246182WA0120401287
B1349043700115N00246185WA0120301289
B1349053700113N00246188WA0120401292
B1349063700111N00246190WA0120401295
B1349073700108N00246190WA0120501297
B1349083700104N00246188WA0120601299
B1349093700100N00246183WA0120601301
B1349103700095N00246175WA0120701303
B1349113700091N00246165WA0120801305
B1349123700089N00246157WA0120901307
B1349133700088N00246148WA0121201309
B1349143700088N00246140WA0121301312
B1349153700090N00246132WA0121401314
B1349163700095N00246121WA0121401316
B1349173700101N00246113WA0121501318
B1349183700106N00246105WA0121601319
B1349193700113N00246101WA0121701321
B1349203700119N00246098WA0121901322
B1349213700124N00246097WA0122001324
B1349223700129N00246097WA0122201326
B1349233700132N00246097WA0122301328
B1349243700134N00246097WA0122401330
B1349253700135N00246099WA0122401332
B1349263700137N00246100WA0122501334
B1349273700137N00246102WA0122601335
B1349283700136N00246103WA0122501337
B1349293700133N00246103WA0122501338
B1349303700130N00246101WA0122401340
B1349313700126N00246098WA0122401341
B1349323700122N00246095WA0122501342
B1349333700118N00246090WA0122801343
B1349343700115N00246084WA0123001345
B1349353700112N00246077WA0123101347
B1349363700110N00246068WA0123101347
B1349373700108N00246059WA0123201348
B1349383700107N00246050WA0123301349
B1349393700106N00246041WA0123401350
B1349403700107N00246033WA0123601352
B1349413700108N00246024WA0123801354
B1349423700110N00246015WA0123801355
B1349433700114N00246007WA0123901356
B1349443700118N00245999WA0123901357
B1349453700122N00245992WA0124001358
B1349463700127N00245986WA0124101360
B1349473700133N00245979WA0124201361
B1349483700139N00245973WA0124301361
B1349493700144N00245969WA0124401359
B1349503700150N00245966WA0124401358
B1349513700155N00245964WA0124401357
B1349523700159N00245964WA0124501355
B1349533700163N00245965WA0124601355
B1349543700167N00245967WA0124601354
B1349553700169N00245968WA0124601352
B1349563700171N00245970WA0124601351
B1349573700171N00245972WA0124601350
B1349583700170N00245973WA0124601349
B1349593700169N00245974WA0124501348
B1350003700167N00245974WA0124401348
B1350013700163N00245972WA0124401347
B1350023700159N00245969WA0124301347
B1350033700154N00245964WA0124001346
B1350043700149N00245957WA0124001345
B1350053700145N00245948WA0123901345
B1350063700142N00245939WA0124001344
B1350073700141N00245930WA0124101344
B1350083700141N00245920WA0124101344
B1350093700142N00245910WA0124101344
B1350103700145N00245901WA0124101344
B1350113700149N00245892WA0124001343
B1350123700154N00245884WA0123901343
B1350133700159N00245876WA0123901342
B1350143700164N00245868WA0124001342
B1350153700169N00245861WA0124001341
B1350163700175N00245855WA0123901341
B1350173700180N00245847WA0123901340
B1350183700187N00245840WA0123801338
B1350193700192N00245834WA0123901338
B1350203700197N00245827WA0124001337
B1350213700202N00245822WA0124001337
B1350223700207N00245817WA0124001337
B1350233700212N00245813WA0123901336
B1350243700218N00245809WA0123801336
B1350253700223N00245805WA0123701335
B1350263700229N00245800WA0123601334
B1350273700235N00245795WA0123601333
B1350283700240N00245789WA0123501333
B1350293700246N00245784WA0123401332
B1350303700250N00245778WA0123401331
B1350313700255N00245773WA0123301330
B1350323700260N00245767WA0123301328
B1350333700266N00245762WA0123201327
B1350343700271N00245758WA0123001326
B1350353700277N00245754WA0122901325
B1350363700282N00245750WA0122801323
B1350373700287N00245747WA0122701323
B1350383700292N00245744WA0122501322
B1350393700297N00245740WA0122401321
B1350403700303N00245735WA0122201320
B1350413700309N00245731WA0122201318
B1350423700315N00245726WA0122001316
B1350433700320N00245721WA0121901315
B1350443700325N00245716WA0121801313
B1350453700330N00245711WA0121601311
B1350463700335N00245705WA0121501309
B1350473700341N00245700WA0121301307
B1350483700346N00245695WA0121101306
B1350493700352N00245690WA0120901304
B1350503700358N00245685WA0120801302
B1350513700363N00245680WA0120701300
B1350523700369N00245674WA0120501298
B1350533700374N00245667WA0120401296
B1350543700379N00245660WA0120201295
B1350553700385N00245653WA0120101294
B1350563700390N00245646WA0120001293
B1350573700395N00245639WA0119801291
B1350583700399N00245632WA0119701290
B1350593700404N00245624WA0119601289
B1351003700408N00245615WA0119401287
B1351013700412N00245607WA0119301286
B1351023700416N00245598WA0119101284
B1351033700420N00245589WA0119001283
B1351043700425N00245581WA0118801281
B1351053700430N00245572WA0118501279
B1351063700435N00245564WA0118301277
B1351073700440N00245555WA0118001275
B1351083700444N00245546WA0117901273
B1351093700449N00245537WA0117901271
B1351103700453N00245528WA0117701270
B1351113700457N00245519WA0117501269
B1351123700461N00245510WA0117301267
B1351133700464N00245500WA0117101265
B1351143700467N00245490WA0116901263
B1351153700470N00245480WA0116601261
B1351163700472N00245470WA0116501259
B1351173700474N00245459WA0116301256
B1351183700475N00245449WA0116001254
B1351193700476N00245438WA0115801252
B1351203700478N00245427WA0115501249
B1351213700479N00245417WA0115301247
B1351223700480N00245407WA0115201245
B1351233700481N00245398WA0115201243
B1351243700482N00245387WA0114901241
B1351253700483N00245376WA0114701239
B1351263700484N00245365WA0114501237
B1351273700485N00245354WA0114301235
B1351283700485N00245343WA0114201233
B1351293700486N00245332WA0114201232
B1351303700488N00245322WA0114201230
B1351313700489N00245311WA0114101230
B1351323700491N00245301WA0114001229
B1351333700493N00245291WA0114001229
B1351343700494N00245281WA0114001228
B1351353700496N00245271WA0113901228
B1351363700497N00245261WA0113901228
B1351373700498N00245251WA0113801227
B1351383700500N00245240WA0113801227
B1351393700502N00245230WA0113801227
B1351403700504N00245220WA0113801226
B1351413700506N00245209WA0113701226
B1351423700509N00245199WA0113601226
B1351433700511N00245189WA0113501225
B1351443700513N00245178WA0113401225
B1351453700516N00245168WA0113201224
B1351463700518N00245158WA0113001224
B1351473700521N00245147WA0112901222
B1351483700523N00245136WA0112801221
B1351493700525N00245125WA0112701220
B1351503700527N00245114WA0112601219
B1351513700529N00245103WA0112601218
B1351523700531N00245093WA0112501217
B1351533700532N00245082WA0112501216
B1351543700534N00245072WA0112401215
B1351553700535N00245060WA0112101213
B1351563700535N00245049WA0111801211
B1351573700536N00245037WA0111601209
B1351583700536N00245026WA0111401207
B1351593700536N00245014WA0111201206
B1352003700536N00245002WA0111101204
B1352013700537N00244990WA0110801202
B1352023700538N00244978WA0110701200
B1352033700539N00244966WA0110501198
B1352043700540N00244953WA0110401196
B1352053700541N00244941WA0110301195
B1352063700543N00244930WA0110101194
B1352073700545N00244919WA0110001192
B1352083700547N00244907WA0109901190
B1352093700549N00244896WA0109601188
B1352103700550N00244885WA0109401187
B1352113700552N00244874WA0109301185
B1352123700554N00244863WA0109101183
B1352133700555N00244853WA0108901181
B1352143700558N00244843WA0108701178
B1352153700560N00244833WA0108401176
B1352163700562N00244822WA0108201174
B1352173700564N00244812WA0108001172
B1352183700566N00244801WA0107701169
B1352193700568N00244791WA0107501167
B1352203700570N00244781WA0107401165
B1352213700572N00244770WA0107101162
B1352223700574N00244760WA0106901160
B1352233700576N00244750WA0106701158
B1352243700579N00244739WA0106501156
B1352253700581N00244728WA0106301155
B1352263700583N00244717WA0106301153
B1352273700585N00244706WA0106201152
B1352283700587N00244696WA0106001150
B1352293700590N00244685WA0105901149
B1352303700593N00244675WA0105701148
B1352313700596N00244664WA0105601147
B1352323700599N00244654WA0105501146
B1352333700602N00244644WA0105401145
B1352343700605N00244635WA0105101144
B1352353700607N00244624WA0105001142
B1352363700610N00244613WA0104801140
B1352373700613N00244602WA0104501138
B1352383700616N00244592WA0104301136
B1352393700620N00244582WA0104101134
B1352403700624N00244572WA0104001132
B1352413700627N00244562WA0103701130
B1352423700629N00244552WA0103601127
B1352433700632N00244542WA0103401126
B1352443700634N00244532WA0103201124
B1352453700636N00244522WA0103001122
B1352463700639N00244512WA0102801120
B1352473700641N00244502WA0102601118
B1352483700643N00244492WA0102501116
B1352493700645N00244481WA0102301113
B1352503700648N00244471WA0102001111
B1352513700650N00244461WA0101901109
B1352523700653N00244451WA0101701107
B1352533700656N00244442WA0101501105
B1352543700659N00244432WA0101201103
B1352553700663N00244422WA0101001101
B1352563700666N00244412WA0100801099
B1352573700669N00244403WA0100701098
B1352583700673N00244394WA0100601096
B1352593700676N00244385WA0100501094
B1353003700680N00244376WA0100301092
B1353013700683N00244368WA0100201089
B1353023700687N00244360WA0100001088
B1353033700690N00244353WA0099901086
B1353043700695N00244345WA0099601084
B1353053700699N00244337WA0099501081
B1353063700704N00244329WA0099201078
B1353073700709N00244321WA0099001075
B1353083700714N00244313WA0098801073
B1353093700719N00244306WA0098701072
B1353103700724N00244298WA0098601070
B1353113700728N00244291WA0098501069
B1353123700731N00244282WA0098301067
B1353133700735N00244274WA0098201066
B1353143700738N00244265WA0098101064
B1353153700741N00244258WA0098001063
B1353163700745N00244251WA0097801062
B1353173700748N00244244WA0097601060
B1353183700751N00244237WA0097301058
B1353193700755N00244230WA0097101056
B1353203700760N00244223WA0096701053
B1353213700765N00244217WA0096401049
B1353223700770N00244210WA0096201046
B1353233700773N00244202WA0096201044
B1353243700776N00244195WA0096101043
B1353253700779N00244187WA0095901042
B1353263700781N00244179WA0095701040
B1353273700785N00244172WA0095501038
B1353283700788N00244165WA0095201036
B1353293700793N00244159WA0095001033
B1353303700797N00244153WA0094801031
B1353313700800N00244147WA0094601029
B1353323700804N00244141WA0094301027
B1353333700807N00244134WA0094101024
B1353343700810N00244127WA0093901022
B1353353700814N00244121WA0093801020
B1353363700816N00244115WA0093601018
B1353373700819N00244109WA0093301017
B1353383700822N00244102WA0093101014
B1353393700824N00244095WA0092801012
B1353403700825N00244087WA0092501009
B1353413700827N00244079WA0092201006
B1353423700828N00244070WA0092101004
B1353433700829N00244063WA0091901002
B1353443700831N00244055WA0091701000
B1353453700833N00244047WA0091400998
B1353463700835N00244039WA0091200995
B1353473700835N00244030WA0091100994
B1353483700836N00244022WA0090900993
B1353493700837N00244014WA0090700991
B1353503700838N00244006WA0090400989
B1353513700838N00243998WA0090100986
B1353523700839N00243989WA0090000984
B1353533700838N00243980WA0089700981
B1353543700838N00243972WA0089600979
B1353553700837N00243964WA0089500977
B1353563700836N00243956WA0089300975
B1353573700836N00243948WA0089100973
B1353583700836N00243940WA0089000971
B1353593700836N00243931WA0088800969
B1354003700837N00243922WA0088700968
B1354013700838N00243913WA0088600966
B1354023700839N00243906WA0088600965
B1354033700840N00243899WA0088500964
B1354043700841N00243892WA0088300962
B1354053700843N00243885WA0088100960
B1354063700844N00243877WA0087800957
B1354073700846N00243868WA0087600955
B1354083700848N00243860WA0087400953
B1354093700851N00243852WA0087300953
B1354103700854N00243846WA0087300952
B1354113700856N00243839WA0087200951
B1354123700859N00243833WA0087000949
B1354133700861N00243826WA0086600947
B1354143700865N00243819WA0086300945
B1354153700868N00243812WA0086200943
B1354163700872N00243805WA0086000941
B1354173700876N00243798WA0085900939
B1354183700879N00243792WA0085700938
B1354193700883N00243785WA0085500936
B1354203700887N00243778WA0085300934
B1354213700891N00243771WA0085100931
B1354223700895N00243763WA0084900929
B1354233700899N00243756WA0084800928
B1354243700903N00243748WA0084600926
B1354253700907N00243742WA0084500925
B1354263700911N00243735WA0084400923
B1354273700915N00243729WA0084400922
B1354283700919N00243722WA0084300921
B1354293700922N00243716WA0084300919
B1354303700925N00243712WA0084300919
B1354313700928N00243708WA0084300920
B1354323700932N00243703WA0084100923
B1354333700936N00243698WA0083900923
B1354343700940N00243692WA0083700923
B1354353700944N00243686WA0083500922
B1354363700948N00243681WA0083500921
B1354373700952N00243676WA0083400920
B1354383700955N00243671WA0083400919
B1354393700959N00243667WA0083200919
B1354403700962N00243661WA0083000919
B1354413700966N00243656WA0082700918
B1354423700969N00243650WA0082500918
B1354433700971N00243643WA0082500917
B1354443700973N00243637WA0082300916
B1354453700974N00243630WA0082300914
B1354463700976N00243624WA0082200913
B1354473700977N00243618WA0082000912
B1354483700979N00243613WA0081900910
B1354493700980N00243606WA0081700908
B1354503700980N00243600WA0081500906
B1354513700981N00243592WA0081300904
B1354523700980N00243585WA0081100901
B1354533700980N00243578WA0080900898
B1354543700979N00243571WA0080700896
B1354553700978N00243564WA0080500893
B1354563700976N00243558WA0080300891
B1354573700973N00243552WA0080100887
B1354583700971N00243545WA0079800884
B1354593700968N00243539WA0079700881
B1355003700964N00243533WA0079400879
B1355013700962N00243527WA0079200877
B1355023700959N00243520WA0079100874
B1355033700956N00243513WA0078800871
B1355043700952N00243506WA0078500867
B1355053700949N00243500WA0078400864
B1355063700946N00243493WA0078300862
B1355073700944N00243486WA0078100861
B1355083700944N00243481WA0078100859
B1355093700943N00243475WA0077900864
B1355103700942N00243468WA0077700864
B1355113700941N00243461WA0077400862
B1355123700940N00243453WA0077200860
B1355133700940N00243446WA0077100859
B1355143700941N00243440WA0076900858
B1355153700942N00243435WA0076700856
B1355163700943N00243428WA0076500856
B1355173700943N00243422WA0076300855
B1355183700943N00243415WA0076100855
B1355193700942N00243408WA0076000854
B1355203700942N00243402WA0075900854
B1355213700943N00243395WA0075800853
B1355223700943N00243390WA0075600852
B1355233700943N00243384WA0075400851
B1355243700944N00243377WA0075300850
B1355253700943N00243371WA0075200850
B1355263700943N00243364WA0075100849
B1355273700944N00243358WA0074900848
B1355283700945N00243353WA0074700846
B1355293700946N00243347WA0074600844
B1355303700946N00243340WA0074300842
B1355313700945N00243333WA0074100840
B1355323700944N00243327WA0074000837
B1355333700942N00243321WA0073900837
B1355343700940N00243315WA0073800836
B1355353700938N00243310WA0073700835
B1355363700936N00243305WA0073600833
B1355373700933N00243299WA0073300831
B1355383700929N00243294WA0073100828
B1355393700925N00243289WA0072900826
B1355403700920N00243284WA0072900823
B1355413700916N00243280WA0072800822
B1355423700913N00243276WA0072700819
B1355433700909N00243273WA0072300820
B1355443700905N00243269WA0072200820
B1355453700900N00243265WA0072000820
B1355463700895N00243260WA0071800819
B1355473700891N00243255WA0071500817
B1355483700888N00243249WA0071400816
B1355493700885N00243243WA0071300814
B1355503700882N00243239WA0071200813
B1355513700878N00243234WA0071000812
B1355523700875N00243230WA0070900811
B1355533700872N00243226WA0070700810
B1355543700869N00243222WA0070400809
B1355553700865N00243217WA0070400808
B1355563700861N00243211WA0070100807
B1355573700858N00243206WA0069900806
B1355583700856N00243200WA0069800805
B1355593700853N00243194WA0069600804
B1356003700850N00243188WA0069500803
B1356013700846N00243182WA0069400802
B1356023700843N00243177WA0069200801
B1356033700839N00243173WA0069000799
B1356043700835N00243169WA0068900799
B1356053700831N00243166WA0068800797
B1356063700828N00243162WA0068600796
B1356073700824N00243158WA0068400794
B1356083700821N00243153WA0068100792
B1356093700818N00243148WA0068000791
B1356103700814N00243143WA0067900789
B1356113700810N00243139WA0067700787
B1356123700806N00243136WA0067500785
B1356133700802N00243132WA0067300785
B1356143700798N00243129WA0067200783
B1356153700794N00243124WA0067100783
B1356163700790N00243120WA0066900781
B1356173700786N00243116WA0066800780
B1356183700782N00243113WA0066600779
B1356193700779N00243109WA0066400778
B1356203700775N00243106WA0066300776
B1356213700771N00243102WA0066200775
B1356223700766N00243099WA0066000774
B1356233700762N00243095WA0065900773
B1356243700758N00243092WA0065700772
B1356253700753N00243089WA0065600770
B1356263700749N00243086WA0065500769
B1356273700745N00243083WA0065300768
B1356283700741N00243080WA0065100767
B1356293700737N00243077WA0065000766
B1356303700732N00243074WA0064900765
B1356313700727N00243072WA0064800764
B1356323700722N00243070WA0064600762
B1356333700717N00243068WA0064400761
B1356343700713N00243065WA0064300760
B1356353700710N00243063WA0064100759
B1356363700705N00243061WA0064100758
B1356373700700N00243059WA0063900757
B1356383700695N00243057WA0063700756
B1356393700690N00243054WA0063500754
B1356403700686N00243052WA0063300753
B1356413700681N00243049WA0063200752
B1356423700676N00243047WA0063000750
B1356433700672N00243045WA0062900748
B1356443700668N00243043WA0062700748
B1356453700663N00243042WA0062600747
B1356463700659N00243041WA0062300746
B1356473700654N00243039WA0062100744
B1356483700650N00243038WA0061900743
B1356493700645N00243036WA0061800742
B1356503700640N00243035WA0061800740
B1356513700635N00243034WA0061600739
B1356523700630N00243033WA0061400737
B1356533700625N00243032WA0061200735
B1356543700621N00243031WA0061000733
B1356553700616N00243030WA0060900730
B1356563700611N00243029WA0060700728
B1356573700606N00243028WA0060600725
B1356583700601N00243027WA0060400721
B1356593700596N00243027WA0060300718
B1357003700590N00243027WA0060200713
B1357013700585N00243026WA0060000708
B1357023700581N00243025WA0059700703
B1357033700577N00243024WA0059600707
B1357043700572N00243023WA0059500706
B1357053700567N00243023WA0059400704
B1357063700562N00243023WA0059200702
B1357073700556N00243023WA0059100699
B1357083700551N00243023WA0058900697
B1357093700546N00243024WA0058800695
B1357103700541N00243023WA0058700693
B1357113700537N00243023WA0058600692
B1357123700532N00243023WA0058400690
B1357133700526N00243024WA0058300688
B1357143700521N00243024WA0058100687
B1357153700516N00243024WA0058100686
B1357163700511N00243023WA0057900684
B1357173700507N00243022WA0057700683
B1357183700502N00243022WA0057600682
B1357193700497N00243021WA0057500681
B1357203700492N00243021WA0057300680
B1357213700486N00243020WA0057200678
B1357223700481N00243019WA0057000677
B1357233700477N00243017WA0056800676
B1357243700473N00243016WA0056700675
B1357253700469N00243014WA0056600673
B1357263700465N00243012WA0056500672
B1357273700461N00243010WA0056400672
B1357283700456N00243009WA0056200671
B1357293700451N00243008WA0056000670
B1357303700447N00243007WA0055900668
B1357313700442N00243005WA0055700666
B1357323700438N00243003WA0055500664
B1357333700434N00243000WA0055400663
B1357343700430N00242997WA0055300662
B1357353700426N00242995WA0055200662
B1357363700423N00242991WA0055100661
B1357373700420N00242987WA0055000660
B1357383700417N00242984WA0054700659
B1357393700414N00242980WA0054500658
B1357403700410N00242977WA0054400657
B1357413700408N00242973WA0054400656
B1357423700405N00242970WA0054200655
B1357433700402N00242968WA0054000654
B1357443700398N00242965WA0053800653
B1357453700394N00242963WA0053700651
B1357463700389N00242961WA0053500650
B1357473700385N00242959WA0053400648
B1357483700380N00242959WA0053300648
B1357493700376N00242958WA0053200647
B1357503700371N00242957WA0053100646
B1357513700367N00242957WA0053000645
B1357523700363N00242956WA0053000644
B1357533700358N00242956WA0052800643
B1357543700354N00242956WA0052700642
B1357553700350N00242956WA0052400640
B1357563700346N00242955WA0052200640
B1357573700341N00242956WA0052000639
B1357583700336N00242957WA0051700637
B1357593700331N00242958WA0051600635
B1358003700326N00242959WA0051600634
B1358013700320N00242960WA0051400632
B1358023700316N00242962WA0051300630
B1358033700311N00242964WA0051200627
B1358043700306N00242967WA0051000624
B1358053700301N00242969WA0050800620
B1358063700296N00242972WA0050700617
B1358073700291N00242974WA0050600614
B1358083700287N00242976WA0050400610
B1358093700281N00242979WA0050200615
B1358103700276N00242981WA0050000612
B1358113700270N00242984WA0049900609
B1358123700264N00242985WA0049800606
B1358133700258N00242987WA0049600604
B1358143700253N00242987WA0049500601
B1358153700249N00242988WA0049300601
B1358163700244N00242989WA0049100599
B1358173700239N00242989WA0049000596
B1358183700235N00242991WA0048900594
B1358193700230N00242992WA0048900594
B1358203700226N00242992WA0048700592
B1358213700223N00242994WA0048500590
B1358223700220N00242996WA0048200588
B1358233700214N00242998WA0048000586
B1358243700208N00243000WA0048000585
B1358253700204N00243000WA0047900583
B1358263700200N00243001WA0047900582
B1358273700197N00243000WA0047800581
B1358283700193N00243001WA0047600579
B1358293700189N00243001WA0047500577
B1358303700185N00243001WA0047400576
B1358313700182N00243000WA0047300575
B1358323700179N00243000WA0047200574
B1358333700177N00242998WA0047100572
B1358343700174N00242997WA0046900571
B1358353700171N00242995WA0046800569
B1358363700168N00242993WA0046700567
B1358373700166N00242991WA0046600565
B1358383700163N00242991WA0046500562
B1358393700160N00242990WA0046400560
B1358403700158N00242988WA0046200557
B1358413700156N00242987WA0046100559
B1358423700153N00242986WA0046000558
B1358433700150N00242985WA0045800556
B1358443700147N00242984WA0045600555
B1358453700144N00242984WA0045500553
B1358463700141N00242984WA0045500552
B1358473700138N00242984WA0045400551
B1358483700136N00242983WA0045200549
B1358493700134N00242981WA0045000548
B1358503700133N00242978WA0044800547
B1358513700132N00242975WA0044800547
B1358523700133N00242972WA0044600546
B1358533700135N00242969WA0044500545
B1358543700136N00242967WA0044300543
B1358553700138N00242964WA0044200542
B1358563700140N00242962WA0044100541
B1358573700142N00242958WA0043900539
B1358583700144N00242954WA0043700538
B1358593700146N00242949WA0043500537
B1359003700147N00242946WA0043500536
B1359013700149N00242942WA0043300535
B1359023700150N00242939WA0043100534
B1359033700152N00242935WA0043000533
B1359043700154N00242930WA0042900531
B1359053700156N00242925WA0042800530
B1359063700159N00242922WA0042800529
B1359073700162N00242918WA0042700528
B1359083700163N00242915WA0042600527
B1359093700164N00242912WA0042500525
B1359103700163N00242908WA0042200523
B1359113700162N00242904WA0042100521
B1359123700161N00242900WA0041900517
B1359133700159N00242897WA0041700514
B1359143700157N00242895WA0041600516
B1359153700155N00242894WA0041500516
B1359163700154N00242891WA0041300515
B1359173700153N00242888WA0041100514
B1359183700151N00242884WA0040900513
B1359193700149N00242880WA0040800512
B1359203700146N00242877WA0040800511
B1359213700145N00242874WA0040700510
B1359223700144N00242872WA0040600509
B1359233700143N00242870WA0040500508
B1359243700141N00242867WA0040300507
B1359253700140N00242865WA0040200506
B1359263700137N00242863WA0039900505
B1359273700135N00242861WA0039700504
B1359283700134N00242859WA0039700503
B1359293700134N00242858WA0039900502
B1359303700133N00242856WA0039700501
B1359313700133N00242855WA0039800500
B1359323700133N00242854WA0039800499
B1359333700133N00242853WA0039800498
B1359343700133N00242854WA0039800497
B1359353700133N00242854WA0039800496
B1359363700133N00242854WA0039800496
B1359373700133N00242855WA0039800495
B1359383700133N00242855WA0039800494
B1359393700134N00242856WA0039800493
B1359403700133N00242856WA0039800492
B1359413700131N00242857WA0039800492
B1359423700131N00242857WA0039800491
B1359433700131N00242856WA0039700491
B1359443700131N00242856WA0039900490
B1359453700131N00242855WA0039800490
B1359463700131N00242855WA0039800489
B1359473700131N00242855WA0039800489
B1359483700131N00242854WA0039800488
B1359493700131N00242854WA0039800487
B1359503700131N00242853WA0039800487
B1359513700131N00242853WA0039800486
B1359523700131N00242853WA0039800485
B1359533700131N00242853WA0039800484
B1359543700131N00242852WA0039800483
B1359553700131N00242852WA0039800482
B1359563700131N00242852WA0039800481
B1359573700131N00242852WA0039800481
B1359583700131N00242852WA0039800480
B1359593700131N00242852WA0039800479
B1400003700131N00242852WA0039800477
B1400013700131N00242852WA0039800476
B1400023700131N00242852WA0039800474
B1400033700131N00242852WA0039800473
B1400043700131N00242852WA0039800472
B1400053700131N00242852WA0039800471
B1400063700131N00242852WA0039800470
B1400073700131N00242852WA0039800470
B1400083700131N00242852WA0039800470
B1400093700131N00242852WA0039800469
B1400103700132N00242852WA0039800468
B1400113700132N00242852WA0039800468
B1400123700132N00242852WA0039800467
B1400133700132N00242852WA0039800466
B1400143700132N00242852WA0039800466
B1400153700132N00242851WA0039800465
B1400163700132N00242852WA0039800465
B1400173700132N00242852WA0039800464
B1400183700132N00242852WA0039800464
B1400193700131N00242852WA0039800464
B1400203700131N00242852WA0039800463
B1400213700131N00242852WA0039800463
B1400223700130N00242852WA0039800462
B1400233700130N00242852WA0039800462
B1400243700130N00242852WA0039800461
B1400253700130N00242852WA0039800461
B1400263700130N00242852WA0039800460
B1400273700130N00242852WA0039800460
B1400283700130N00242852WA0039800460
B1400293700130N00242853WA0039900460
B1400303700130N00242854WA0039800459
B1400313700130N00242854WA0039800458
B1400323700130N00242854WA0039800458
B1400333700130N00242855WA0039800458
B1400343700130N00242855WA0039800458
B1400353700130N00242855WA0039800458
B1400363700131N00242855WA0039800458
B1400373700131N00242855WA0039800458
B1400383700131N00242855WA0039800458
B1400393700131N00242855WA0039900458
B1400403700131N00242855WA0039600457
B1400413700130N00242855WA0039600457
B1400423700130N00242855WA0039700457
B1400433700130N00242855WA0039700457
B1400443700130N00242854WA0039700457
B1400453700130N00242854WA0039700457
B1400463700130N00242854WA0039700457
B1400473700130N00242855WA0039700457
B1400483700130N00242855WA0039700457
B1400493700130N00242856WA0039700457
B1400503700130N00242856WA0039700457
B1400513700129N00242855WA0039700457
B1400523700129N00242855WA0039700457
B1400533700129N00242855WA0039700457
B1400543700129N00242855WA0039700457
B1400553700129N00242856WA0039700457
B1400563700129N00242856WA0039700457
B1400573700129N00242856WA0039700457
B1400583700129N00242856WA0039700457
B1400593700129N00242856WA0039700457
B1401003700129N00242856WA0039700457
B1401013700129N00242857WA0039700458
B1401023700129N00242857WA0039700458
B1401033700129N00242857WA0039700458
B1401043700129N00242857WA0039700458
B1401053700129N00242857WA0039700458
B1401063700129N00242857WA0039700458
B1401073700129N00242857WA0039700458
B1401083700129N00242857WA0039700458
B1401093700129N00242857WA0039700458
B1401103700129N00242857WA0039700458
B1401113700129N00242857WA0039700458
B1401123700129N00242857WA0039700458
B1401133700129N00242857WA0039700458
B1401143700130N00242857WA0039700458
B1401153700130N00242857WA0039700458
B1401163700130N00242857WA0039700458
B1401173700130N00242857WA0039700458
B1401183700130N00242856WA0039700458
B1401193700130N00242857WA0039700458
B1401203700130N00242857WA0039700458
B1401213700130N00242857WA0039700458
B1401223700130N00242856WA0039700458
B1401233700130N00242856WA0039700458
B1401243700130N00242856WA0039700458
B1401253700130N00242856WA0039700458
B1401263700130N00242856WA0039700458
B1401273700130N00242856WA0039700458
B1401283700130N00242856WA0039700458
B1401293700130N00242856WA0039700458
B1401303700130N00242856WA0039700458
B1401313700130N00242856WA0039700458
B1401323700130N00242856WA0039700458
B1401333700130N00242856WA0039700458
B1401343700130N00242856WA0039700459
B1401353700130N00242856WA0039700459
B1401363700130N00242856WA0039700459
B1401373700130N00242856WA0039700458
B1401383700130N00242856WA0039700458
B1401393700130N00242856WA0039700458
B1401403700129N00242856WA0039700458
B1401413700129N00242856WA0039700458
B1401423700129N00242857WA0039700458
B1401433700129N00242857WA0039700458
B1401443700129N00242857WA0039700458
B1401453700130N00242857WA0039700458
B1401463700129N00242857WA0039700458
B1401473700129N00242857WA0039700458
B1401483700129N00242857WA0039700458
B1401493700129N00242856WA0039700458
B1401503700129N00242856WA0039700458
B1401513700129N00242856WA0039700458
B1401523700129N00242856WA0039700458
B1401533700129N00242856WA0039700458
B1401543700129N00242856WA0039700458
B1401553700129N00242856WA0039700458
B1401563700129N00242856WA0039700458
B1401573700129N00242856WA0039700458
B1401583700129N00242856WA0039700458
B1401593700129N00242856WA0039700459
B1402003700130N00242856WA0039700458
B1402013700130N00242856WA0039700458
B1402023700130N00242856WA0039700458
B1402033700130N00242856WA0039700458
B1402043700130N00242856WA0039700458
B1402053700130N00242856WA0039700458
B1402063700130N00242856WA0039700458
B1402073700130N00242856WA0039700458
B1402083700130N00242857WA0039700458
B1402093700130N00242857WA0039700458
B1402103700130N00242857WA0039700458
B1402113700130N00242857WA0039700458
B1402123700130N00242857WA0039700458
B1402133700130N00242857WA0039700458
B1402143700130N00242857WA0039700458
B1402153700130N00242857WA0039700458
B1402163700130N00242857WA0039700458
B1402173700130N00242857WA0039700458
B1402183700129N00242857WA0039700458
B1402193700129N00242857WA0039700458
B1402203700129N00242857WA0039700458
B1402213700129N00242857WA0039700458
B1402223700129N00242857WA0039700458
B1402233700129N00242856WA0039700458
B1402243700129N00242856WA0039700458
B1402253700129N00242856WA0039700458
B1402263700129N00242856WA0039700458
B1402273700129N00242856WA0039700458
B1402283700129N00242856WA0039700458
B1402293700129N00242856WA0039700458
B1402303700129N00242856WA0039700458
B1402313700129N00242856WA0039700458
B1402323700129N00242856WA0039700458
B1402333700129N00242856WA0039700458
B1402343700129N00242856WA0039700458
B1402353700129N00242856WA0039700458
B1402363700129N00242856WA0039700458
B1402373700129N00242856WA0039700458
B1402383700129N00242856WA0039700458
B1402393700129N00242856WA0039700458
B1402403700129N00242856WA0039700458
B1402413700129N00242856WA0039700458
B1402423700129N00242856WA0039700458
B1402433700129N00242856WA0039700458
B1402443700129N00242856WA0039700458
B1402453700129N00242856WA0039700458
B1402463700129N00242856WA0039700458
B1402473700129N00242856WA0039700458
B1402483700129N00242856WA0039700459
B1402493700129N00242856WA0039700458
B1402503700129N00242856WA0039700458
B1402513700129N00242856WA0039700458
B1402523700129N00242856WA0039700459
B1402533700129N00242856WA0039700459
B1402543700129N00242856WA0039700459
B1402553700129N00242856WA0039700459
B1402563700129N00242856WA0039700459
B1402573700129N00242856WA0039700459
B1402583700129N00242856WA0039700459
B1402593700129N00242856WA0039700459
B1403003700129N00242856WA0039700459
B1403013700128N00242856WA0039700459
B1403023700128N00242856WA0039700460
B1403033700128N00242855WA0039700460
B1403043700128N00242855WA0039700460
B1403053700128N00242855WA0039700460
B1403063700128N00242855WA0039700460
B1403073700128N00242855WA0039700460
B1403083700128N00242855WA0039700460
B1403093700128N00242855WA0039700460
B1403103700129N00242855WA0039700460
B1403113700129N00242855WA0039700460
B1403123700129N00242855WA0039700460
B1403133700129N00242855WA0039700460
B1403143700129N00242855WA0039700460
B1403153700129N00242855WA0039700460
B1403163700129N00242855WA0039700460
B1403173700129N00242855WA0039700460
B1403183700129N00242855WA0039700460
B1403193700129N00242855WA0039700460
B1403203700129N00242855WA0039700460
B1403213700129N00242855WA0039700460
B1403223700129N00242855WA0039700460
B1403233700130N00242855WA0039700460
B1403243700130N00242855WA0039700460
B1403253700130N00242855WA0039700461
B1403263700130N00242855WA0039700461
B1403273700130N00242855WA0039700461
B1403283700130N00242855WA0039700460
B1403293700130N00242855WA0039700460
B1403303700130N00242855WA0039700460
B1403313700130N00242855WA0039700460
B1403323700130N00242855WA0039700460
B1403333700130N00242855WA0039700461
B1403343700130N00242855WA0039700461
B1403353700129N00242855WA0039700462
B1403363700129N00242855WA0039800462
B1403373700129N00242855WA0039700462
B1403383700129N00242855WA0039700463
B1403393700129N00242855WA0039700463
B1403403700129N00242855WA0039700463
B1403413700129N00242856WA0039700464
B1403423700129N00242856WA0039700464
B1403433700129N00242856WA0039700464
B1403443700129N00242856WA0039700465
B1403453700129N00242856WA0039800465
B1403463700129N00242856WA0039700465
B1403473700129N00242856WA0039700465
B1403483700129N00242856WA0039700466
B1403493700129N00242856WA0039800466
B1403503700129N00242856WA0039700466
B1403513700129N00242856WA0039700466
B1403523700128N00242856WA0039700466
B1403533700128N00242856WA0039700466
B1403543700128N00242856WA0039700466
B1403553700128N00242856WA0039700466
B1403563700128N00242856WA0039700466
B1403573700128N00242856WA0039700466
B1403583700128N00242856WA0039800465
B1403593700128N00242856WA0039800465
B1404003700129N00242856WA0039800465
B1404013700129N00242856WA0039700465
B1404023700129N00242856WA0039800464
B1404033700129N00242856WA0039800464
B1404043700129N00242856WA0039800464
B1404053700129N00242856WA0039700464
B1404063700129N00242856WA0039800464
B1404073700129N00242856WA0039800464
B1404083700129N00242856WA0039700464
B1404093700129N00242856WA0039800463
B1404103700129N00242856WA0039800463
B1404113700129N00242856WA0039700463
B1404123700129N00242856WA0039800463
B1404133700129N00242856WA0039700463
B1404143700129N00242856WA0039700463
B1404153700129N00242856WA0039800463
B1404163700129N00242856WA0039700463
B1404173700129N00242856WA0039800463
B1404183700129N00242856WA0039700463
B1404193700129N00242856WA0039700463
B1404203700129N00242856WA0039800463
B1404213700129N00242856WA0039800463
B1404223700129N00242856WA0039800463
B1404233700129N00242856WA0039800463
B1404243700129N00242856WA0039800463
B1404253700129N00242856WA0039800463
B1404263700129N00242857WA0039700463
B1404273700129N00242857WA0039800463
B1404283700129N00242857WA0039800463
B1404293700129N00242857WA0039800463
B1404303700129N00242857WA0039800464
B1404313700129N00242857WA0039800464
B1404323700129N00242857WA0039800464
B1404333700129N00242857WA0039800464
B1404343700129N00242857WA0039800465
B1404353700129N00242857WA0039800465
B1404363700129N00242857WA0039800465
B1404373700129N00242857WA0039800466
B1404383700129N00242857WA0039800466
B1404393700129N00242856WA0039800466
B1404403700129N00242856WA0039800467
B1404413700129N00242856WA0039800467
B1404423700129N00242856WA0039800467
B1404433700129N00242856WA0039800467
B1404443700129N00242856WA0039800467
B1404453700129N00242856WA0039800467
B1404463700129N00242856WA0039800467
B1404473700129N00242855WA0039800467
B1404483700129N00242855WA0039800467
B1404493700129N00242855WA0039900467
B1404503700129N00242855WA0039800468
B1404513700130N00242855WA0039800465
B1404523700130N00242855WA0039800464
B1404533700130N00242854WA0039800462
B1404543700130N00242854WA0039800461
B1404553700130N00242854WA0039800461
B1404563700130N00242854WA0039800462
B1404573700130N00242853WA0039800462
B1404583700130N00242853WA0039800463
B1404593700130N00242854WA0039800463
B1405003700129N00242854WA0039800463
B1405013700129N00242854WA0039800464
B1405023700129N00242853WA0039900464
B1405033700129N00242853WA0039800464
B1405043700129N00242853WA0039800463
B1405053700129N00242853WA0039800463
B1405063700129N00242853WA0039800463
B1405073700129N00242853WA0039600462
B1405083700129N00242853WA0039900462
B1405093700129N00242853WA0039800461
B1405103700130N00242853WA0039800461
B1405113700130N00242854WA0039800460
B1405123700130N00242854WA0039800459
B1405133700130N00242854WA0039800459
B1405143700130N00242855WA0039800459
B1405153700130N00242854WA0039800458
B1405163700130N00242854WA0039800458
B1405173700130N00242854WA0039800458
B1405183700130N00242854WA0039800457
B1405193700130N00242854WA0039800457
B1405203700130N00242854WA0039800457
B1405213700130N00242854WA0039800457
B1405223700130N00242854WA0039800457
B1405233700130N00242854WA0039800456
B1405243700130N00242854WA0039800456
B1405253700130N00242854WA0039800455
B1405263700129N00242854WA0039800455
B1405273700129N00242854WA0039800455
B1405283700129N00242854WA0039800454
B1405293700129N00242854WA0039800454
B1405303700129N00242854WA0039800453
B1405313700130N00242854WA0039800453
B1405323700130N00242854WA0039800453
B1405333700130N00242854WA0039800452
B1405343700130N00242854WA0039800452
B1405353700130N00242854WA0039800452
B1405363700130N00242854WA0039800452
B1405373700130N00242854WA0039800452
B1405383700130N00242854WA0039800452
B1405393700130N00242854WA0039800452
B1405403700130N00242854WA0039800452
B1405413700130N00242854WA0039800452
B1405423700131N00242854WA0039800451
B1405433700131N00242854WA0039800451
B1405443700131N00242854WA0039800451
B1405453700131N00242854WA0039800451
B1405463700131N00242854WA0039800451
B1405473700131N00242854WA0039800452
B1405483700131N00242854WA0039800452
B1405493700132N00242854WA0039800452
B1405503700132N00242854WA0039800452
B1405513700132N00242854WA0039800452
B1405523700132N00242853WA0039800452
B1405533700132N00242853WA0039800452
B1405543700132N00242853WA0039800452
B1405553700132N00242853WA0039800452
B1405563700133N00242853WA0039800452
B1405573700133N00242853WA0039800452
B1405583700133N00242853WA0039800452
B1405593700133N00242853WA0039800452
B1406003700133N00242853WA0039800452
B1406013700133N00242853WA0039900452
B1406023700133N00242853WA0039800452
B1406033700132N00242854WA0039800452
B1406043700132N00242854WA0039800452
B1406053700132N00242854WA0039800452
B1406063700132N00242854WA0039800452
B1406073700132N00242854WA0039800452
B1406083700132N00242854WA0039900452
B1406093700132N00242855WA0039800452
B1406103700132N00242855WA0039900452
B1406113700131N00242855WA0039800452
B1406123700131N00242855WA0039800452
B1406133700131N00242855WA0039900452
B1406143700131N00242855WA0039900452
B1406153700131N00242856WA0039800451
B1406163700131N00242856WA0039800451
B1406173700131N00242856WA0039800451
B1406183700131N00242856WA0039800451
B1406193700131N00242856WA0039900451
B1406203700131N00242856WA0039800451
B1406213700130N00242856WA0039800452
B1406223700130N00242856WA0039900452
B1406233700130N00242856WA0039900452
B1406243700130N00242856WA0039800452
B1406253700130N00242856WA0039800452
B1406263700130N00242856WA0039800452
B1406273700130N00242856WA0039800453
B1406283700129N00242856WA0039800453
B1406293700130N00242856WA0039800453
B1406303700129N00242856WA0039800453
B1406313700129N00242856WA0039900453
B1406323700129N00242856WA0039800453
B1406333700129N00242856WA0039900453
B1406343700129N00242856WA0039800454
B1406353700129N00242856WA0039800454
B1406363700129N00242856WA0039800454
B1406373700129N00242856WA0039800455
B1406383700129N00242856WA0039800455
B1406393700129N00242856WA0039800455
B1406403700129N00242856WA0039800455
B1406413700129N00242856WA0039800455
B1406423700129N00242856WA0039900455
B1406433700129N00242856WA0039800455
B1406443700129N00242856WA0039800455
B1406453700129N00242856WA0039800456
B1406463700129N00242856WA0039800456
B1406473700129N00242856WA0039800456
B1406483700129N00242856WA0039800456
B1406493700129N00242856WA0039900456
B1406503700129N00242856WA0039900456
B1406513700129N00242856WA0039800456
B1406523700129N00242856WA0039900457
B1406533700129N00242856WA0039900457
B1406543700129N00242856WA0039900457
B1406553700129N00242855WA0039800457
B1406563700129N00242855WA0039900456
B1406573700129N00242855WA0039800456
B1406583700129N00242855WA0039800456
B1406593700129N00242855WA0039800456
B1407003700129N00242855WA0039800456
B1407013700129N00242855WA0039800456
B1407023700129N00242855WA0039900456
B1407033700129N00242855WA0039900456
B1407043700129N00242855WA0039800456
B1407053700129N00242855WA0039900455
B1407063700129N00242855WA0039900455
B1407073700129N00242855WA0039800455
B1407083700129N00242855WA0039800455
B1407093700129N00242855WA0039900455
B1407103700129N00242854WA0039800454
B1407113700129N00242854WA0039900454
B1407123700129N00242854WA0039800454
B1407133700129N00242854WA0039900453
B1407143700129N00242854WA0039900453
B1407153700129N00242854WA0039900453
B1407163700129N00242854WA0039800453
B1407173700129N00242854WA0039800452
B1407183700129N00242854WA0039900452
B1407193700129N00242854WA0039900452
B1407203700129N00242854WA0039800452
B1407213700129N00242854WA0039900452
B1407223700129N00242854WA0039800452
B1407233700129N00242854WA0039800452
B1407243700129N00242854WA0039900452
B1407253700129N00242854WA0039800451
B1407263700129N00242854WA0039800451
B1407273700129N00242854WA0039800451
B1407283700129N00242854WA0039900451
B1407293700129N00242854WA0039900451
B1407303700129N00242854WA0039900451
B1407313700129N00242854WA0039900451
B1407323700129N00242854WA0039900451
B1407333700129N00242854WA0039900451
B1407343700129N00242854WA0039900451
B1407353700129N00242855WA0039800451
B1407363700129N00242855WA0039900451
B1407373700129N00242855WA0039900451
B1407383700129N00242855WA0039900451
B1407393700129N00242855WA0039900452
B1407403700129N00242855WA0039900452
B1407413700129N00242855WA0039900452
B1407423700130N00242855WA0039900452
B1407433700130N00242855WA0039900452
B1407443700130N00242855WA0039900452
B1407453700130N00242855WA0039800452
B1407463700130N00242855WA0039900452
B1407473700130N00242855WA0039900452
B1407483700130N00242855WA0039900452
B1407493700130N00242855WA0039900452
B1407503700130N00242855WA0039900452
B1407513700130N00242855WA0039900452
B1407523700131N00242855WA0039900452
B1407533700131N00242855WA0039900452
B1407543700131N00242855WA0039900452
B1407553700131N00242855WA0039900452
B1407563700131N00242855WA0039800452
B1407573700131N00242855WA0039800452
B1407583700131N00242855WA0039900452
B1407593700131N00242855WA0039900452
B1408003700131N00242855WA0039900452
B1408013700131N00242855WA0039900451
B1408023700131N00242855WA0039800451
B1408033700131N00242855WA0039900451
B1408043700131N00242855WA0039800451
B1408053700131N00242855WA0039900451
B1408063700131N00242855WA0039900451
B1408073700131N00242855WA0039900451
B1408083700131N00242855WA0039900451
B1408093700131N00242855WA0039900451
B1408103700130N00242855WA0039800451
B1408113700130N00242855WA0039900451
B1408123700130N00242855WA0039800451
B1408133700130N00242856WA0039900451
B1408143700130N00242856WA0039800451
B1408153700130N00242856WA0039900451
B1408163700129N00242856WA0039900451
B1408173700129N00242856WA0039900451
B1408183700129N00242856WA0039900451
B1408193700129N00242857WA0039800451
B1408203700129N00242857WA0039800451
B1408213700129N00242857WA0039900451
B1408223700129N00242857WA0039900451
B1408233700129N00242857WA0039900451
B1408243700128N00242857WA0039900451
B1408253700128N00242858WA0039800451
B1408263700128N00242858WA0039800451
B1408273700128N00242858WA0039900452
B1408283700128N00242858WA0039900452
B1408293700128N00242858WA0039800452
B1408303700129N00242858WA0039800452
B1408313700129N00242858WA0039900452
B1408323700129N00242858WA0039900453
B1408333700129N00242857WA0039900453
B1408343700130N00242857WA0039800453
B1408353700130N00242857WA0039800453
B1408363700131N00242857WA0039800453
B1408373700131N00242857WA0039900453
B1408383700131N00242856WA0039900453
B1408393700132N00242856WA0039900453
B1408403700132N00242856WA0039800454
B1408413700132N00242856WA0039900454
B1408423700132N00242856WA0039900454
B1408433700133N00242855WA0039900454
B1408443700133N00242855WA0039900454
B1408453700133N00242855WA0039800454
B1408463700133N00242855WA0039800454
B1408473700134N00242855WA0039900454
B1408483700134N00242855WA0039900453
B1408493700134N00242854WA0039800453
B1408503700134N00242854WA0039900453
B1408513700134N00242854WA0039900453
B1408523700134N00242854WA0039900453
B1408533700134N00242854WA0039800452
B1408543700134N00242854WA0039800452
B1408553700134N00242854WA0039900452
B1408563700134N00242854WA0039900452
B1408573700134N00242854WA0039900451
B1408583700134N00242854WA0039800451
B1408593700134N00242854WA0039800450
B1409003700134N00242854WA0039900450
B1409013700134N00242854WA0039900450
B1409023700134N00242854WA0039900450
B1409033700134N00242854WA0039900449
B1409043700134N00242854WA0039900449
B1409053700134N00242854WA0039900449
B1409063700134N00242854WA0039900449
B1409073700134N00242854WA0039900448
B1409083700134N00242854WA0039900448
B1409093700134N00242854WA0039900448
B1409103700134N00242854WA0039900448
B1409113700134N00242855WA0039900448
B1409123700134N00242855WA0039900448
B1409133700133N00242855WA0039900448
B1409143700133N00242855WA0039800448
B1409153700133N00242855WA0039900448
B1409163700133N00242855WA0039900447
B1409173700133N00242855WA0039900447
B1409183700132N00242855WA0039900447
B1409193700132N00242855WA0039800447
B1409203700132N00242855WA0039800447
B1409213700132N00242856WA0039800447
B1409223700132N00242856WA0039900447
B1409233700131N00242856WA0039900447
B1409243700131N00242856WA0039900447
B1409253700131N00242856WA0039900447
B1409263700131N00242856WA0039900448
B1409273700131N00242856WA0039900448
B1409283700131N00242856WA0039900448
B1409293700131N00242856WA0039900448
B1409303700131N00242856WA0039900449
B1409313700130N00242856WA0039900449
B1409323700130N00242856WA0039900449
B1409333700130N00242856WA0039900450
B1409343700130N00242856WA0039900450
B1409353700130N00242857WA0039900450
B1409363700130N00242857WA0039900451
B1409373700130N00242857WA0039800451
B1409383700130N00242857WA0039900451
B1409393700131N00242857WA0039900452
B1409403700131N00242857WA0039900452
B1409413700131N00242857WA0039900452
B1409423700131N00242857WA0039900452
B1409433700131N00242857WA0039900453
B1409443700130N00242857WA0039900453
B1409453700131N00242857WA0039900453
B1409463700130N00242857WA0039900453
B1409473700130N00242857WA0039800454
B1409483700130N00242857WA0039800454
B1409493700130N00242857WA0039900454
B1409503700130N00242857WA0039900454
B1409513700130N00242857WA0039900454
B1409523700130N00242857WA0039800454
B1409533700130N00242857WA0039900454
B1409543700130N00242857WA0039900454
B1409553700130N00242857WA0039900454
B1409563700130N00242857WA0039900454
B1409573700130N00242857WA0039900454
B1409583700130N00242857WA0039900454
B1409593700130N00242857WA0039900454
B1410003700130N00242857WA0039900454
B1410013700130N00242857WA0039900454
B1410023700130N00242856WA0039900453
B1410033700130N00242856WA0039900453
B1410043700130N00242856WA0039800453
B1410053700130N00242856WA0039900453
B1410063700130N00242856WA0039900452
B1410073700130N00242856WA0039900452
B1410083700130N00242856WA0039800452
B1410093700130N00242856WA0039800452
B1410103700130N00242856WA0039900452
B1410113700130N00242856WA0039900451
B1410123700131N00242856WA0039900451
B1410133700131N00242855WA0039800451
B1410143700131N00242855WA0039900451
B1410153700131N00242855WA0039800451
B1410163700131N00242855WA0039900451
B1410173700131N00242855WA0039900451
B1410183700131N00242855WA0039900451
B1410193700131N00242855WA0039900450
B1410203700131N00242855WA0039800450
B1410213700132N00242855WA0039900450
B1410223700132N00242855WA0039900450
B1410233700132N00242855WA0039900450
B1410243700132N00242855WA0039800450
B1410253700132N00242856WA0039900450
B1410263700132N00242856WA0039900450
B1410273700132N00242856WA0039900450
B1410283700132N00242856WA0039900450
B1410293700132N00242856WA0039900450
B1410303700133N00242856WA0039900450
B1410313700133N00242855WA0039900451
B1410323700133N00242855WA0039900451
B1410333700133N00242855WA0039900451
B1410343700133N00242855WA0039900452
B1410353700133N00242855WA0039900452
B1410363700133N00242855WA0039900452
B1410373700133N00242855WA0039900453
B1410383700133N00242855WA0039900453
B1410393700134N00242855WA0039900453
B1410403700134N00242855WA0039900454
B1410413700134N00242855WA0039900454
B1410423700134N00242855WA0039900454
B1410433700134N00242855WA0039900454
B1410443700134N00242855WA0039900454
B1410453700133N00242855WA0039900454
B1410463700133N00242855WA0039900454
B1410473700133N00242855WA0039900454
B1410483700133N00242855WA0039900454
B1410493700133N00242855WA0039800454
B1410503700133N00242855WA0039800454
B1410513700133N00242855WA0039800454
B1410523700132N00242855WA0039900454
B1410533700132N00242855WA0039900454
B1410543700132N00242855WA0039800454
B1410553700132N00242855WA0039900453
B1410563700132N00242856WA0039900453
B1410573700132N00242856WA0039900453
B1410583700132N00242856WA0039900452
B1410593700132N00242856WA0039800452
B1411003700132N00242856WA0039800452
B1411013700131N00242856WA0039800451
B1411023700131N00242856WA0039800451
B1411033700131N00242856WA0039800451
B1411043700131N00242856WA0039800450
B1411053700131N00242856WA0039800450
B1411063700131N00242856WA0039800450
B1411073700131N00242856WA0039800450
B1411083700131N00242856WA0039900449
B1411093700131N00242856WA0039800449
B1411103700131N00242856WA0039800449
B1411113700131N00242856WA0039900449
B1411123700131N00242856WA0039800449
B1411133700131N00242856WA0039800448
B1411143700131N00242856WA0039800448
B1411153700131N00242856WA0039800448
B1411163700131N00242856WA0039900448
B1411173700131N00242856WA0039800448
B1411183700131N00242856WA0039800448
B1411193700130N00242856WA0039900448
B1411203700130N00242856WA0039900448
B1411213700130N00242856WA0039800448
B1411223700130N00242856WA0039900449
B1411233700130N00242856WA0039900449
B1411243700130N00242856WA0039900449
B1411253700130N00242856WA0039800450
B1411263700130N00242856WA0039800450
B1411273700130N00242856WA0039800450
B1411283700131N00242856WA0039800450
B1411293700131N00242856WA0039900450
B1411303700131N00242855WA0039800450
B1411313700131N00242855WA0039800450
B1411323700131N00242855WA0039900450
B1411333700131N00242855WA0039800450
B1411343700131N00242855WA0039800450
B1411353700131N00242855WA0039900451
B1411363700131N00242855WA0039900451
B1411373700131N00242855WA0039900451
B1411383700131N00242855WA0039800450
B1411393700131N00242855WA0039900450
B1411403700131N00242855WA0039800450
B1411413700131N00242855WA0039900450
B1411423700131N00242855WA0039900450
B1411433700131N00242855WA0039800451
B1411443700131N00242855WA0039800451
B1411453700131N00242855WA0039800451
B1411463700131N00242856WA0039900451
B1411473700131N00242856WA0039900451
B1411483700131N00242856WA0039800451
B1411493700131N00242856WA0039900451
B1411503700131N00242856WA0039800451
B1411513700131N00242856WA0039800451
B1411523700131N00242856WA0039800451
B1411533700131N00242856WA0039800451
B1411543700131N00242856WA0039800451
B1411553700131N00242856WA0039900451
B1411563700131N00242856WA0039800451
B1411573700131N00242856WA0039800451
B1411583700131N00242856WA0039900451
B1411593700131N00242856WA0039900452
B1412003700131N00242856WA0039900452
B1412013700131N00242856WA0039900452
B1412023700131N00242856WA0039900452
B1412033700131N00242856WA0039900452
B1412043700131N00242856WA0039800452
B1412053700132N00242855WA0039800452
B1412063700132N00242855WA0039900452
B1412073700132N00242855WA0039800452
B1412083700132N00242855WA0039900451
B1412093700132N00242855WA0039900451
B1412103700132N00242855WA0039900451
B1412113700132N00242855WA0039900451
B1412123700132N00242855WA0039800451
B1412133700132N00242855WA0039900451
B1412143700132N00242856WA0039900451
B1412153700132N00242856WA0039800450
B1412163700132N00242856WA0039800450
B1412173700131N00242856WA0039900450
B1412183700131N00242856WA0039800450
B1412193700131N00242856WA0039900450
B1412203700131N00242856WA0039900450
B1412213700131N00242856WA0039800450
B1412223700131N00242856WA0039800450
B1412233700131N00242856WA0039800450
B1412243700131N00242856WA0039800450
B1412253700131N00242856WA0039800450
B1412263700130N00242857WA0039800450
B1412273700130N00242857WA0039800451
B1412283700130N00242857WA0039800451
B1412293700130N00242857WA0039800451
B1412303700130N00242857WA0039900451
B1412313700130N00242857WA0039800450
B1412323700130N00242857WA0039800450
B1412333700130N00242857WA0039800450
B1412343700130N00242856WA0039800450
B1412353700130N00242856WA0039900450
B1412363700130N00242856WA0039800450
B1412373700130N00242856WA0039800450
B1412383700130N00242856WA0039800450
B1412393700130N00242856WA0039900450
B1412403700130N00242856WA0039900450
B1412413700131N00242856WA0039800450
B1412423700131N00242856WA0039900450
B1412433700131N00242856WA0039900450
B1412443700131N00242856WA0039900450
B1412453700131N00242855WA0039900450
B1412463700131N00242855WA0039800451
B1412473700131N00242855WA0039800451
B1412483700131N00242855WA0039800451
B1412493700132N00242855WA0039800451
B1412503700132N00242855WA0039900451
B1412513700132N00242855WA0039800451
B1412523700132N00242855WA0039800451
B1412533700132N00242855WA0039800451
B1412543700132N00242855WA0039800451
B1412553700132N00242855WA0039900451
B1412563700132N00242855WA0039800451
B1412573700132N00242855WA0039800451
B1412583700132N00242855WA0039900451
B1412593700132N00242855WA0039800452
B1413003700132N00242855WA0039800452
B1413013700132N00242856WA0039800452
B1413023700132N00242856WA0039800452
B1413033700132N00242856WA0039800452
B1413043700132N00242856WA0039800452
B1413053700132N00242856WA0039800452
B1413063700132N00242856WA0039800452
B1413073700132N00242856WA0039800452
B1413083700132N00242856WA0039800452
B1413093700132N00242856WA0039800452
B1413103700132N00242856WA0039800452
B1413113700132N00242856WA0039800452
B1413123700132N00242856WA0039800452
B1413133700132N00242855WA0039800452
B1413143700132N00242855WA0039800452
B1413153700132N00242855WA0039800452
B1413163700132N00242855WA0039800452
B1413173700132N00242855WA0039800452
B1413183700132N00242855WA0039800452
B1413193700132N00242855WA0039900452
B1413203700132N00242855WA0039900451
B1413213700132N00242855WA0039800451
B1413223700132N00242855WA0039900451
B1413233700132N00242855WA0039900451
B1413243700132N00242855WA0039900451
B1413253700131N00242855WA0039900451
B1413263700131N00242855WA0039800451
B1413273700131N00242855WA0039800451
B1413283700131N00242855WA0039900451
B1413293700131N00242855WA0039800451
B1413303700131N00242855WA0039900451
B1413313700131N00242855WA0039800451
B1413323700131N00242855WA0039800451
B1413333700131N00242855WA0039800451
B1413343700131N00242855WA0039800451
B1413353700131N00242855WA0039800451
B1413363700131N00242855WA0039900451
B1413373700131N00242855WA0039800452
B1413383700131N00242855WA0039800452
B1413393700131N00242855WA0039800452
B1413403700131N00242855WA0039900452
B1413413700131N00242855WA0039800453
B1413423700131N00242855WA0039900453
B1413433700130N00242855WA0039800453
B1413443700130N00242856WA0039900454
B1413453700130N00242856WA0039800454
B1413463700130N00242856WA0039800454
B1413473700130N00242856WA0039900455
B1413483700130N00242856WA0039900455
B1413493700130N00242857WA0039900455
B1413503700130N00242857WA0039800456
B1413513700130N00242857WA0039800456
B1413523700130N00242857WA0039800456
B1413533700130N00242857WA0039800456
B1413543700130N00242857WA0039800456
B1413553700130N00242857WA0039800456
B1413563700130N00242857WA0039900456
B1413573700130N00242857WA0039900456
B1413583700130N00242857WA0039800456
B1413593700130N00242857WA0039800456
B1414003700130N00242858WA0039900456
B1414013700129N00242858WA0040000457
B1414023700130N00242857WA0039900457
B1414033700130N00242857WA0039900457
B1414043700130N00242857WA0039900457
B1414053700130N00242857WA0039900457
B1414063700129N00242856WA0039900457
B1414073700129N00242856WA0039900457
B1414083700128N00242855WA0039900457
B1414093700128N00242855WA0039900457
B1414103700127N00242854WA0039900457
B1414113700127N00242854WA0039900457
B1414123700126N00242853WA0039900457
B1414133700126N00242853WA0040000457
B1414143700125N00242853WA0039900456
B1414153700125N00242852WA0039900456
B1414163700124N00242852WA0039800456
B1414173700124N00242851WA0039900456
B1414183700123N00242851WA0039900457
B1414193700123N00242851WA0039900457
B1414203700122N00242850WA0039800457
B1414213700122N00242850WA0039800457
B1414223700121N00242850WA0039800457
B1414233700121N00242850WA0039800457
B1414243700120N00242850WA0039800456
B1414253700120N00242850WA0039900456
B1414263700119N00242851WA0039800456
B1414273700119N00242851WA0039800456
B1414283700119N00242851WA0039800456
B1414293700119N00242851WA0039800455
B1414303700119N00242851WA0039800455
B1414313700120N00242851WA0039700455
B1414323700120N00242851WA0039700455
B1414333700120N00242851WA0039700455
B1414343700120N00242851WA0039700455
B1414353700120N00242851WA0039700455
B1414363700120N00242851WA0039700454
B1414373700120N00242851WA0039700454
B1414383700120N00242851WA0039700454
B1414393700120N00242851WA0039700454
B1414403700120N00242851WA0039800454
B1414413700120N00242851WA0039700454
B1414423700120N00242851WA0039700454
B1414433700120N00242851WA0039700454
B1414443700120N00242851WA0039700454
B1414453700119N00242851WA0039700455
B1414463700119N00242851WA0039700455
B1414473700119N00242851WA0039800455
B1414483700119N00242852WA0039700455
B1414493700119N00242852WA0039700455
B1414503700119N00242852WA0039700455
B1414513700119N00242852WA0039700455
B1414523700119N00242852WA0039700454
B1414533700119N00242852WA0039700454
B1414543700119N00242852WA0039700454
B1414553700119N00242852WA0039700454
B1414563700119N00242852WA0039700453
B1414573700119N00242852WA0039700453
B1414583700119N00242852WA0039700453
B1414593700119N00242852WA0039700453
B1415003700119N00242852WA0039700453
B1415013700119N00242852WA0039700453
B1415023700120N00242852WA0039700453
B1415033700120N00242852WA0039700453
B1415043700120N00242852WA0039700452
B1415053700120N00242852WA0039700453
B1415063700120N00242852WA0039700453
B1415073700120N00242852WA0039700452
B1415083700120N00242852WA0039700452
B1415093700121N00242852WA0039700452
B1415103700121N00242852WA0039700452
B1415113700121N00242852WA0039700452
B1415123700121N00242852WA0039700452
B1415133700121N00242852WA0039700452
B1415143700121N00242852WA0039700451
B1415153700121N00242852WA0039700451
B1415163700121N00242852WA0039700451
B1415173700121N00242852WA0039700450
B1415183700121N00242852WA0039700450
B1415193700121N00242852WA0039700450
B1415203700121N00242851WA0039700449
B1415213700121N00242851WA0039700449
B1415223700121N00242851WA0039800449
B1415233700121N00242851WA0039700448
B1415243700121N00242851WA0039700448
B1415253700121N00242851WA0039700448
B1415263700121N00242851WA0039700448
B1415273700121N00242851WA0039700448
B1415283700121N00242851WA0039700448
B1415293700121N00242851WA0039700448
B1415303700121N00242851WA0039700448
B1415313700121N00242851WA0039700448
B1415323700121N00242851WA0039700449
B1415333700121N00242851WA0039700449
B1415343700121N00242851WA0039700449
B1415353700121N00242851WA0039800450
B1415363700121N00242851WA0039700450
B1415373700121N00242851WA0039700450
B1415383700121N00242851WA0039700451
B1415393700121N00242851WA0039800451
B1415403700121N00242851WA0039700451
B1415413700121N00242851WA0039700451
B1415423700121N00242851WA0039700451
B1415433700121N00242851WA0039700451
B1415443700121N00242851WA0039700451
B1415453700121N00242851WA0039700451
B1415463700121N00242851WA0039700450
B1415473700121N00242851WA0039800450
B1415483700121N00242851WA0039700449
B1415493700121N00242851WA0039700449
B1415503700120N00242851WA0039700449
B1415513700120N00242851WA0039700449
B1415523700120N00242851WA0039700448
B1415533700120N00242851WA0039700448
B1415543700120N00242851WA0039700448
B1415553700120N00242851WA0039700448
B1415563700120N00242851WA0039800448
B1415573700120N00242851WA0039700448
B1415583700121N00242851WA0039700448
B1415593700121N00242851WA0039700448
B1416003700121N00242851WA0039700448
B1416013700121N00242851WA0039700449
B1416023700121N00242851WA0039700449
B1416033700121N00242851WA0039800449
B1416043700121N00242851WA0039700449
B1416053700121N00242851WA0039700449
B1416063700121N00242851WA0039800450
B1416073700121N00242851WA0039700450
B1416083700121N00242851WA0039700450
B1416093700121N00242851WA0039700450
B1416103700121N00242851WA0039700451
B1416113700121N00242851WA0039700451
B1416123700122N00242851WA0039700450
B1416133700122N00242851WA0039700450
B1416143700122N00242851WA0039700450
B1416153700122N00242851WA0039700450
B1416163700122N00242851WA0039700450
B1416173700121N00242851WA0039700450
B1416183700121N00242851WA0039800450
B1416193700121N00242851WA0039700450
B1416203700121N00242851WA0039700450
B1416213700121N00242851WA0039700450
B1416223700121N00242851WA0039700450
B1416233700121N00242851WA0039700450
B1416243700121N00242851WA0039700450
B1416253700121N00242851WA0039700451
B1416263700121N00242851WA0039700451
B1416273700121N00242851WA0039700452
B1416283700121N00242851WA0039700452
B1416293700120N00242851WA0039700453
B1416303700120N00242851WA0039700454
B1416313700120N00242851WA0039700454
B1416323700120N00242851WA0039700455
B1416333700120N00242851WA0039700455
B1416343700120N00242851WA0039700455
B1416353700120N00242851WA0039700456
B1416363700120N00242851WA0039700455
B1416373700120N00242852WA0039700455
B1416383700120N00242852WA0039700455
B1416393700119N00242852WA0039700455
B1416403700119N00242852WA0039700455
B1416413700119N00242852WA0039700454
B1416423700119N00242852WA0039700454
B1416433700119N00242852WA0039700453
B1416443700119N00242852WA0039700452
B1416453700119N00242852WA0039700452
B1416463700119N00242851WA0039700451
B1416473700119N00242851WA0039700451
B1416483700119N00242851WA0039700450
B1416493700119N00242851WA0039700450
B1416503700119N00242851WA0039700450
B1416513700119N00242851WA0039700450
B1416523700119N00242851WA0039700450
B1416533700119N00242851WA0039700450
B1416543700119N00242851WA0039700450
B1416553700119N00242851WA0039700450
B1416563700119N00242851WA0039700450
B1416573700119N00242851WA0039700450
B1416583700119N00242851WA0039700450
B1416593700120N00242851WA0039700450
B1417003700120N00242851WA0039700451
B1417013700120N00242851WA0039700451
B1417023700120N00242851WA0039700451
B1417033700120N00242851WA0039700451
B1417043700120N00242851WA0039700451
B1417053700120N00242851WA0039700452
B1417063700120N00242851WA0039700452
B1417073700120N00242851WA0039700452
B1417083700120N00242851WA0039700452
B1417093700120N00242851WA0039700452
B1417103700120N00242851WA0039700452
B1417113700120N00242851WA0039700451
B1417123700120N00242851WA0039700451
B1417133700120N00242851WA0039700451
B1417143700120N00242851WA0039700451
B1417153700120N00242851WA0039700451
B1417163700120N00242851WA0039700451
B1417173700120N00242851WA0039700451
B1417183700120N00242851WA0039700451
B1417193700120N00242851WA0039700452
B1417203700120N00242851WA0039700452
B1417213700120N00242851WA0039700452
B1417223700120N00242851WA0039700453
B1417233700120N00242851WA0039700453
B1417243700119N00242851WA0039700453
B1417253700119N00242851WA0039700453
B1417263700119N00242851WA0039700454
B1417273700119N00242851WA0039700454
B1417283700119N00242851WA0039700454
B1417293700119N00242851WA0039700454
B1417303700119N00242851WA0039700454
B1417313700119N00242851WA0039700454
B1417323700119N00242851WA0039700453
B1417333700120N00242851WA0039700453
B1417343700120N00242851WA0039700452
B1417353700120N00242851WA0039700451
B1417363700120N00242851WA0039700451
B1417373700120N00242851WA0039700450
B1417383700120N00242851WA0039700450
B1417393700121N00242851WA0039700450
B1417403700121N00242851WA0039700450
B1417413700121N00242851WA0039700449
B1417423700121N00242851WA0039700449
B1417433700121N00242851WA0039700449
B1417443700121N00242851WA0039700449
B1417453700121N00242851WA0039700449
B1417463700121N00242851WA0039700449
B1417473700121N00242851WA0039700449
B1417483700121N00242851WA0039700449
B1417493700121N00242851WA0039700449
B1417503700121N00242851WA0039700449
B1417513700121N00242851WA0039700449
B1417523700121N00242851WA0039700449
B1417533700121N00242851WA0039700449
B1417543700121N00242851WA0039700449
B1417553700121N00242851WA0039700449
B1417563700121N00242851WA0039700448
B1417573700121N00242851WA0039700448
B1417583700121N00242851WA0039700448
B1417593700121N00242851WA0039700448
B1418003700120N00242851WA0039700448
B1418013700120N00242851WA0039700449
B1418023700120N00242851WA0039700449
B1418033700120N00242851WA0039700449
B1418043700120N00242851WA0039700449
B1418053700120N00242851WA0039700449
B1418063700120N00242851WA0039700449
B1418073700120N00242851WA0039700449
B1418083700120N00242852WA0039700449
B1418093700120N00242852WA0039700450
B1418103700120N00242852WA0039700451
B1418113700120N00242852WA0039700451
B1418123700120N00242852WA0039700452
B1418133700120N00242852WA0039700452
B1418143700120N00242852WA0039700452
B1418153700120N00242852WA0039700452
B1418163700120N00242852WA0039700453
B1418173700120N00242852WA0039700453
B1418183700120N00242852WA0039700453
B1418193700120N00242852WA0039700453
B1418203700120N00242852WA0039700454
B1418213700121N00242852WA0039700454
B1418223700121N00242852WA0039700454
B1418233700121N00242852WA0039700454
B1418243700121N00242852WA0039700454
B1418253700121N00242852WA0039700454
B1418263700121N00242852WA0039700454
B1418273700121N00242852WA0039700454
B1418283700121N00242852WA0039700453
B1418293700121N00242852WA0039700453
B1418303700121N00242852WA0039700453
B1418313700121N00242852WA0039700453
B1418323700121N00242851WA0039700453
B1418333700121N00242851WA0039700452
B1418343700121N00242851WA0039700452
B1418353700121N00242851WA0039700452
B1418363700121N00242851WA0039700453
B1418373700121N00242851WA0039700453
B1418383700121N00242851WA0039700453
B1418393700121N00242851WA0039700452
B1418403700121N00242851WA0039700452
B1418413700121N00242851WA0039700452
B1418423700121N00242851WA0039700452
B1418433700121N00242851WA0039700453
B1418443700121N00242851WA0039700453
B1418453700121N00242851WA0039700453
B1418463700121N00242851WA0039700453
B1418473700120N00242851WA0039700453
B1418483700120N00242851WA0039700453
B1418493700120N00242851WA0039700454
B1418503700120N00242851WA0039700454
B1418513700120N00242851WA0039700454
B1418523700120N00242851WA0039700454
B1418533700119N00242851WA0039700454
B1418543700119N00242851WA0039700455
B1418553700119N00242851WA0039700455
B1418563700119N00242851WA0039700455
B1418573700119N00242851WA0039700455
B1418583700119N00242851WA0039700455
B1418593700119N00242851WA0039700455
B1419003700119N00242851WA0039700455
B1419013700119N00242851WA0039700455
B1419023700119N00242851WA0039700455
B1419033700119N00242851WA0039700454
B1419043700119N00242851WA0039700454
B1419053700119N00242851WA0039700454
B1419063700119N00242851WA0039700454
B1419073700120N00242851WA0039700454
B1419083700120N00242851WA0039700453
B1419093700120N00242851WA0039700453
B1419103700120N00242851WA0039700452
B1419113700120N00242851WA0039700452
B1419123700120N00242851WA0039700452
B1419133700120N00242851WA0039700452
B1419143700120N00242851WA0039700451
B1419153700120N00242851WA0039700451
B1419163700120N00242851WA0039700451
B1419173700120N00242851WA0039700451
B1419183700120N00242851WA0039700451
B1419193700120N00242851WA0039700452
B1419203700120N00242851WA0039700452
B1419213700120N00242851WA0039700452
B1419223700120N00242851WA0039700453
B1419233700120N00242851WA0039700453
B1419243700120N00242851WA0039700453
B1419253700120N00242851WA0039700453
B1419263700120N00242851WA0039700454
B1419273700120N00242852WA0039700454
B1419283700120N00242851WA0039700454
B1419293700120N00242851WA0039700454
B1419303700120N00242851WA0039700454
B1419313700120N00242851WA0039700454
B1419323700120N00242851WA0039700454
B1419333700119N00242851WA0039700454
B1419343700119N00242851WA0039700454
B1419353700119N00242851WA0039700453
B1419363700119N00242851WA0039700453
B1419373700119N00242851WA0039700452
B1419383700119N00242851WA0039700452
B1419393700119N00242851WA0039700452
B1419403700120N00242851WA0039700452
B1419413700120N00242851WA0039700452
B1419423700120N00242851WA0039700451
B1419433700120N00242851WA0039700451
B1419443700120N00242851WA0039700451
B1419453700120N00242851WA0039700451
B1419463700120N00242851WA0039700451
B1419473700120N00242851WA0039700451
B1419483700120N00242851WA0039700451
B1419493700120N00242851WA0039700451
B1419503700120N00242851WA0039700451
B1419513700120N00242851WA0039700451
B1419523700120N00242851WA0039700452
B1419533700120N00242851WA0039700452
B1419543700120N00242851WA0039700453
B1419553700120N00242851WA0039700453
B1419563700120N00242851WA0039700453
B1419573700120N00242851WA0039700454
B1419583700120N00242851WA0039700454
B1419593700120N00242851WA0039700453
B1420003700120N00242851WA0039700453
B1420013700119N00242851WA0039700452
B1420023700119N00242851WA0039700452
B1420033700119N00242851WA0039700452
B1420043700119N00242851WA0039700451
B1420053700119N00242851WA0039700451
B1420063700119N00242851WA0039700451
B1420073700119N00242851WA0039700450
B1420083700119N00242851WA0039700450
B1420093700119N00242851WA0039700450
B1420103700119N00242851WA0039700450
B1420113700119N00242851WA0039700450
B1420123700119N00242851WA0039700450
B1420133700119N00242851WA0039700450
B1420143700119N00242851WA0039700450
B1420153700119N00242851WA0039700449
B1420163700119N00242851WA0039700449
B1420173700119N00242851WA0039700450
B1420183700119N00242851WA0039700450
B1420193700119N00242851WA0039700450
B1420203700119N00242851WA0039700451
B1420213700119N00242851WA0039700451
B1420223700119N00242851WA0039700451
B1420233700119N00242851WA0039700451
B1420243700119N00242851WA0039700452
B1420253700119N00242851WA0039700452
B1420263700119N00242851WA0039700452
B1420273700119N00242851WA0039700452
B1420283700118N00242851WA0039700452
B1420293700118N00242851WA0039700452
B1420303700118N00242851WA0039700452
B1420313700118N00242851WA0039700452
B1420323700118N00242852WA0039700452
B1420333700118N00242852WA0039700452
B1420343700118N00242852WA0039700452
B1420353700118N00242852WA0039700452
B1420363700118N00242852WA0039700452
B1420373700118N00242852WA0039700452
B1420383700118N00242852WA0039700451
B1420393700118N00242852WA0039700451
B1420403700119N00242852WA0039700451
B1420413700119N00242851WA0039700450
B1420423700119N00242851WA0039700450
B1420433700119N00242851WA0039700450
B1420443700119N00242851WA0039700450
B1420453700119N00242851WA0039700449
B1420463700119N00242851WA0039700449
B1420473700119N00242851WA0039700449
B1420483700119N00242851WA0039700449
B1420493700119N00242851WA0039700449
B1420503700119N00242851WA0039700449
B1420513700118N00242851WA0039700449
B1420523700118N00242851WA0039700450
B1420533700119N00242851WA0039700451
B1420543700119N00242851WA0039700451
B1420553700119N00242851WA0039700452
B1420563700119N00242851WA0039700452
B1420573700119N00242851WA0039700453
B1420583700119N00242851WA0039700453
B1420593700118N00242851WA0039700453
B1421003700118N00242851WA0039700453
B1421013700118N00242851WA0039700453
B1421023700118N00242852WA0039700453
B1421033700118N00242852WA0039700453
B1421043700118N00242852WA0039700453
B1421053700118N00242852WA0039700454
B1421063700118N00242852WA0039700454
B1421073700118N00242852WA0039700454
B1421083700118N00242852WA0039700454
B1421093700118N00242852WA0039700454
B1421103700118N00242852WA0039700454
B1421113700118N00242852WA0039700454
B1421123700118N00242852WA0039700454
B1421133700118N00242852WA0039700454
B1421143700118N00242851WA0039700454
B1421153700118N00242851WA0039700454
B1421163700118N00242851WA0039700454
B1421173700118N00242851WA0039700454
B1421183700118N00242851WA0039700454
B1421193700118N00242851WA0039700454
B1421203700119N00242851WA0039700454
B1421213700118N00242851WA0039700454
B1421223700118N00242851WA0039700452
B1421233700118N00242851WA0039700452
B1421243700119N00242851WA0039700452
B1421253700119N00242851WA0039700452
B1421263700119N00242851WA0039700452
B1421273700119N00242851WA0039700452
B1421283700119N00242851WA0039700452
B1421293700119N00242850WA0039700452
B1421303700119N00242850WA0039700452
B1421313700120N00242850WA0039700452
B1421323700120N00242850WA0039700452
B1421333700119N00242851WA0039700452
B1421343700119N00242851WA0039700452
B1421353700119N00242851WA0039700452
B1421363700119N00242851WA0039700452
B1421373700118N00242851WA0039700452
B1421383700118N00242852WA0039700452
B1421393700118N00242852WA0039700452
B1421403700118N00242852WA0039700452
B1421413700118N00242852WA0039700453
B1421423700118N00242852WA0039700453
B1421433700118N00242852WA0039700453
B1421443700118N00242852WA0039700453
B1421453700118N00242852WA0039700453
B1421463700118N00242851WA0039700453
B1421473700119N00242851WA0039700453
B1421483700119N00242851WA0039700453
B1421493700119N00242851WA0039700453
B1421503700119N00242851WA0039700453
B1421513700119N00242851WA0039700453
B1421523700119N00242851WA0039700452
B1421533700119N00242851WA0039700452
B1421543700119N00242851WA0039700452
B1421553700120N00242851WA0039700451
B1421563700120N00242851WA0039700451
B1421573700120N00242851WA0039700451
B1421583700120N00242851WA0039700450
B1421593700120N00242851WA0039700450
B1422003700120N00242851WA0039700450
B1422013700121N00242851WA0039700450
B1422023700121N00242851WA0039700451
B1422033700121N00242851WA0039700451
B1422043700121N00242851WA0039700451
B1422053700121N00242851WA0039700451
B1422063700121N00242851WA0039700450
B1422073700121N00242851WA0039700450
B1422083700120N00242851WA0039700450
B1422093700120N00242851WA0039700450
B1422103700120N00242851WA0039700449
B1422113700120N00242851WA0039700449
B1422123700120N00242851WA0039700449
B1422133700120N00242851WA0039700448
B1422143700120N00242851WA0039700448
B1422153700120N00242851WA0039800448
B1422163700120N00242851WA0039800449
B1422173700120N00242851WA0039700449
B1422183700119N00242851WA0039700449
B1422193700118N00242851WA0039800450
B1422203700118N00242851WA0039700450
B1422213700118N00242851WA0039800450
B1422223700118N00242851WA0039700450
B1422233700118N00242851WA0039700450
B1422243700117N00242851WA0039700450
B1422253700118N00242850WA0039600450
B1422263700117N00242850WA0039600450
B1422273700117N00242850WA0039600451
B1422283700117N00242850WA0039600451
B1422293700117N00242850WA0039600451
B1422303700116N00242850WA0039600451
B1422313700116N00242850WA0039700451
B1422323700116N00242851WA0039600451
B1422333700116N00242851WA0039600451
B1422343700115N00242851WA0039600451
B1422353700115N00242851WA0039600451
B1422363700115N00242851WA0039600451
B1422373700115N00242851WA0039700451
B1422383700115N00242851WA0039700451
B1422393700115N00242851WA0039600452
B1422403700115N00242851WA0039600452
B1422413700115N00242851WA0039600452
B1422423700115N00242851WA0039700452
B1422433700115N00242851WA0039600452
B1422443700115N00242851WA0039700452
B1422453700115N00242851WA0039600452
B1422463700115N00242851WA0039600452
B1422473700115N00242850WA0039600452
B1422483700115N00242850WA0039600453
B1422493700115N00242850WA0039700453
B1422503700115N00242850WA0039600453
B1422513700115N00242850WA0039600453
B1422523700115N00242850WA0039700453
B1422533700115N00242850WA0039700454
B1422543700115N00242850WA0039600454
B1422553700115N00242850WA0039600454
B1422563700115N00242850WA0039700454
B1422573700115N00242850WA0039700454
B1422583700115N00242850WA0039600454
B1422593700115N00242850WA0039600455
B1423003700115N00242850WA0039600455
B1423013700115N00242850WA0039600455
B1423023700115N00242850WA0039600455
B1423033700115N00242850WA0039600455
B1423043700114N00242850WA0039600455
B1423053700114N00242850WA0039700455
B1423063700115N00242850WA0039700455
B1423073700114N00242850WA0039600455
B1423083700114N00242850WA0039600455
B1423093700114N00242850WA0039700455
B1423103700114N00242850WA0039700455
B1423113700114N00242850WA0039600455
B1423123700114N00242850WA0039600455
B1423133700114N00242850WA0039600455
B1423143700114N00242850WA0039600455
B1423153700114N00242850WA0039600455
B1423163700114N00242850WA0039700455
B1423173700114N00242851WA0039600454
B1423183700114N00242851WA0039600454
B1423193700114N00242851WA0039700454
B1423203700114N00242851WA0039800455
B1423213700114N00242850WA0039800455
B1423223700114N00242850WA0039800455
B1423233700114N00242850WA0039800456
B1423243700115N00242851WA0039900456
B1423253700115N00242850WA0039800456
B1423263700115N00242850WA0039800456
B1423273700116N00242851WA0039800456
B1423283700116N00242851WA0039800456
B1423293700116N00242852WA0039800456
B1423303700116N00242852WA0039800456
B1423313700116N00242852WA0039800456
B1423323700116N00242852WA0039800456
B1423333700116N00242852WA0039800456
B1423343700116N00242852WA0039800456
B1423353700116N00242852WA0039800456
B1423363700116N00242852WA0039800456
B1423373700117N00242852WA0039800455
B1423383700117N00242852WA0039800455
B1423393700117N00242852WA0039800455
LXGD GpsDump version 4.66
LXGD Downloaded 2012-12-25  10:43:29
G3F771335DD8BF92C
